<?xml version="1.0" encoding="UTF-8" standalone="no" ?>
<gpx xmlns="http://www.topografix.com/GPX/1/1" xmlns:xsi="http://www.w3.org/2001/XMLSchema-instance" xsi:schemaLocation="http://www.topografix.com/GPX/1/1 http://www.topografix.com/GPX/1/1/gpx.xsd" version="1.1" creator="VisuGPX - https://www.visugpx.com">
  <metadata>
    <name>Randonnée des Colettes</name>
    <desc><![CDATA[Circuit de 22 Km]]></desc>
  </metadata>
  <trk>
    <name><![CDATA[Bellanaves Randonnées des Collettes 2012. 22 KM]]></name>
    <trkseg>
      <trkpt lat="46.19794" lon="3.07847">
        <ele>284.21</ele>
        <time>2012-03-04T08:30:02Z</time>
      </trkpt>
      <trkpt lat="46.19779" lon="3.07844">
        <ele>284.21</ele>
        <time>2012-03-04T08:30:11Z</time>
      </trkpt>
      <trkpt lat="46.1977" lon="3.07846">
        <ele>282.28</ele>
        <time>2012-03-04T08:30:19Z</time>
      </trkpt>
      <trkpt lat="46.1976" lon="3.07846">
        <ele>284.21</ele>
        <time>2012-03-04T08:30:27Z</time>
      </trkpt>
      <trkpt lat="46.19751" lon="3.07846">
        <ele>284.21</ele>
        <time>2012-03-04T08:30:35Z</time>
      </trkpt>
      <trkpt lat="46.19741" lon="3.07848">
        <ele>283.73</ele>
        <time>2012-03-04T08:30:42Z</time>
      </trkpt>
      <trkpt lat="46.19732" lon="3.07847">
        <ele>293.34</ele>
        <time>2012-03-04T08:30:51Z</time>
      </trkpt>
      <trkpt lat="46.19723" lon="3.07846">
        <ele>303.43</ele>
        <time>2012-03-04T08:30:59Z</time>
      </trkpt>
      <trkpt lat="46.19719" lon="3.07845">
        <ele>309.68</ele>
        <time>2012-03-04T08:31:06Z</time>
      </trkpt>
      <trkpt lat="46.19711" lon="3.07845">
        <ele>313.05</ele>
        <time>2012-03-04T08:31:13Z</time>
      </trkpt>
      <trkpt lat="46.19702" lon="3.07844">
        <ele>316.41</ele>
        <time>2012-03-04T08:31:20Z</time>
      </trkpt>
      <trkpt lat="46.19693" lon="3.07845">
        <ele>319.3</ele>
        <time>2012-03-04T08:31:28Z</time>
      </trkpt>
      <trkpt lat="46.19683" lon="3.07844">
        <ele>322.18</ele>
        <time>2012-03-04T08:31:38Z</time>
      </trkpt>
      <trkpt lat="46.19674" lon="3.07836">
        <ele>323.62</ele>
        <time>2012-03-04T08:31:45Z</time>
      </trkpt>
      <trkpt lat="46.19665" lon="3.07827">
        <ele>325.54</ele>
        <time>2012-03-04T08:31:54Z</time>
      </trkpt>
      <trkpt lat="46.19656" lon="3.07819">
        <ele>326.5</ele>
        <time>2012-03-04T08:32:02Z</time>
      </trkpt>
      <trkpt lat="46.19648" lon="3.0781">
        <ele>326.5</ele>
        <time>2012-03-04T08:32:10Z</time>
      </trkpt>
      <trkpt lat="46.1964" lon="3.07799">
        <ele>326.5</ele>
        <time>2012-03-04T08:32:18Z</time>
      </trkpt>
      <trkpt lat="46.19633" lon="3.07788">
        <ele>326.02</ele>
        <time>2012-03-04T08:32:26Z</time>
      </trkpt>
      <trkpt lat="46.19631" lon="3.07775">
        <ele>326.02</ele>
        <time>2012-03-04T08:32:34Z</time>
      </trkpt>
      <trkpt lat="46.19629" lon="3.07763">
        <ele>326.5</ele>
        <time>2012-03-04T08:32:42Z</time>
      </trkpt>
      <trkpt lat="46.19623" lon="3.07752">
        <ele>326.99</ele>
        <time>2012-03-04T08:32:49Z</time>
      </trkpt>
      <trkpt lat="46.19617" lon="3.07739">
        <ele>326.99</ele>
        <time>2012-03-04T08:32:57Z</time>
      </trkpt>
      <trkpt lat="46.19612" lon="3.07728">
        <ele>326.99</ele>
        <time>2012-03-04T08:33:05Z</time>
      </trkpt>
      <trkpt lat="46.19605" lon="3.07717">
        <ele>327.47</ele>
        <time>2012-03-04T08:33:13Z</time>
      </trkpt>
      <trkpt lat="46.19598" lon="3.07707">
        <ele>327.95</ele>
        <time>2012-03-04T08:33:21Z</time>
      </trkpt>
      <trkpt lat="46.19592" lon="3.07697">
        <ele>327.47</ele>
        <time>2012-03-04T08:33:30Z</time>
      </trkpt>
      <trkpt lat="46.19583" lon="3.07688">
        <ele>327.47</ele>
        <time>2012-03-04T08:33:38Z</time>
      </trkpt>
      <trkpt lat="46.19574" lon="3.07684">
        <ele>326.99</ele>
        <time>2012-03-04T08:33:46Z</time>
      </trkpt>
      <trkpt lat="46.19564" lon="3.07682">
        <ele>326.02</ele>
        <time>2012-03-04T08:33:55Z</time>
      </trkpt>
      <trkpt lat="46.19554" lon="3.07685">
        <ele>326.02</ele>
        <time>2012-03-04T08:34:04Z</time>
      </trkpt>
      <trkpt lat="46.19544" lon="3.0769">
        <ele>325.54</ele>
        <time>2012-03-04T08:34:12Z</time>
      </trkpt>
      <trkpt lat="46.19535" lon="3.07695">
        <ele>325.06</ele>
        <time>2012-03-04T08:34:20Z</time>
      </trkpt>
      <trkpt lat="46.19525" lon="3.07699">
        <ele>325.54</ele>
        <time>2012-03-04T08:34:29Z</time>
      </trkpt>
      <trkpt lat="46.19516" lon="3.07706">
        <ele>325.06</ele>
        <time>2012-03-04T08:34:39Z</time>
      </trkpt>
      <trkpt lat="46.19504" lon="3.07713">
        <ele>325.06</ele>
        <time>2012-03-04T08:34:51Z</time>
      </trkpt>
      <trkpt lat="46.19493" lon="3.07715">
        <ele>325.54</ele>
        <time>2012-03-04T08:35:02Z</time>
      </trkpt>
      <trkpt lat="46.19481" lon="3.07722">
        <ele>326.02</ele>
        <time>2012-03-04T08:35:15Z</time>
      </trkpt>
      <trkpt lat="46.19467" lon="3.07732">
        <ele>326.99</ele>
        <time>2012-03-04T08:35:23Z</time>
      </trkpt>
      <trkpt lat="46.19455" lon="3.07735">
        <ele>327.47</ele>
        <time>2012-03-04T08:35:32Z</time>
      </trkpt>
      <trkpt lat="46.19443" lon="3.07736">
        <ele>328.43</ele>
        <time>2012-03-04T08:35:41Z</time>
      </trkpt>
      <trkpt lat="46.19432" lon="3.07737">
        <ele>329.39</ele>
        <time>2012-03-04T08:35:51Z</time>
      </trkpt>
      <trkpt lat="46.19418" lon="3.07731">
        <ele>330.83</ele>
        <time>2012-03-04T08:36:00Z</time>
      </trkpt>
      <trkpt lat="46.19406" lon="3.07725">
        <ele>331.31</ele>
        <time>2012-03-04T08:36:09Z</time>
      </trkpt>
      <trkpt lat="46.19394" lon="3.07716">
        <ele>332.75</ele>
        <time>2012-03-04T08:36:18Z</time>
      </trkpt>
      <trkpt lat="46.19385" lon="3.07704">
        <ele>333.71</ele>
        <time>2012-03-04T08:36:26Z</time>
      </trkpt>
      <trkpt lat="46.19379" lon="3.0769">
        <ele>334.68</ele>
        <time>2012-03-04T08:36:33Z</time>
      </trkpt>
      <trkpt lat="46.19375" lon="3.07676">
        <ele>335.64</ele>
        <time>2012-03-04T08:36:42Z</time>
      </trkpt>
      <trkpt lat="46.19372" lon="3.07662">
        <ele>337.08</ele>
        <time>2012-03-04T08:36:50Z</time>
      </trkpt>
      <trkpt lat="46.1937" lon="3.07647">
        <ele>338.04</ele>
        <time>2012-03-04T08:36:59Z</time>
      </trkpt>
      <trkpt lat="46.19367" lon="3.07633">
        <ele>338.04</ele>
        <time>2012-03-04T08:37:07Z</time>
      </trkpt>
      <trkpt lat="46.19364" lon="3.07619">
        <ele>339.48</ele>
        <time>2012-03-04T08:37:15Z</time>
      </trkpt>
      <trkpt lat="46.19361" lon="3.07607">
        <ele>340.44</ele>
        <time>2012-03-04T08:37:23Z</time>
      </trkpt>
      <trkpt lat="46.19356" lon="3.07597">
        <ele>340.92</ele>
        <time>2012-03-04T08:37:31Z</time>
      </trkpt>
      <trkpt lat="46.19349" lon="3.07587">
        <ele>341.89</ele>
        <time>2012-03-04T08:37:39Z</time>
      </trkpt>
      <trkpt lat="46.19341" lon="3.07579">
        <ele>342.85</ele>
        <time>2012-03-04T08:37:48Z</time>
      </trkpt>
      <trkpt lat="46.19333" lon="3.07573">
        <ele>344.29</ele>
        <time>2012-03-04T08:37:58Z</time>
      </trkpt>
      <trkpt lat="46.19323" lon="3.07567">
        <ele>345.73</ele>
        <time>2012-03-04T08:38:10Z</time>
      </trkpt>
      <trkpt lat="46.19314" lon="3.07561">
        <ele>347.17</ele>
        <time>2012-03-04T08:38:22Z</time>
      </trkpt>
      <trkpt lat="46.19304" lon="3.07553">
        <ele>349.1</ele>
        <time>2012-03-04T08:38:34Z</time>
      </trkpt>
      <trkpt lat="46.19294" lon="3.07543">
        <ele>351.02</ele>
        <time>2012-03-04T08:38:48Z</time>
      </trkpt>
      <trkpt lat="46.19286" lon="3.0753">
        <ele>351.98</ele>
        <time>2012-03-04T08:38:58Z</time>
      </trkpt>
      <trkpt lat="46.1928" lon="3.07515">
        <ele>352.94</ele>
        <time>2012-03-04T08:39:09Z</time>
      </trkpt>
      <trkpt lat="46.19273" lon="3.075">
        <ele>353.9</ele>
        <time>2012-03-04T08:39:19Z</time>
      </trkpt>
      <trkpt lat="46.19266" lon="3.07483">
        <ele>356.31</ele>
        <time>2012-03-04T08:39:31Z</time>
      </trkpt>
      <trkpt lat="46.19259" lon="3.07468">
        <ele>357.27</ele>
        <time>2012-03-04T08:39:40Z</time>
      </trkpt>
      <trkpt lat="46.19251" lon="3.07457">
        <ele>358.23</ele>
        <time>2012-03-04T08:39:49Z</time>
      </trkpt>
      <trkpt lat="46.19242" lon="3.07455">
        <ele>360.15</ele>
        <time>2012-03-04T08:39:58Z</time>
      </trkpt>
      <trkpt lat="46.19231" lon="3.07459">
        <ele>360.15</ele>
        <time>2012-03-04T08:41:12Z</time>
      </trkpt>
      <trkpt lat="46.19234" lon="3.07477">
        <ele>360.63</ele>
        <time>2012-03-04T08:41:26Z</time>
      </trkpt>
      <trkpt lat="46.19238" lon="3.07491">
        <ele>360.63</ele>
        <time>2012-03-04T08:41:36Z</time>
      </trkpt>
      <trkpt lat="46.19241" lon="3.07503">
        <ele>361.59</ele>
        <time>2012-03-04T08:41:45Z</time>
      </trkpt>
      <trkpt lat="46.19244" lon="3.07518">
        <ele>361.11</ele>
        <time>2012-03-04T08:41:54Z</time>
      </trkpt>
      <trkpt lat="46.19247" lon="3.07535">
        <ele>360.63</ele>
        <time>2012-03-04T08:42:06Z</time>
      </trkpt>
      <trkpt lat="46.19251" lon="3.0755">
        <ele>360.63</ele>
        <time>2012-03-04T08:42:15Z</time>
      </trkpt>
      <trkpt lat="46.19253" lon="3.07566">
        <ele>360.15</ele>
        <time>2012-03-04T08:42:24Z</time>
      </trkpt>
      <trkpt lat="46.19255" lon="3.07582">
        <ele>359.67</ele>
        <time>2012-03-04T08:42:33Z</time>
      </trkpt>
      <trkpt lat="46.19258" lon="3.07596">
        <ele>359.19</ele>
        <time>2012-03-04T08:42:42Z</time>
      </trkpt>
      <trkpt lat="46.19258" lon="3.07612">
        <ele>358.71</ele>
        <time>2012-03-04T08:42:50Z</time>
      </trkpt>
      <trkpt lat="46.19259" lon="3.07627">
        <ele>358.23</ele>
        <time>2012-03-04T08:42:59Z</time>
      </trkpt>
      <trkpt lat="46.19258" lon="3.07644">
        <ele>358.23</ele>
        <time>2012-03-04T08:43:09Z</time>
      </trkpt>
      <trkpt lat="46.19255" lon="3.07659">
        <ele>357.75</ele>
        <time>2012-03-04T08:43:17Z</time>
      </trkpt>
      <trkpt lat="46.19257" lon="3.07676">
        <ele>357.75</ele>
        <time>2012-03-04T08:43:27Z</time>
      </trkpt>
      <trkpt lat="46.19259" lon="3.07693">
        <ele>357.27</ele>
        <time>2012-03-04T08:43:37Z</time>
      </trkpt>
      <trkpt lat="46.19259" lon="3.07709">
        <ele>356.79</ele>
        <time>2012-03-04T08:43:47Z</time>
      </trkpt>
      <trkpt lat="46.19257" lon="3.07729">
        <ele>356.79</ele>
        <time>2012-03-04T08:43:58Z</time>
      </trkpt>
      <trkpt lat="46.19257" lon="3.07749">
        <ele>356.31</ele>
        <time>2012-03-04T08:44:10Z</time>
      </trkpt>
      <trkpt lat="46.19254" lon="3.07769">
        <ele>356.79</ele>
        <time>2012-03-04T08:44:21Z</time>
      </trkpt>
      <trkpt lat="46.19252" lon="3.07786">
        <ele>356.31</ele>
        <time>2012-03-04T08:44:30Z</time>
      </trkpt>
      <trkpt lat="46.19253" lon="3.07808">
        <ele>356.79</ele>
        <time>2012-03-04T08:44:42Z</time>
      </trkpt>
      <trkpt lat="46.19251" lon="3.07829">
        <ele>357.27</ele>
        <time>2012-03-04T08:44:56Z</time>
      </trkpt>
      <trkpt lat="46.19248" lon="3.07851">
        <ele>357.27</ele>
        <time>2012-03-04T08:45:07Z</time>
      </trkpt>
      <trkpt lat="46.19243" lon="3.0787">
        <ele>357.75</ele>
        <time>2012-03-04T08:45:19Z</time>
      </trkpt>
      <trkpt lat="46.19239" lon="3.07887">
        <ele>357.27</ele>
        <time>2012-03-04T08:45:28Z</time>
      </trkpt>
      <trkpt lat="46.19238" lon="3.079">
        <ele>356.79</ele>
        <time>2012-03-04T08:46:04Z</time>
      </trkpt>
      <trkpt lat="46.19237" lon="3.07916">
        <ele>357.27</ele>
        <time>2012-03-04T08:46:14Z</time>
      </trkpt>
      <trkpt lat="46.19233" lon="3.07931">
        <ele>357.27</ele>
        <time>2012-03-04T08:46:23Z</time>
      </trkpt>
      <trkpt lat="46.19228" lon="3.07945">
        <ele>357.27</ele>
        <time>2012-03-04T08:46:33Z</time>
      </trkpt>
      <trkpt lat="46.19222" lon="3.07959">
        <ele>357.75</ele>
        <time>2012-03-04T08:46:42Z</time>
      </trkpt>
      <trkpt lat="46.19217" lon="3.07973">
        <ele>357.75</ele>
        <time>2012-03-04T08:46:51Z</time>
      </trkpt>
      <trkpt lat="46.19212" lon="3.07985">
        <ele>358.23</ele>
        <time>2012-03-04T08:46:59Z</time>
      </trkpt>
      <trkpt lat="46.19206" lon="3.07998">
        <ele>358.23</ele>
        <time>2012-03-04T08:47:08Z</time>
      </trkpt>
      <trkpt lat="46.192" lon="3.08012">
        <ele>359.19</ele>
        <time>2012-03-04T08:47:18Z</time>
      </trkpt>
      <trkpt lat="46.19191" lon="3.08023">
        <ele>359.19</ele>
        <time>2012-03-04T08:47:28Z</time>
      </trkpt>
      <trkpt lat="46.19183" lon="3.08034">
        <ele>359.67</ele>
        <time>2012-03-04T08:47:37Z</time>
      </trkpt>
      <trkpt lat="46.19175" lon="3.08044">
        <ele>357.75</ele>
        <time>2012-03-04T08:47:46Z</time>
      </trkpt>
      <trkpt lat="46.19168" lon="3.08057">
        <ele>356.79</ele>
        <time>2012-03-04T08:47:56Z</time>
      </trkpt>
      <trkpt lat="46.1916" lon="3.08068">
        <ele>355.83</ele>
        <time>2012-03-04T08:48:07Z</time>
      </trkpt>
      <trkpt lat="46.19152" lon="3.0808">
        <ele>354.86</ele>
        <time>2012-03-04T08:48:16Z</time>
      </trkpt>
      <trkpt lat="46.19144" lon="3.08091">
        <ele>353.9</ele>
        <time>2012-03-04T08:48:27Z</time>
      </trkpt>
      <trkpt lat="46.19134" lon="3.08102">
        <ele>353.9</ele>
        <time>2012-03-04T08:48:37Z</time>
      </trkpt>
      <trkpt lat="46.19124" lon="3.08113">
        <ele>353.42</ele>
        <time>2012-03-04T08:48:47Z</time>
      </trkpt>
      <trkpt lat="46.19115" lon="3.08122">
        <ele>353.42</ele>
        <time>2012-03-04T08:48:55Z</time>
      </trkpt>
      <trkpt lat="46.19104" lon="3.08129">
        <ele>353.42</ele>
        <time>2012-03-04T08:49:07Z</time>
      </trkpt>
      <trkpt lat="46.19094" lon="3.08137">
        <ele>353.42</ele>
        <time>2012-03-04T08:49:15Z</time>
      </trkpt>
      <trkpt lat="46.19084" lon="3.08141">
        <ele>353.42</ele>
        <time>2012-03-04T08:49:23Z</time>
      </trkpt>
      <trkpt lat="46.19074" lon="3.08146">
        <ele>353.42</ele>
        <time>2012-03-04T08:49:31Z</time>
      </trkpt>
      <trkpt lat="46.19064" lon="3.08148">
        <ele>353.42</ele>
        <time>2012-03-04T08:49:39Z</time>
      </trkpt>
      <trkpt lat="46.19055" lon="3.08155">
        <ele>354.38</ele>
        <time>2012-03-04T08:49:47Z</time>
      </trkpt>
      <trkpt lat="46.19045" lon="3.08156">
        <ele>355.34</ele>
        <time>2012-03-04T08:49:55Z</time>
      </trkpt>
      <trkpt lat="46.19035" lon="3.08155">
        <ele>355.83</ele>
        <time>2012-03-04T08:50:05Z</time>
      </trkpt>
      <trkpt lat="46.19023" lon="3.08157">
        <ele>357.27</ele>
        <time>2012-03-04T08:50:16Z</time>
      </trkpt>
      <trkpt lat="46.19009" lon="3.0816">
        <ele>358.23</ele>
        <time>2012-03-04T08:50:28Z</time>
      </trkpt>
      <trkpt lat="46.18999" lon="3.08159">
        <ele>359.19</ele>
        <time>2012-03-04T08:50:39Z</time>
      </trkpt>
      <trkpt lat="46.18987" lon="3.08159">
        <ele>360.63</ele>
        <time>2012-03-04T08:50:51Z</time>
      </trkpt>
      <trkpt lat="46.18975" lon="3.08158">
        <ele>362.07</ele>
        <time>2012-03-04T08:51:01Z</time>
      </trkpt>
      <trkpt lat="46.18963" lon="3.08155">
        <ele>363.04</ele>
        <time>2012-03-04T08:51:11Z</time>
      </trkpt>
      <trkpt lat="46.18951" lon="3.08155">
        <ele>363.52</ele>
        <time>2012-03-04T08:51:21Z</time>
      </trkpt>
      <trkpt lat="46.18939" lon="3.08156">
        <ele>362.55</ele>
        <time>2012-03-04T08:51:32Z</time>
      </trkpt>
      <trkpt lat="46.18927" lon="3.0816">
        <ele>361.59</ele>
        <time>2012-03-04T08:51:41Z</time>
      </trkpt>
      <trkpt lat="46.18915" lon="3.08166">
        <ele>361.59</ele>
        <time>2012-03-04T08:51:51Z</time>
      </trkpt>
      <trkpt lat="46.18904" lon="3.08171">
        <ele>360.63</ele>
        <time>2012-03-04T08:51:59Z</time>
      </trkpt>
      <trkpt lat="46.18891" lon="3.08175">
        <ele>359.19</ele>
        <time>2012-03-04T08:52:09Z</time>
      </trkpt>
      <trkpt lat="46.1888" lon="3.08182">
        <ele>357.75</ele>
        <time>2012-03-04T08:52:18Z</time>
      </trkpt>
      <trkpt lat="46.18871" lon="3.08188">
        <ele>356.31</ele>
        <time>2012-03-04T08:52:25Z</time>
      </trkpt>
      <trkpt lat="46.18859" lon="3.08192">
        <ele>354.86</ele>
        <time>2012-03-04T08:52:35Z</time>
      </trkpt>
      <trkpt lat="46.18849" lon="3.08197">
        <ele>353.9</ele>
        <time>2012-03-04T08:52:43Z</time>
      </trkpt>
      <trkpt lat="46.18838" lon="3.082">
        <ele>353.9</ele>
        <time>2012-03-04T08:52:51Z</time>
      </trkpt>
      <trkpt lat="46.18825" lon="3.08204">
        <ele>353.42</ele>
        <time>2012-03-04T08:53:02Z</time>
      </trkpt>
      <trkpt lat="46.18814" lon="3.08207">
        <ele>352.94</ele>
        <time>2012-03-04T08:53:09Z</time>
      </trkpt>
      <trkpt lat="46.18803" lon="3.08207">
        <ele>353.42</ele>
        <time>2012-03-04T08:53:17Z</time>
      </trkpt>
      <trkpt lat="46.18792" lon="3.08207">
        <ele>353.42</ele>
        <time>2012-03-04T08:53:25Z</time>
      </trkpt>
      <trkpt lat="46.18781" lon="3.0821">
        <ele>353.42</ele>
        <time>2012-03-04T08:53:33Z</time>
      </trkpt>
      <trkpt lat="46.1877" lon="3.08215">
        <ele>353.42</ele>
        <time>2012-03-04T08:53:43Z</time>
      </trkpt>
      <trkpt lat="46.18759" lon="3.08215">
        <ele>353.42</ele>
        <time>2012-03-04T08:53:52Z</time>
      </trkpt>
      <trkpt lat="46.18748" lon="3.08217">
        <ele>352.46</ele>
        <time>2012-03-04T08:54:01Z</time>
      </trkpt>
      <trkpt lat="46.18737" lon="3.08221">
        <ele>351.98</ele>
        <time>2012-03-04T08:54:11Z</time>
      </trkpt>
      <trkpt lat="46.18726" lon="3.08225">
        <ele>351.5</ele>
        <time>2012-03-04T08:54:21Z</time>
      </trkpt>
      <trkpt lat="46.18715" lon="3.08228">
        <ele>350.06</ele>
        <time>2012-03-04T08:54:29Z</time>
      </trkpt>
      <trkpt lat="46.18704" lon="3.08232">
        <ele>349.1</ele>
        <time>2012-03-04T08:54:37Z</time>
      </trkpt>
      <trkpt lat="46.18693" lon="3.08234">
        <ele>347.65</ele>
        <time>2012-03-04T08:54:46Z</time>
      </trkpt>
      <trkpt lat="46.18683" lon="3.0824">
        <ele>346.21</ele>
        <time>2012-03-04T08:54:55Z</time>
      </trkpt>
      <trkpt lat="46.18672" lon="3.08239">
        <ele>345.73</ele>
        <time>2012-03-04T08:55:02Z</time>
      </trkpt>
      <trkpt lat="46.18662" lon="3.0824">
        <ele>344.77</ele>
        <time>2012-03-04T08:55:10Z</time>
      </trkpt>
      <trkpt lat="46.18652" lon="3.08246">
        <ele>343.33</ele>
        <time>2012-03-04T08:55:19Z</time>
      </trkpt>
      <trkpt lat="46.1864" lon="3.0825">
        <ele>342.37</ele>
        <time>2012-03-04T08:55:29Z</time>
      </trkpt>
      <trkpt lat="46.18629" lon="3.08255">
        <ele>341.41</ele>
        <time>2012-03-04T08:55:39Z</time>
      </trkpt>
      <trkpt lat="46.18618" lon="3.08256">
        <ele>340.44</ele>
        <time>2012-03-04T08:55:48Z</time>
      </trkpt>
      <trkpt lat="46.18608" lon="3.08262">
        <ele>339.96</ele>
        <time>2012-03-04T08:55:57Z</time>
      </trkpt>
      <trkpt lat="46.18597" lon="3.08264">
        <ele>339</ele>
        <time>2012-03-04T08:56:04Z</time>
      </trkpt>
      <trkpt lat="46.18587" lon="3.08266">
        <ele>338.04</ele>
        <time>2012-03-04T08:56:11Z</time>
      </trkpt>
      <trkpt lat="46.18578" lon="3.08269">
        <ele>337.56</ele>
        <time>2012-03-04T08:56:18Z</time>
      </trkpt>
      <trkpt lat="46.1857" lon="3.08273">
        <ele>337.08</ele>
        <time>2012-03-04T08:56:25Z</time>
      </trkpt>
      <trkpt lat="46.18561" lon="3.08275">
        <ele>336.6</ele>
        <time>2012-03-04T08:56:32Z</time>
      </trkpt>
      <trkpt lat="46.18556" lon="3.08262">
        <ele>337.08</ele>
        <time>2012-03-04T08:56:39Z</time>
      </trkpt>
      <trkpt lat="46.18552" lon="3.08252">
        <ele>337.56</ele>
        <time>2012-03-04T08:56:45Z</time>
      </trkpt>
      <trkpt lat="46.1855" lon="3.08241">
        <ele>337.56</ele>
        <time>2012-03-04T08:56:52Z</time>
      </trkpt>
      <trkpt lat="46.18546" lon="3.0823">
        <ele>338.04</ele>
        <time>2012-03-04T08:56:59Z</time>
      </trkpt>
      <trkpt lat="46.18542" lon="3.08218">
        <ele>338.52</ele>
        <time>2012-03-04T08:57:05Z</time>
      </trkpt>
      <trkpt lat="46.18538" lon="3.08208">
        <ele>339</ele>
        <time>2012-03-04T08:57:12Z</time>
      </trkpt>
      <trkpt lat="46.18532" lon="3.08196">
        <ele>339</ele>
        <time>2012-03-04T08:57:19Z</time>
      </trkpt>
      <trkpt lat="46.18528" lon="3.08186">
        <ele>339.48</ele>
        <time>2012-03-04T08:57:26Z</time>
      </trkpt>
      <trkpt lat="46.18524" lon="3.08174">
        <ele>339.96</ele>
        <time>2012-03-04T08:57:33Z</time>
      </trkpt>
      <trkpt lat="46.1852" lon="3.08163">
        <ele>340.44</ele>
        <time>2012-03-04T08:57:40Z</time>
      </trkpt>
      <trkpt lat="46.18514" lon="3.08149">
        <ele>340.92</ele>
        <time>2012-03-04T08:57:48Z</time>
      </trkpt>
      <trkpt lat="46.18511" lon="3.08138">
        <ele>340.92</ele>
        <time>2012-03-04T08:57:55Z</time>
      </trkpt>
      <trkpt lat="46.18506" lon="3.08125">
        <ele>340.92</ele>
        <time>2012-03-04T08:58:02Z</time>
      </trkpt>
      <trkpt lat="46.18503" lon="3.08111">
        <ele>341.89</ele>
        <time>2012-03-04T08:58:10Z</time>
      </trkpt>
      <trkpt lat="46.18499" lon="3.08097">
        <ele>342.37</ele>
        <time>2012-03-04T08:58:18Z</time>
      </trkpt>
      <trkpt lat="46.18497" lon="3.08084">
        <ele>342.37</ele>
        <time>2012-03-04T08:58:25Z</time>
      </trkpt>
      <trkpt lat="46.18495" lon="3.0807">
        <ele>342.85</ele>
        <time>2012-03-04T08:58:31Z</time>
      </trkpt>
      <trkpt lat="46.18494" lon="3.08057">
        <ele>343.81</ele>
        <time>2012-03-04T08:58:38Z</time>
      </trkpt>
      <trkpt lat="46.18495" lon="3.08043">
        <ele>343.81</ele>
        <time>2012-03-04T08:58:46Z</time>
      </trkpt>
      <trkpt lat="46.18494" lon="3.08031">
        <ele>344.77</ele>
        <time>2012-03-04T08:58:53Z</time>
      </trkpt>
      <trkpt lat="46.18493" lon="3.08018">
        <ele>345.25</ele>
        <time>2012-03-04T08:59:00Z</time>
      </trkpt>
      <trkpt lat="46.18494" lon="3.08003">
        <ele>346.69</ele>
        <time>2012-03-04T08:59:08Z</time>
      </trkpt>
      <trkpt lat="46.18494" lon="3.07989">
        <ele>347.17</ele>
        <time>2012-03-04T08:59:15Z</time>
      </trkpt>
      <trkpt lat="46.18495" lon="3.07977">
        <ele>347.17</ele>
        <time>2012-03-04T08:59:22Z</time>
      </trkpt>
      <trkpt lat="46.18497" lon="3.07964">
        <ele>347.65</ele>
        <time>2012-03-04T08:59:29Z</time>
      </trkpt>
      <trkpt lat="46.18496" lon="3.07949">
        <ele>348.13</ele>
        <time>2012-03-04T08:59:37Z</time>
      </trkpt>
      <trkpt lat="46.18497" lon="3.07935">
        <ele>348.62</ele>
        <time>2012-03-04T08:59:44Z</time>
      </trkpt>
      <trkpt lat="46.18496" lon="3.07921">
        <ele>349.1</ele>
        <time>2012-03-04T08:59:51Z</time>
      </trkpt>
      <trkpt lat="46.18496" lon="3.07907">
        <ele>349.58</ele>
        <time>2012-03-04T08:59:58Z</time>
      </trkpt>
      <trkpt lat="46.18495" lon="3.07894">
        <ele>349.58</ele>
        <time>2012-03-04T09:00:06Z</time>
      </trkpt>
      <trkpt lat="46.18494" lon="3.07879">
        <ele>351.02</ele>
        <time>2012-03-04T09:00:13Z</time>
      </trkpt>
      <trkpt lat="46.18494" lon="3.07866">
        <ele>351.5</ele>
        <time>2012-03-04T09:00:20Z</time>
      </trkpt>
      <trkpt lat="46.18494" lon="3.07851">
        <ele>351.5</ele>
        <time>2012-03-04T09:00:28Z</time>
      </trkpt>
      <trkpt lat="46.18494" lon="3.07834">
        <ele>351.98</ele>
        <time>2012-03-04T09:00:36Z</time>
      </trkpt>
      <trkpt lat="46.18494" lon="3.0782">
        <ele>352.94</ele>
        <time>2012-03-04T09:00:44Z</time>
      </trkpt>
      <trkpt lat="46.18493" lon="3.07805">
        <ele>353.9</ele>
        <time>2012-03-04T09:00:52Z</time>
      </trkpt>
      <trkpt lat="46.18489" lon="3.07749">
        <ele>357.27</ele>
        <time>2012-03-04T09:01:22Z</time>
      </trkpt>
      <trkpt lat="46.18486" lon="3.07735">
        <ele>359.19</ele>
        <time>2012-03-04T09:01:30Z</time>
      </trkpt>
      <trkpt lat="46.18478" lon="3.07731">
        <ele>359.19</ele>
        <time>2012-03-04T09:01:38Z</time>
      </trkpt>
      <trkpt lat="46.18471" lon="3.07742">
        <ele>358.71</ele>
        <time>2012-03-04T09:01:46Z</time>
      </trkpt>
      <trkpt lat="46.1846" lon="3.07748">
        <ele>357.27</ele>
        <time>2012-03-04T09:01:56Z</time>
      </trkpt>
      <trkpt lat="46.18449" lon="3.07751">
        <ele>355.83</ele>
        <time>2012-03-04T09:02:04Z</time>
      </trkpt>
      <trkpt lat="46.1844" lon="3.07752">
        <ele>355.83</ele>
        <time>2012-03-04T09:02:11Z</time>
      </trkpt>
      <trkpt lat="46.18429" lon="3.07753">
        <ele>357.27</ele>
        <time>2012-03-04T09:02:20Z</time>
      </trkpt>
      <trkpt lat="46.18419" lon="3.07751">
        <ele>358.23</ele>
        <time>2012-03-04T09:02:30Z</time>
      </trkpt>
      <trkpt lat="46.18408" lon="3.07752">
        <ele>359.67</ele>
        <time>2012-03-04T09:02:40Z</time>
      </trkpt>
      <trkpt lat="46.18397" lon="3.07752">
        <ele>361.11</ele>
        <time>2012-03-04T09:02:52Z</time>
      </trkpt>
      <trkpt lat="46.18385" lon="3.07753">
        <ele>363.04</ele>
        <time>2012-03-04T09:03:02Z</time>
      </trkpt>
      <trkpt lat="46.18375" lon="3.07751">
        <ele>364.48</ele>
        <time>2012-03-04T09:03:12Z</time>
      </trkpt>
      <trkpt lat="46.18365" lon="3.07748">
        <ele>366.4</ele>
        <time>2012-03-04T09:03:35Z</time>
      </trkpt>
      <trkpt lat="46.18356" lon="3.07731">
        <ele>370.73</ele>
        <time>2012-03-04T09:03:54Z</time>
      </trkpt>
      <trkpt lat="46.18343" lon="3.07716">
        <ele>374.57</ele>
        <time>2012-03-04T09:04:14Z</time>
      </trkpt>
      <trkpt lat="46.18328" lon="3.07712">
        <ele>376.97</ele>
        <time>2012-03-04T09:04:26Z</time>
      </trkpt>
      <trkpt lat="46.18315" lon="3.07711">
        <ele>378.9</ele>
        <time>2012-03-04T09:04:39Z</time>
      </trkpt>
      <trkpt lat="46.18303" lon="3.07712">
        <ele>381.78</ele>
        <time>2012-03-04T09:04:51Z</time>
      </trkpt>
      <trkpt lat="46.18292" lon="3.07708">
        <ele>383.22</ele>
        <time>2012-03-04T09:05:00Z</time>
      </trkpt>
      <trkpt lat="46.18282" lon="3.07707">
        <ele>384.66</ele>
        <time>2012-03-04T09:05:08Z</time>
      </trkpt>
      <trkpt lat="46.18272" lon="3.07704">
        <ele>386.11</ele>
        <time>2012-03-04T09:05:17Z</time>
      </trkpt>
      <trkpt lat="46.18263" lon="3.07702">
        <ele>388.03</ele>
        <time>2012-03-04T09:05:25Z</time>
      </trkpt>
      <trkpt lat="46.18253" lon="3.07701">
        <ele>389.95</ele>
        <time>2012-03-04T09:05:35Z</time>
      </trkpt>
      <trkpt lat="46.18243" lon="3.07701">
        <ele>392.36</ele>
        <time>2012-03-04T09:05:45Z</time>
      </trkpt>
      <trkpt lat="46.18233" lon="3.07699">
        <ele>393.32</ele>
        <time>2012-03-04T09:05:52Z</time>
      </trkpt>
      <trkpt lat="46.18224" lon="3.07698">
        <ele>393.8</ele>
        <time>2012-03-04T09:05:59Z</time>
      </trkpt>
      <trkpt lat="46.18216" lon="3.07697">
        <ele>395.24</ele>
        <time>2012-03-04T09:06:07Z</time>
      </trkpt>
      <trkpt lat="46.18206" lon="3.07695">
        <ele>396.68</ele>
        <time>2012-03-04T09:06:15Z</time>
      </trkpt>
      <trkpt lat="46.18195" lon="3.07693">
        <ele>397.64</ele>
        <time>2012-03-04T09:06:24Z</time>
      </trkpt>
      <trkpt lat="46.18193" lon="3.07687">
        <ele>398.6</ele>
        <time>2012-03-04T09:07:20Z</time>
      </trkpt>
      <trkpt lat="46.18193" lon="3.0769">
        <ele>399.57</ele>
        <time>2012-03-04T09:10:10Z</time>
      </trkpt>
      <trkpt lat="46.18193" lon="3.07682">
        <ele>399.57</ele>
        <time>2012-03-04T09:11:23Z</time>
      </trkpt>
      <trkpt lat="46.18192" lon="3.07665">
        <ele>401.01</ele>
        <time>2012-03-04T09:11:32Z</time>
      </trkpt>
      <trkpt lat="46.18192" lon="3.07651">
        <ele>401.49</ele>
        <time>2012-03-04T09:11:39Z</time>
      </trkpt>
      <trkpt lat="46.18188" lon="3.07635">
        <ele>403.41</ele>
        <time>2012-03-04T09:11:48Z</time>
      </trkpt>
      <trkpt lat="46.18187" lon="3.0762">
        <ele>403.89</ele>
        <time>2012-03-04T09:11:56Z</time>
      </trkpt>
      <trkpt lat="46.18186" lon="3.07605">
        <ele>404.37</ele>
        <time>2012-03-04T09:12:04Z</time>
      </trkpt>
      <trkpt lat="46.18184" lon="3.07592">
        <ele>405.33</ele>
        <time>2012-03-04T09:12:12Z</time>
      </trkpt>
      <trkpt lat="46.18177" lon="3.07581">
        <ele>406.29</ele>
        <time>2012-03-04T09:12:22Z</time>
      </trkpt>
      <trkpt lat="46.18168" lon="3.07567">
        <ele>407.74</ele>
        <time>2012-03-04T09:12:32Z</time>
      </trkpt>
      <trkpt lat="46.18162" lon="3.07556">
        <ele>409.66</ele>
        <time>2012-03-04T09:12:44Z</time>
      </trkpt>
      <trkpt lat="46.18155" lon="3.07543">
        <ele>410.14</ele>
        <time>2012-03-04T09:12:53Z</time>
      </trkpt>
      <trkpt lat="46.18148" lon="3.0753">
        <ele>412.06</ele>
        <time>2012-03-04T09:13:07Z</time>
      </trkpt>
      <trkpt lat="46.18136" lon="3.07519">
        <ele>413.5</ele>
        <time>2012-03-04T09:13:18Z</time>
      </trkpt>
      <trkpt lat="46.18125" lon="3.0751">
        <ele>414.95</ele>
        <time>2012-03-04T09:13:28Z</time>
      </trkpt>
      <trkpt lat="46.18114" lon="3.07504">
        <ele>417.35</ele>
        <time>2012-03-04T09:13:38Z</time>
      </trkpt>
      <trkpt lat="46.18103" lon="3.07498">
        <ele>419.75</ele>
        <time>2012-03-04T09:13:51Z</time>
      </trkpt>
      <trkpt lat="46.18093" lon="3.07496">
        <ele>421.19</ele>
        <time>2012-03-04T09:14:00Z</time>
      </trkpt>
      <trkpt lat="46.18082" lon="3.07497">
        <ele>423.6</ele>
        <time>2012-03-04T09:14:10Z</time>
      </trkpt>
      <trkpt lat="46.18071" lon="3.07499">
        <ele>425.04</ele>
        <time>2012-03-04T09:14:18Z</time>
      </trkpt>
      <trkpt lat="46.18061" lon="3.07498">
        <ele>425.52</ele>
        <time>2012-03-04T09:14:28Z</time>
      </trkpt>
      <trkpt lat="46.18051" lon="3.07496">
        <ele>426.48</ele>
        <time>2012-03-04T09:14:36Z</time>
      </trkpt>
      <trkpt lat="46.1804" lon="3.07495">
        <ele>427.44</ele>
        <time>2012-03-04T09:14:45Z</time>
      </trkpt>
      <trkpt lat="46.1803" lon="3.07495">
        <ele>428.89</ele>
        <time>2012-03-04T09:14:53Z</time>
      </trkpt>
      <trkpt lat="46.1802" lon="3.07494">
        <ele>428.89</ele>
        <time>2012-03-04T09:15:00Z</time>
      </trkpt>
      <trkpt lat="46.18011" lon="3.07492">
        <ele>430.33</ele>
        <time>2012-03-04T09:15:07Z</time>
      </trkpt>
      <trkpt lat="46.18001" lon="3.0749">
        <ele>431.29</ele>
        <time>2012-03-04T09:15:14Z</time>
      </trkpt>
      <trkpt lat="46.17992" lon="3.07487">
        <ele>430.81</ele>
        <time>2012-03-04T09:15:22Z</time>
      </trkpt>
      <trkpt lat="46.17982" lon="3.07489">
        <ele>431.29</ele>
        <time>2012-03-04T09:15:33Z</time>
      </trkpt>
      <trkpt lat="46.1797" lon="3.07486">
        <ele>431.77</ele>
        <time>2012-03-04T09:15:41Z</time>
      </trkpt>
      <trkpt lat="46.17961" lon="3.07484">
        <ele>432.25</ele>
        <time>2012-03-04T09:15:49Z</time>
      </trkpt>
      <trkpt lat="46.17951" lon="3.07481">
        <ele>432.73</ele>
        <time>2012-03-04T09:15:55Z</time>
      </trkpt>
      <trkpt lat="46.17941" lon="3.0748">
        <ele>432.73</ele>
        <time>2012-03-04T09:16:03Z</time>
      </trkpt>
      <trkpt lat="46.17932" lon="3.07479">
        <ele>433.21</ele>
        <time>2012-03-04T09:16:11Z</time>
      </trkpt>
      <trkpt lat="46.17923" lon="3.07475">
        <ele>433.69</ele>
        <time>2012-03-04T09:16:20Z</time>
      </trkpt>
      <trkpt lat="46.17912" lon="3.07476">
        <ele>434.17</ele>
        <time>2012-03-04T09:16:35Z</time>
      </trkpt>
      <trkpt lat="46.179" lon="3.07477">
        <ele>434.17</ele>
        <time>2012-03-04T09:16:43Z</time>
      </trkpt>
      <trkpt lat="46.17887" lon="3.07476">
        <ele>434.17</ele>
        <time>2012-03-04T09:16:54Z</time>
      </trkpt>
      <trkpt lat="46.17874" lon="3.07476">
        <ele>435.13</ele>
        <time>2012-03-04T09:17:02Z</time>
      </trkpt>
      <trkpt lat="46.17863" lon="3.07478">
        <ele>435.13</ele>
        <time>2012-03-04T09:17:12Z</time>
      </trkpt>
      <trkpt lat="46.17852" lon="3.07479">
        <ele>435.13</ele>
        <time>2012-03-04T09:17:19Z</time>
      </trkpt>
      <trkpt lat="46.17839" lon="3.07481">
        <ele>435.61</ele>
        <time>2012-03-04T09:17:29Z</time>
      </trkpt>
      <trkpt lat="46.17825" lon="3.0748">
        <ele>436.58</ele>
        <time>2012-03-04T09:17:41Z</time>
      </trkpt>
      <trkpt lat="46.17812" lon="3.07476">
        <ele>437.54</ele>
        <time>2012-03-04T09:17:49Z</time>
      </trkpt>
      <trkpt lat="46.17799" lon="3.0748">
        <ele>438.5</ele>
        <time>2012-03-04T09:17:59Z</time>
      </trkpt>
      <trkpt lat="46.17784" lon="3.07478">
        <ele>438.5</ele>
        <time>2012-03-04T09:18:07Z</time>
      </trkpt>
      <trkpt lat="46.17771" lon="3.07478">
        <ele>438.98</ele>
        <time>2012-03-04T09:18:15Z</time>
      </trkpt>
      <trkpt lat="46.17758" lon="3.0748">
        <ele>439.46</ele>
        <time>2012-03-04T09:18:25Z</time>
      </trkpt>
      <trkpt lat="46.17748" lon="3.07485">
        <ele>439.94</ele>
        <time>2012-03-04T09:18:32Z</time>
      </trkpt>
      <trkpt lat="46.17739" lon="3.07494">
        <ele>440.42</ele>
        <time>2012-03-04T09:18:39Z</time>
      </trkpt>
      <trkpt lat="46.1773" lon="3.07501">
        <ele>440.9</ele>
        <time>2012-03-04T09:18:47Z</time>
      </trkpt>
      <trkpt lat="46.17721" lon="3.07508">
        <ele>441.38</ele>
        <time>2012-03-04T09:18:53Z</time>
      </trkpt>
      <trkpt lat="46.17711" lon="3.07505">
        <ele>442.34</ele>
        <time>2012-03-04T09:19:02Z</time>
      </trkpt>
      <trkpt lat="46.17699" lon="3.07503">
        <ele>442.82</ele>
        <time>2012-03-04T09:19:10Z</time>
      </trkpt>
      <trkpt lat="46.17689" lon="3.07501">
        <ele>443.31</ele>
        <time>2012-03-04T09:19:16Z</time>
      </trkpt>
      <trkpt lat="46.1768" lon="3.07504">
        <ele>443.79</ele>
        <time>2012-03-04T09:19:24Z</time>
      </trkpt>
      <trkpt lat="46.17671" lon="3.07507">
        <ele>443.79</ele>
        <time>2012-03-04T09:19:30Z</time>
      </trkpt>
      <trkpt lat="46.17662" lon="3.07505">
        <ele>443.79</ele>
        <time>2012-03-04T09:19:38Z</time>
      </trkpt>
      <trkpt lat="46.17653" lon="3.07501">
        <ele>444.27</ele>
        <time>2012-03-04T09:19:44Z</time>
      </trkpt>
      <trkpt lat="46.17644" lon="3.07501">
        <ele>443.79</ele>
        <time>2012-03-04T09:19:51Z</time>
      </trkpt>
      <trkpt lat="46.17636" lon="3.07509">
        <ele>444.27</ele>
        <time>2012-03-04T09:19:58Z</time>
      </trkpt>
      <trkpt lat="46.17629" lon="3.07523">
        <ele>443.31</ele>
        <time>2012-03-04T09:20:06Z</time>
      </trkpt>
      <trkpt lat="46.17623" lon="3.07534">
        <ele>442.82</ele>
        <time>2012-03-04T09:20:12Z</time>
      </trkpt>
      <trkpt lat="46.17615" lon="3.0754">
        <ele>441.86</ele>
        <time>2012-03-04T09:20:21Z</time>
      </trkpt>
      <trkpt lat="46.17605" lon="3.07539">
        <ele>441.38</ele>
        <time>2012-03-04T09:20:28Z</time>
      </trkpt>
      <trkpt lat="46.17596" lon="3.07536">
        <ele>440.9</ele>
        <time>2012-03-04T09:20:37Z</time>
      </trkpt>
      <trkpt lat="46.17588" lon="3.07542">
        <ele>439.94</ele>
        <time>2012-03-04T09:20:49Z</time>
      </trkpt>
      <trkpt lat="46.17583" lon="3.07552">
        <ele>438.98</ele>
        <time>2012-03-04T09:20:55Z</time>
      </trkpt>
      <trkpt lat="46.17575" lon="3.07561">
        <ele>438.02</ele>
        <time>2012-03-04T09:20:59Z</time>
      </trkpt>
      <trkpt lat="46.17564" lon="3.07563">
        <ele>437.54</ele>
        <time>2012-03-04T09:21:04Z</time>
      </trkpt>
      <trkpt lat="46.17555" lon="3.07553">
        <ele>437.54</ele>
        <time>2012-03-04T09:21:13Z</time>
      </trkpt>
      <trkpt lat="46.17546" lon="3.07549">
        <ele>437.06</ele>
        <time>2012-03-04T09:21:20Z</time>
      </trkpt>
      <trkpt lat="46.17537" lon="3.07545">
        <ele>436.58</ele>
        <time>2012-03-04T09:21:27Z</time>
      </trkpt>
      <trkpt lat="46.17527" lon="3.07537">
        <ele>435.61</ele>
        <time>2012-03-04T09:21:40Z</time>
      </trkpt>
      <trkpt lat="46.17518" lon="3.07526">
        <ele>435.13</ele>
        <time>2012-03-04T09:21:52Z</time>
      </trkpt>
      <trkpt lat="46.17509" lon="3.07522">
        <ele>434.65</ele>
        <time>2012-03-04T09:21:59Z</time>
      </trkpt>
      <trkpt lat="46.17499" lon="3.0752">
        <ele>434.17</ele>
        <time>2012-03-04T09:22:09Z</time>
      </trkpt>
      <trkpt lat="46.17489" lon="3.0752">
        <ele>434.65</ele>
        <time>2012-03-04T09:22:16Z</time>
      </trkpt>
      <trkpt lat="46.17476" lon="3.07519">
        <ele>434.17</ele>
        <time>2012-03-04T09:22:26Z</time>
      </trkpt>
      <trkpt lat="46.17467" lon="3.07525">
        <ele>434.65</ele>
        <time>2012-03-04T09:22:35Z</time>
      </trkpt>
      <trkpt lat="46.17457" lon="3.07534">
        <ele>434.65</ele>
        <time>2012-03-04T09:22:44Z</time>
      </trkpt>
      <trkpt lat="46.1745" lon="3.07548">
        <ele>434.65</ele>
        <time>2012-03-04T09:22:51Z</time>
      </trkpt>
      <trkpt lat="46.17445" lon="3.07561">
        <ele>434.65</ele>
        <time>2012-03-04T09:22:55Z</time>
      </trkpt>
      <trkpt lat="46.17443" lon="3.07573">
        <ele>435.13</ele>
        <time>2012-03-04T09:22:59Z</time>
      </trkpt>
      <trkpt lat="46.17439" lon="3.07582">
        <ele>435.13</ele>
        <time>2012-03-04T09:23:06Z</time>
      </trkpt>
      <trkpt lat="46.17433" lon="3.07592">
        <ele>434.65</ele>
        <time>2012-03-04T09:23:13Z</time>
      </trkpt>
      <trkpt lat="46.17426" lon="3.07603">
        <ele>435.61</ele>
        <time>2012-03-04T09:23:19Z</time>
      </trkpt>
      <trkpt lat="46.17419" lon="3.0761">
        <ele>435.13</ele>
        <time>2012-03-04T09:23:26Z</time>
      </trkpt>
      <trkpt lat="46.17408" lon="3.07614">
        <ele>436.1</ele>
        <time>2012-03-04T09:23:36Z</time>
      </trkpt>
      <trkpt lat="46.17399" lon="3.0762">
        <ele>436.1</ele>
        <time>2012-03-04T09:23:42Z</time>
      </trkpt>
      <trkpt lat="46.1739" lon="3.07621">
        <ele>436.58</ele>
        <time>2012-03-04T09:23:51Z</time>
      </trkpt>
      <trkpt lat="46.1738" lon="3.07628">
        <ele>436.58</ele>
        <time>2012-03-04T09:23:57Z</time>
      </trkpt>
      <trkpt lat="46.17371" lon="3.0763">
        <ele>437.06</ele>
        <time>2012-03-04T09:24:05Z</time>
      </trkpt>
      <trkpt lat="46.17362" lon="3.07635">
        <ele>437.06</ele>
        <time>2012-03-04T09:24:11Z</time>
      </trkpt>
      <trkpt lat="46.17352" lon="3.07635">
        <ele>437.06</ele>
        <time>2012-03-04T09:24:20Z</time>
      </trkpt>
      <trkpt lat="46.17342" lon="3.07638">
        <ele>438.02</ele>
        <time>2012-03-04T09:24:27Z</time>
      </trkpt>
      <trkpt lat="46.17332" lon="3.07639">
        <ele>438.5</ele>
        <time>2012-03-04T09:24:35Z</time>
      </trkpt>
      <trkpt lat="46.17321" lon="3.07642">
        <ele>438.5</ele>
        <time>2012-03-04T09:24:41Z</time>
      </trkpt>
      <trkpt lat="46.17312" lon="3.07634">
        <ele>438.98</ele>
        <time>2012-03-04T09:24:49Z</time>
      </trkpt>
      <trkpt lat="46.17307" lon="3.07621">
        <ele>438.98</ele>
        <time>2012-03-04T09:24:55Z</time>
      </trkpt>
      <trkpt lat="46.17306" lon="3.07601">
        <ele>439.46</ele>
        <time>2012-03-04T09:25:04Z</time>
      </trkpt>
      <trkpt lat="46.173" lon="3.07588">
        <ele>439.94</ele>
        <time>2012-03-04T09:25:10Z</time>
      </trkpt>
      <trkpt lat="46.17297" lon="3.07575">
        <ele>440.42</ele>
        <time>2012-03-04T09:25:19Z</time>
      </trkpt>
      <trkpt lat="46.17289" lon="3.07565">
        <ele>440.9</ele>
        <time>2012-03-04T09:25:28Z</time>
      </trkpt>
      <trkpt lat="46.1728" lon="3.07557">
        <ele>440.9</ele>
        <time>2012-03-04T09:25:36Z</time>
      </trkpt>
      <trkpt lat="46.1727" lon="3.07552">
        <ele>441.86</ele>
        <time>2012-03-04T09:25:43Z</time>
      </trkpt>
      <trkpt lat="46.17261" lon="3.07553">
        <ele>441.86</ele>
        <time>2012-03-04T09:25:51Z</time>
      </trkpt>
      <trkpt lat="46.1725" lon="3.07557">
        <ele>442.34</ele>
        <time>2012-03-04T09:25:58Z</time>
      </trkpt>
      <trkpt lat="46.1724" lon="3.0756">
        <ele>442.82</ele>
        <time>2012-03-04T09:26:06Z</time>
      </trkpt>
      <trkpt lat="46.1723" lon="3.07561">
        <ele>442.34</ele>
        <time>2012-03-04T09:26:14Z</time>
      </trkpt>
      <trkpt lat="46.17221" lon="3.07561">
        <ele>442.34</ele>
        <time>2012-03-04T09:26:20Z</time>
      </trkpt>
      <trkpt lat="46.17212" lon="3.07556">
        <ele>442.34</ele>
        <time>2012-03-04T09:26:29Z</time>
      </trkpt>
      <trkpt lat="46.17203" lon="3.07554">
        <ele>441.86</ele>
        <time>2012-03-04T09:26:36Z</time>
      </trkpt>
      <trkpt lat="46.17192" lon="3.07551">
        <ele>441.38</ele>
        <time>2012-03-04T09:26:44Z</time>
      </trkpt>
      <trkpt lat="46.17183" lon="3.07547">
        <ele>441.38</ele>
        <time>2012-03-04T09:26:52Z</time>
      </trkpt>
      <trkpt lat="46.17173" lon="3.07545">
        <ele>440.9</ele>
        <time>2012-03-04T09:26:59Z</time>
      </trkpt>
      <trkpt lat="46.17163" lon="3.07543">
        <ele>440.42</ele>
        <time>2012-03-04T09:27:07Z</time>
      </trkpt>
      <trkpt lat="46.17154" lon="3.07538">
        <ele>440.42</ele>
        <time>2012-03-04T09:27:15Z</time>
      </trkpt>
      <trkpt lat="46.17144" lon="3.07535">
        <ele>439.94</ele>
        <time>2012-03-04T09:27:22Z</time>
      </trkpt>
      <trkpt lat="46.17135" lon="3.07527">
        <ele>440.42</ele>
        <time>2012-03-04T09:27:30Z</time>
      </trkpt>
      <trkpt lat="46.17126" lon="3.07523">
        <ele>439.94</ele>
        <time>2012-03-04T09:27:38Z</time>
      </trkpt>
      <trkpt lat="46.17116" lon="3.07519">
        <ele>440.42</ele>
        <time>2012-03-04T09:27:45Z</time>
      </trkpt>
      <trkpt lat="46.17106" lon="3.07514">
        <ele>439.94</ele>
        <time>2012-03-04T09:27:54Z</time>
      </trkpt>
      <trkpt lat="46.17095" lon="3.07512">
        <ele>440.9</ele>
        <time>2012-03-04T09:28:02Z</time>
      </trkpt>
      <trkpt lat="46.17085" lon="3.07513">
        <ele>440.9</ele>
        <time>2012-03-04T09:28:09Z</time>
      </trkpt>
      <trkpt lat="46.17074" lon="3.07513">
        <ele>441.38</ele>
        <time>2012-03-04T09:28:16Z</time>
      </trkpt>
      <trkpt lat="46.17064" lon="3.07512">
        <ele>441.38</ele>
        <time>2012-03-04T09:28:24Z</time>
      </trkpt>
      <trkpt lat="46.17055" lon="3.07511">
        <ele>442.34</ele>
        <time>2012-03-04T09:28:31Z</time>
      </trkpt>
      <trkpt lat="46.17047" lon="3.07506">
        <ele>442.34</ele>
        <time>2012-03-04T09:28:38Z</time>
      </trkpt>
      <trkpt lat="46.17038" lon="3.075">
        <ele>442.82</ele>
        <time>2012-03-04T09:28:46Z</time>
      </trkpt>
      <trkpt lat="46.17029" lon="3.07495">
        <ele>442.82</ele>
        <time>2012-03-04T09:28:54Z</time>
      </trkpt>
      <trkpt lat="46.17021" lon="3.07489">
        <ele>442.82</ele>
        <time>2012-03-04T09:29:01Z</time>
      </trkpt>
      <trkpt lat="46.17012" lon="3.07484">
        <ele>443.31</ele>
        <time>2012-03-04T09:29:09Z</time>
      </trkpt>
      <trkpt lat="46.17004" lon="3.07477">
        <ele>443.79</ele>
        <time>2012-03-04T09:29:16Z</time>
      </trkpt>
      <trkpt lat="46.16996" lon="3.0747">
        <ele>444.27</ele>
        <time>2012-03-04T09:29:23Z</time>
      </trkpt>
      <trkpt lat="46.16988" lon="3.07465">
        <ele>444.75</ele>
        <time>2012-03-04T09:29:30Z</time>
      </trkpt>
      <trkpt lat="46.16978" lon="3.07461">
        <ele>444.27</ele>
        <time>2012-03-04T09:29:37Z</time>
      </trkpt>
      <trkpt lat="46.16971" lon="3.07454">
        <ele>443.79</ele>
        <time>2012-03-04T09:29:44Z</time>
      </trkpt>
      <trkpt lat="46.16963" lon="3.07447">
        <ele>444.27</ele>
        <time>2012-03-04T09:29:52Z</time>
      </trkpt>
      <trkpt lat="46.16954" lon="3.07444">
        <ele>444.75</ele>
        <time>2012-03-04T09:29:59Z</time>
      </trkpt>
      <trkpt lat="46.16944" lon="3.07439">
        <ele>444.27</ele>
        <time>2012-03-04T09:30:07Z</time>
      </trkpt>
      <trkpt lat="46.16935" lon="3.07433">
        <ele>444.27</ele>
        <time>2012-03-04T09:30:15Z</time>
      </trkpt>
      <trkpt lat="46.16926" lon="3.07428">
        <ele>444.27</ele>
        <time>2012-03-04T09:30:23Z</time>
      </trkpt>
      <trkpt lat="46.16917" lon="3.07423">
        <ele>443.79</ele>
        <time>2012-03-04T09:30:29Z</time>
      </trkpt>
      <trkpt lat="46.16909" lon="3.07416">
        <ele>444.27</ele>
        <time>2012-03-04T09:30:36Z</time>
      </trkpt>
      <trkpt lat="46.169" lon="3.0741">
        <ele>443.79</ele>
        <time>2012-03-04T09:30:43Z</time>
      </trkpt>
      <trkpt lat="46.16892" lon="3.07402">
        <ele>444.27</ele>
        <time>2012-03-04T09:30:50Z</time>
      </trkpt>
      <trkpt lat="46.16893" lon="3.07389">
        <ele>444.75</ele>
        <time>2012-03-04T09:30:58Z</time>
      </trkpt>
      <trkpt lat="46.16896" lon="3.07376">
        <ele>444.75</ele>
        <time>2012-03-04T09:31:05Z</time>
      </trkpt>
      <trkpt lat="46.16899" lon="3.07362">
        <ele>444.75</ele>
        <time>2012-03-04T09:31:13Z</time>
      </trkpt>
      <trkpt lat="46.16902" lon="3.0735">
        <ele>445.23</ele>
        <time>2012-03-04T09:31:20Z</time>
      </trkpt>
      <trkpt lat="46.16904" lon="3.07336">
        <ele>445.23</ele>
        <time>2012-03-04T09:31:27Z</time>
      </trkpt>
      <trkpt lat="46.16907" lon="3.07323">
        <ele>445.71</ele>
        <time>2012-03-04T09:31:35Z</time>
      </trkpt>
      <trkpt lat="46.16911" lon="3.07312">
        <ele>445.23</ele>
        <time>2012-03-04T09:31:41Z</time>
      </trkpt>
      <trkpt lat="46.16912" lon="3.07298">
        <ele>445.23</ele>
        <time>2012-03-04T09:31:49Z</time>
      </trkpt>
      <trkpt lat="46.16911" lon="3.07285">
        <ele>445.71</ele>
        <time>2012-03-04T09:31:57Z</time>
      </trkpt>
      <trkpt lat="46.16902" lon="3.07279">
        <ele>445.71</ele>
        <time>2012-03-04T09:32:05Z</time>
      </trkpt>
      <trkpt lat="46.16893" lon="3.07277">
        <ele>445.23</ele>
        <time>2012-03-04T09:32:13Z</time>
      </trkpt>
      <trkpt lat="46.16884" lon="3.07277">
        <ele>445.23</ele>
        <time>2012-03-04T09:32:21Z</time>
      </trkpt>
      <trkpt lat="46.16874" lon="3.07276">
        <ele>444.75</ele>
        <time>2012-03-04T09:32:28Z</time>
      </trkpt>
      <trkpt lat="46.16865" lon="3.07273">
        <ele>444.75</ele>
        <time>2012-03-04T09:32:36Z</time>
      </trkpt>
      <trkpt lat="46.16856" lon="3.0727">
        <ele>444.75</ele>
        <time>2012-03-04T09:32:43Z</time>
      </trkpt>
      <trkpt lat="46.16847" lon="3.07269">
        <ele>445.23</ele>
        <time>2012-03-04T09:32:49Z</time>
      </trkpt>
      <trkpt lat="46.16839" lon="3.07263">
        <ele>444.27</ele>
        <time>2012-03-04T09:32:56Z</time>
      </trkpt>
      <trkpt lat="46.16833" lon="3.07252">
        <ele>444.27</ele>
        <time>2012-03-04T09:33:04Z</time>
      </trkpt>
      <trkpt lat="46.16829" lon="3.07241">
        <ele>443.79</ele>
        <time>2012-03-04T09:33:11Z</time>
      </trkpt>
      <trkpt lat="46.16824" lon="3.07231">
        <ele>442.82</ele>
        <time>2012-03-04T09:33:18Z</time>
      </trkpt>
      <trkpt lat="46.16817" lon="3.07221">
        <ele>442.82</ele>
        <time>2012-03-04T09:33:24Z</time>
      </trkpt>
      <trkpt lat="46.16811" lon="3.07211">
        <ele>442.82</ele>
        <time>2012-03-04T09:33:31Z</time>
      </trkpt>
      <trkpt lat="46.16804" lon="3.07202">
        <ele>442.34</ele>
        <time>2012-03-04T09:33:38Z</time>
      </trkpt>
      <trkpt lat="46.16796" lon="3.07192">
        <ele>442.82</ele>
        <time>2012-03-04T09:33:45Z</time>
      </trkpt>
      <trkpt lat="46.16789" lon="3.07183">
        <ele>442.82</ele>
        <time>2012-03-04T09:33:52Z</time>
      </trkpt>
      <trkpt lat="46.16783" lon="3.07175">
        <ele>442.34</ele>
        <time>2012-03-04T09:34:00Z</time>
      </trkpt>
      <trkpt lat="46.16776" lon="3.07165">
        <ele>442.82</ele>
        <time>2012-03-04T09:34:08Z</time>
      </trkpt>
      <trkpt lat="46.16768" lon="3.07155">
        <ele>442.34</ele>
        <time>2012-03-04T09:34:16Z</time>
      </trkpt>
      <trkpt lat="46.16761" lon="3.07144">
        <ele>442.34</ele>
        <time>2012-03-04T09:34:24Z</time>
      </trkpt>
      <trkpt lat="46.16753" lon="3.07134">
        <ele>442.82</ele>
        <time>2012-03-04T09:34:32Z</time>
      </trkpt>
      <trkpt lat="46.16746" lon="3.07122">
        <ele>442.82</ele>
        <time>2012-03-04T09:34:39Z</time>
      </trkpt>
      <trkpt lat="46.16742" lon="3.07109">
        <ele>442.34</ele>
        <time>2012-03-04T09:34:47Z</time>
      </trkpt>
      <trkpt lat="46.16736" lon="3.07097">
        <ele>442.34</ele>
        <time>2012-03-04T09:34:53Z</time>
      </trkpt>
      <trkpt lat="46.16732" lon="3.07086">
        <ele>442.82</ele>
        <time>2012-03-04T09:35:00Z</time>
      </trkpt>
      <trkpt lat="46.16728" lon="3.07073">
        <ele>442.82</ele>
        <time>2012-03-04T09:35:08Z</time>
      </trkpt>
      <trkpt lat="46.16723" lon="3.07061">
        <ele>442.82</ele>
        <time>2012-03-04T09:35:15Z</time>
      </trkpt>
      <trkpt lat="46.16718" lon="3.07048">
        <ele>443.31</ele>
        <time>2012-03-04T09:35:21Z</time>
      </trkpt>
      <trkpt lat="46.16714" lon="3.07037">
        <ele>443.31</ele>
        <time>2012-03-04T09:35:29Z</time>
      </trkpt>
      <trkpt lat="46.16708" lon="3.07025">
        <ele>442.82</ele>
        <time>2012-03-04T09:35:38Z</time>
      </trkpt>
      <trkpt lat="46.16702" lon="3.07013">
        <ele>442.82</ele>
        <time>2012-03-04T09:35:45Z</time>
      </trkpt>
      <trkpt lat="46.16695" lon="3.06998">
        <ele>443.31</ele>
        <time>2012-03-04T09:35:53Z</time>
      </trkpt>
      <trkpt lat="46.16689" lon="3.06988">
        <ele>442.82</ele>
        <time>2012-03-04T09:36:00Z</time>
      </trkpt>
      <trkpt lat="46.16683" lon="3.06976">
        <ele>442.82</ele>
        <time>2012-03-04T09:36:08Z</time>
      </trkpt>
      <trkpt lat="46.16677" lon="3.06965">
        <ele>443.31</ele>
        <time>2012-03-04T09:36:14Z</time>
      </trkpt>
      <trkpt lat="46.16671" lon="3.06955">
        <ele>443.31</ele>
        <time>2012-03-04T09:36:21Z</time>
      </trkpt>
      <trkpt lat="46.16665" lon="3.06945">
        <ele>442.82</ele>
        <time>2012-03-04T09:36:29Z</time>
      </trkpt>
      <trkpt lat="46.16659" lon="3.06931">
        <ele>443.31</ele>
        <time>2012-03-04T09:36:37Z</time>
      </trkpt>
      <trkpt lat="46.16651" lon="3.06921">
        <ele>443.79</ele>
        <time>2012-03-04T09:36:45Z</time>
      </trkpt>
      <trkpt lat="46.16644" lon="3.06908">
        <ele>443.31</ele>
        <time>2012-03-04T09:36:53Z</time>
      </trkpt>
      <trkpt lat="46.16636" lon="3.06897">
        <ele>443.79</ele>
        <time>2012-03-04T09:36:59Z</time>
      </trkpt>
      <trkpt lat="46.16628" lon="3.06884">
        <ele>443.31</ele>
        <time>2012-03-04T09:37:08Z</time>
      </trkpt>
      <trkpt lat="46.16621" lon="3.0687">
        <ele>443.79</ele>
        <time>2012-03-04T09:37:16Z</time>
      </trkpt>
      <trkpt lat="46.16614" lon="3.0686">
        <ele>444.27</ele>
        <time>2012-03-04T09:37:25Z</time>
      </trkpt>
      <trkpt lat="46.16608" lon="3.06846">
        <ele>444.27</ele>
        <time>2012-03-04T09:37:35Z</time>
      </trkpt>
      <trkpt lat="46.16607" lon="3.0683">
        <ele>443.79</ele>
        <time>2012-03-04T09:37:44Z</time>
      </trkpt>
      <trkpt lat="46.16603" lon="3.06815">
        <ele>444.75</ele>
        <time>2012-03-04T09:37:51Z</time>
      </trkpt>
      <trkpt lat="46.16602" lon="3.06797">
        <ele>444.75</ele>
        <time>2012-03-04T09:38:02Z</time>
      </trkpt>
      <trkpt lat="46.16602" lon="3.06782">
        <ele>444.75</ele>
        <time>2012-03-04T09:38:09Z</time>
      </trkpt>
      <trkpt lat="46.16601" lon="3.06768">
        <ele>445.23</ele>
        <time>2012-03-04T09:38:16Z</time>
      </trkpt>
      <trkpt lat="46.166" lon="3.06754">
        <ele>445.23</ele>
        <time>2012-03-04T09:38:24Z</time>
      </trkpt>
      <trkpt lat="46.16599" lon="3.06738">
        <ele>445.23</ele>
        <time>2012-03-04T09:38:32Z</time>
      </trkpt>
      <trkpt lat="46.16599" lon="3.06724">
        <ele>445.23</ele>
        <time>2012-03-04T09:38:38Z</time>
      </trkpt>
      <trkpt lat="46.16597" lon="3.06707">
        <ele>445.71</ele>
        <time>2012-03-04T09:38:48Z</time>
      </trkpt>
      <trkpt lat="46.16592" lon="3.06691">
        <ele>445.71</ele>
        <time>2012-03-04T09:38:58Z</time>
      </trkpt>
      <trkpt lat="46.16587" lon="3.06674">
        <ele>446.19</ele>
        <time>2012-03-04T09:39:08Z</time>
      </trkpt>
      <trkpt lat="46.16581" lon="3.0666">
        <ele>446.67</ele>
        <time>2012-03-04T09:39:16Z</time>
      </trkpt>
      <trkpt lat="46.16573" lon="3.06644">
        <ele>446.67</ele>
        <time>2012-03-04T09:39:25Z</time>
      </trkpt>
      <trkpt lat="46.16566" lon="3.06632">
        <ele>447.15</ele>
        <time>2012-03-04T09:39:34Z</time>
      </trkpt>
      <trkpt lat="46.1656" lon="3.06619">
        <ele>447.15</ele>
        <time>2012-03-04T09:39:42Z</time>
      </trkpt>
      <trkpt lat="46.16554" lon="3.06603">
        <ele>448.11</ele>
        <time>2012-03-04T09:39:51Z</time>
      </trkpt>
      <trkpt lat="46.16547" lon="3.06589">
        <ele>448.59</ele>
        <time>2012-03-04T09:39:59Z</time>
      </trkpt>
      <trkpt lat="46.16542" lon="3.06576">
        <ele>449.07</ele>
        <time>2012-03-04T09:40:07Z</time>
      </trkpt>
      <trkpt lat="46.16537" lon="3.06559">
        <ele>449.07</ele>
        <time>2012-03-04T09:40:16Z</time>
      </trkpt>
      <trkpt lat="46.16534" lon="3.06544">
        <ele>449.55</ele>
        <time>2012-03-04T09:40:24Z</time>
      </trkpt>
      <trkpt lat="46.16531" lon="3.06529">
        <ele>450.52</ele>
        <time>2012-03-04T09:40:34Z</time>
      </trkpt>
      <trkpt lat="46.16524" lon="3.06512">
        <ele>450.52</ele>
        <time>2012-03-04T09:40:43Z</time>
      </trkpt>
      <trkpt lat="46.16523" lon="3.06498">
        <ele>450.52</ele>
        <time>2012-03-04T09:40:51Z</time>
      </trkpt>
      <trkpt lat="46.16519" lon="3.06484">
        <ele>451</ele>
        <time>2012-03-04T09:40:58Z</time>
      </trkpt>
      <trkpt lat="46.16522" lon="3.0647">
        <ele>451.96</ele>
        <time>2012-03-04T09:41:07Z</time>
      </trkpt>
      <trkpt lat="46.16525" lon="3.06452">
        <ele>452.44</ele>
        <time>2012-03-04T09:41:17Z</time>
      </trkpt>
      <trkpt lat="46.16525" lon="3.06431">
        <ele>453.4</ele>
        <time>2012-03-04T09:41:29Z</time>
      </trkpt>
      <trkpt lat="46.16526" lon="3.0641">
        <ele>454.36</ele>
        <time>2012-03-04T09:41:39Z</time>
      </trkpt>
      <trkpt lat="46.16527" lon="3.06392">
        <ele>454.84</ele>
        <time>2012-03-04T09:41:48Z</time>
      </trkpt>
      <trkpt lat="46.16527" lon="3.06374">
        <ele>455.32</ele>
        <time>2012-03-04T09:41:58Z</time>
      </trkpt>
      <trkpt lat="46.16527" lon="3.06357">
        <ele>455.8</ele>
        <time>2012-03-04T09:42:06Z</time>
      </trkpt>
      <trkpt lat="46.16528" lon="3.0634">
        <ele>456.76</ele>
        <time>2012-03-04T09:42:14Z</time>
      </trkpt>
      <trkpt lat="46.16528" lon="3.06321">
        <ele>457.24</ele>
        <time>2012-03-04T09:42:24Z</time>
      </trkpt>
      <trkpt lat="46.16534" lon="3.06309">
        <ele>457.24</ele>
        <time>2012-03-04T09:42:34Z</time>
      </trkpt>
      <trkpt lat="46.16539" lon="3.06297">
        <ele>458.21</ele>
        <time>2012-03-04T09:42:43Z</time>
      </trkpt>
      <trkpt lat="46.16535" lon="3.0627">
        <ele>458.69</ele>
        <time>2012-03-04T09:42:55Z</time>
      </trkpt>
      <trkpt lat="46.16535" lon="3.06249">
        <ele>459.65</ele>
        <time>2012-03-04T09:43:05Z</time>
      </trkpt>
      <trkpt lat="46.16535" lon="3.06232">
        <ele>459.17</ele>
        <time>2012-03-04T09:43:14Z</time>
      </trkpt>
      <trkpt lat="46.16535" lon="3.06215">
        <ele>458.21</ele>
        <time>2012-03-04T09:43:23Z</time>
      </trkpt>
      <trkpt lat="46.16535" lon="3.06197">
        <ele>457.24</ele>
        <time>2012-03-04T09:43:34Z</time>
      </trkpt>
      <trkpt lat="46.16535" lon="3.06177">
        <ele>456.28</ele>
        <time>2012-03-04T09:43:45Z</time>
      </trkpt>
      <trkpt lat="46.16535" lon="3.06159">
        <ele>455.8</ele>
        <time>2012-03-04T09:43:53Z</time>
      </trkpt>
      <trkpt lat="46.16535" lon="3.0614">
        <ele>454.36</ele>
        <time>2012-03-04T09:44:03Z</time>
      </trkpt>
      <trkpt lat="46.16532" lon="3.06118">
        <ele>452.92</ele>
        <time>2012-03-04T09:44:15Z</time>
      </trkpt>
      <trkpt lat="46.16531" lon="3.06097">
        <ele>451.48</ele>
        <time>2012-03-04T09:44:28Z</time>
      </trkpt>
      <trkpt lat="46.1653" lon="3.06075">
        <ele>450.03</ele>
        <time>2012-03-04T09:44:39Z</time>
      </trkpt>
      <trkpt lat="46.16532" lon="3.06054">
        <ele>447.63</ele>
        <time>2012-03-04T09:44:52Z</time>
      </trkpt>
      <trkpt lat="46.16533" lon="3.06032">
        <ele>445.71</ele>
        <time>2012-03-04T09:45:03Z</time>
      </trkpt>
      <trkpt lat="46.16533" lon="3.06013">
        <ele>444.75</ele>
        <time>2012-03-04T09:45:11Z</time>
      </trkpt>
      <trkpt lat="46.16533" lon="3.05998">
        <ele>443.31</ele>
        <time>2012-03-04T09:45:19Z</time>
      </trkpt>
      <trkpt lat="46.16533" lon="3.05982">
        <ele>441.86</ele>
        <time>2012-03-04T09:45:29Z</time>
      </trkpt>
      <trkpt lat="46.16534" lon="3.05964">
        <ele>440.42</ele>
        <time>2012-03-04T09:45:39Z</time>
      </trkpt>
      <trkpt lat="46.16533" lon="3.05943">
        <ele>438.5</ele>
        <time>2012-03-04T09:45:53Z</time>
      </trkpt>
      <trkpt lat="46.16533" lon="3.05919">
        <ele>437.54</ele>
        <time>2012-03-04T09:46:04Z</time>
      </trkpt>
      <trkpt lat="46.16532" lon="3.05897">
        <ele>436.1</ele>
        <time>2012-03-04T09:46:18Z</time>
      </trkpt>
      <trkpt lat="46.16529" lon="3.05873">
        <ele>434.17</ele>
        <time>2012-03-04T09:46:29Z</time>
      </trkpt>
      <trkpt lat="46.16526" lon="3.05853">
        <ele>432.25</ele>
        <time>2012-03-04T09:46:40Z</time>
      </trkpt>
      <trkpt lat="46.1652" lon="3.05829">
        <ele>429.85</ele>
        <time>2012-03-04T09:46:54Z</time>
      </trkpt>
      <trkpt lat="46.16516" lon="3.05809">
        <ele>427.92</ele>
        <time>2012-03-04T09:47:07Z</time>
      </trkpt>
      <trkpt lat="46.16511" lon="3.05782">
        <ele>425.04</ele>
        <time>2012-03-04T09:47:24Z</time>
      </trkpt>
      <trkpt lat="46.16506" lon="3.0576">
        <ele>422.16</ele>
        <time>2012-03-04T09:47:38Z</time>
      </trkpt>
      <trkpt lat="46.16498" lon="3.05742">
        <ele>421.19</ele>
        <time>2012-03-04T09:47:45Z</time>
      </trkpt>
      <trkpt lat="46.1649" lon="3.05731">
        <ele>419.27</ele>
        <time>2012-03-04T09:47:54Z</time>
      </trkpt>
      <trkpt lat="46.16485" lon="3.05718">
        <ele>417.83</ele>
        <time>2012-03-04T09:48:03Z</time>
      </trkpt>
      <trkpt lat="46.16491" lon="3.05708">
        <ele>417.35</ele>
        <time>2012-03-04T09:48:11Z</time>
      </trkpt>
      <trkpt lat="46.16498" lon="3.05698">
        <ele>417.35</ele>
        <time>2012-03-04T09:48:25Z</time>
      </trkpt>
      <trkpt lat="46.16517" lon="3.05686">
        <ele>417.35</ele>
        <time>2012-03-04T09:48:48Z</time>
      </trkpt>
      <trkpt lat="46.16525" lon="3.05691">
        <ele>415.91</ele>
        <time>2012-03-04T09:51:48Z</time>
      </trkpt>
      <trkpt lat="46.16527" lon="3.05681">
        <ele>416.87</ele>
        <time>2012-03-04T10:00:25Z</time>
      </trkpt>
      <trkpt lat="46.16529" lon="3.05668">
        <ele>417.35</ele>
        <time>2012-03-04T10:02:30Z</time>
      </trkpt>
      <trkpt lat="46.1653" lon="3.0565">
        <ele>416.39</ele>
        <time>2012-03-04T10:02:44Z</time>
      </trkpt>
      <trkpt lat="46.16525" lon="3.05634">
        <ele>415.43</ele>
        <time>2012-03-04T10:02:56Z</time>
      </trkpt>
      <trkpt lat="46.16518" lon="3.0562">
        <ele>414.47</ele>
        <time>2012-03-04T10:03:05Z</time>
      </trkpt>
      <trkpt lat="46.16512" lon="3.05608">
        <ele>413.98</ele>
        <time>2012-03-04T10:03:14Z</time>
      </trkpt>
      <trkpt lat="46.16506" lon="3.05594">
        <ele>413.02</ele>
        <time>2012-03-04T10:03:24Z</time>
      </trkpt>
      <trkpt lat="46.16499" lon="3.05579">
        <ele>412.06</ele>
        <time>2012-03-04T10:03:33Z</time>
      </trkpt>
      <trkpt lat="46.16492" lon="3.05565">
        <ele>411.1</ele>
        <time>2012-03-04T10:03:42Z</time>
      </trkpt>
      <trkpt lat="46.16485" lon="3.05551">
        <ele>410.62</ele>
        <time>2012-03-04T10:03:52Z</time>
      </trkpt>
      <trkpt lat="46.16479" lon="3.05538">
        <ele>409.66</ele>
        <time>2012-03-04T10:04:01Z</time>
      </trkpt>
      <trkpt lat="46.16472" lon="3.05524">
        <ele>408.7</ele>
        <time>2012-03-04T10:04:10Z</time>
      </trkpt>
      <trkpt lat="46.16468" lon="3.05506">
        <ele>408.22</ele>
        <time>2012-03-04T10:04:22Z</time>
      </trkpt>
      <trkpt lat="46.16464" lon="3.0549">
        <ele>407.74</ele>
        <time>2012-03-04T10:04:37Z</time>
      </trkpt>
      <trkpt lat="46.16454" lon="3.0547">
        <ele>406.77</ele>
        <time>2012-03-04T10:04:52Z</time>
      </trkpt>
      <trkpt lat="46.16447" lon="3.0545">
        <ele>406.29</ele>
        <time>2012-03-04T10:05:03Z</time>
      </trkpt>
      <trkpt lat="46.16435" lon="3.05435">
        <ele>405.33</ele>
        <time>2012-03-04T10:05:13Z</time>
      </trkpt>
      <trkpt lat="46.16424" lon="3.0543">
        <ele>405.33</ele>
        <time>2012-03-04T10:05:22Z</time>
      </trkpt>
      <trkpt lat="46.16412" lon="3.05417">
        <ele>403.89</ele>
        <time>2012-03-04T10:05:34Z</time>
      </trkpt>
      <trkpt lat="46.164" lon="3.05409">
        <ele>402.93</ele>
        <time>2012-03-04T10:05:43Z</time>
      </trkpt>
      <trkpt lat="46.16387" lon="3.05404">
        <ele>401.97</ele>
        <time>2012-03-04T10:05:53Z</time>
      </trkpt>
      <trkpt lat="46.16375" lon="3.05401">
        <ele>401.49</ele>
        <time>2012-03-04T10:06:01Z</time>
      </trkpt>
      <trkpt lat="46.16357" lon="3.05399">
        <ele>400.05</ele>
        <time>2012-03-04T10:06:13Z</time>
      </trkpt>
      <trkpt lat="46.16344" lon="3.05396">
        <ele>399.57</ele>
        <time>2012-03-04T10:06:22Z</time>
      </trkpt>
      <trkpt lat="46.16329" lon="3.05392">
        <ele>398.6</ele>
        <time>2012-03-04T10:06:35Z</time>
      </trkpt>
      <trkpt lat="46.16318" lon="3.05386">
        <ele>397.64</ele>
        <time>2012-03-04T10:06:48Z</time>
      </trkpt>
      <trkpt lat="46.16315" lon="3.05373">
        <ele>397.16</ele>
        <time>2012-03-04T10:06:59Z</time>
      </trkpt>
      <trkpt lat="46.16311" lon="3.05347">
        <ele>396.2</ele>
        <time>2012-03-04T10:07:11Z</time>
      </trkpt>
      <trkpt lat="46.1631" lon="3.05326">
        <ele>395.72</ele>
        <time>2012-03-04T10:07:22Z</time>
      </trkpt>
      <trkpt lat="46.16309" lon="3.05304">
        <ele>394.76</ele>
        <time>2012-03-04T10:07:31Z</time>
      </trkpt>
      <trkpt lat="46.16312" lon="3.05289">
        <ele>393.8</ele>
        <time>2012-03-04T10:07:42Z</time>
      </trkpt>
      <trkpt lat="46.16317" lon="3.05271">
        <ele>393.32</ele>
        <time>2012-03-04T10:07:54Z</time>
      </trkpt>
      <trkpt lat="46.16324" lon="3.05256">
        <ele>392.36</ele>
        <time>2012-03-04T10:08:05Z</time>
      </trkpt>
      <trkpt lat="46.16331" lon="3.05242">
        <ele>391.87</ele>
        <time>2012-03-04T10:08:14Z</time>
      </trkpt>
      <trkpt lat="46.16341" lon="3.05224">
        <ele>390.91</ele>
        <time>2012-03-04T10:08:25Z</time>
      </trkpt>
      <trkpt lat="46.1635" lon="3.0521">
        <ele>390.43</ele>
        <time>2012-03-04T10:08:36Z</time>
      </trkpt>
      <trkpt lat="46.16357" lon="3.05193">
        <ele>389.47</ele>
        <time>2012-03-04T10:08:49Z</time>
      </trkpt>
      <trkpt lat="46.1637" lon="3.05178">
        <ele>388.99</ele>
        <time>2012-03-04T10:09:01Z</time>
      </trkpt>
      <trkpt lat="46.16379" lon="3.05159">
        <ele>388.51</ele>
        <time>2012-03-04T10:09:15Z</time>
      </trkpt>
      <trkpt lat="46.16389" lon="3.05143">
        <ele>388.51</ele>
        <time>2012-03-04T10:09:27Z</time>
      </trkpt>
      <trkpt lat="46.16402" lon="3.05115">
        <ele>387.55</ele>
        <time>2012-03-04T10:09:41Z</time>
      </trkpt>
      <trkpt lat="46.16411" lon="3.05103">
        <ele>387.55</ele>
        <time>2012-03-04T10:09:50Z</time>
      </trkpt>
      <trkpt lat="46.16421" lon="3.05085">
        <ele>387.07</ele>
        <time>2012-03-04T10:10:02Z</time>
      </trkpt>
      <trkpt lat="46.16433" lon="3.05063">
        <ele>386.59</ele>
        <time>2012-03-04T10:10:17Z</time>
      </trkpt>
      <trkpt lat="46.16449" lon="3.05034">
        <ele>386.11</ele>
        <time>2012-03-04T10:10:29Z</time>
      </trkpt>
      <trkpt lat="46.16453" lon="3.05">
        <ele>387.07</ele>
        <time>2012-03-04T10:10:42Z</time>
      </trkpt>
      <trkpt lat="46.16453" lon="3.0497">
        <ele>387.55</ele>
        <time>2012-03-04T10:10:56Z</time>
      </trkpt>
      <trkpt lat="46.16459" lon="3.04945">
        <ele>388.03</ele>
        <time>2012-03-04T10:11:11Z</time>
      </trkpt>
      <trkpt lat="46.16464" lon="3.04924">
        <ele>388.99</ele>
        <time>2012-03-04T10:11:24Z</time>
      </trkpt>
      <trkpt lat="46.16472" lon="3.049">
        <ele>389.95</ele>
        <time>2012-03-04T10:11:38Z</time>
      </trkpt>
      <trkpt lat="46.16486" lon="3.04874">
        <ele>390.91</ele>
        <time>2012-03-04T10:11:54Z</time>
      </trkpt>
      <trkpt lat="46.16503" lon="3.04851">
        <ele>391.87</ele>
        <time>2012-03-04T10:12:12Z</time>
      </trkpt>
      <trkpt lat="46.16512" lon="3.04841">
        <ele>392.84</ele>
        <time>2012-03-04T10:12:27Z</time>
      </trkpt>
      <trkpt lat="46.16526" lon="3.04833">
        <ele>393.8</ele>
        <time>2012-03-04T10:12:41Z</time>
      </trkpt>
      <trkpt lat="46.16541" lon="3.04817">
        <ele>393.8</ele>
        <time>2012-03-04T10:12:56Z</time>
      </trkpt>
      <trkpt lat="46.1656" lon="3.04813">
        <ele>394.76</ele>
        <time>2012-03-04T10:13:11Z</time>
      </trkpt>
      <trkpt lat="46.16588" lon="3.04798">
        <ele>395.24</ele>
        <time>2012-03-04T10:13:32Z</time>
      </trkpt>
      <trkpt lat="46.16607" lon="3.04786">
        <ele>395.72</ele>
        <time>2012-03-04T10:13:45Z</time>
      </trkpt>
      <trkpt lat="46.16626" lon="3.04771">
        <ele>396.68</ele>
        <time>2012-03-04T10:14:00Z</time>
      </trkpt>
      <trkpt lat="46.1664" lon="3.04761">
        <ele>396.68</ele>
        <time>2012-03-04T10:14:26Z</time>
      </trkpt>
      <trkpt lat="46.16653" lon="3.0475">
        <ele>398.12</ele>
        <time>2012-03-04T10:14:41Z</time>
      </trkpt>
      <trkpt lat="46.16676" lon="3.04715">
        <ele>398.6</ele>
        <time>2012-03-04T10:15:04Z</time>
      </trkpt>
      <trkpt lat="46.16686" lon="3.04693">
        <ele>399.57</ele>
        <time>2012-03-04T10:15:19Z</time>
      </trkpt>
      <trkpt lat="46.16693" lon="3.0466">
        <ele>400.05</ele>
        <time>2012-03-04T10:15:36Z</time>
      </trkpt>
      <trkpt lat="46.16689" lon="3.04634">
        <ele>400.53</ele>
        <time>2012-03-04T10:15:56Z</time>
      </trkpt>
      <trkpt lat="46.1669" lon="3.04612">
        <ele>401.01</ele>
        <time>2012-03-04T10:16:12Z</time>
      </trkpt>
      <trkpt lat="46.16683" lon="3.04583">
        <ele>401.49</ele>
        <time>2012-03-04T10:16:27Z</time>
      </trkpt>
      <trkpt lat="46.16675" lon="3.04544">
        <ele>401.97</ele>
        <time>2012-03-04T10:16:43Z</time>
      </trkpt>
      <trkpt lat="46.16668" lon="3.04511">
        <ele>401.97</ele>
        <time>2012-03-04T10:16:58Z</time>
      </trkpt>
      <trkpt lat="46.16667" lon="3.04491">
        <ele>402.93</ele>
        <time>2012-03-04T10:17:16Z</time>
      </trkpt>
      <trkpt lat="46.16677" lon="3.04458">
        <ele>403.41</ele>
        <time>2012-03-04T10:17:31Z</time>
      </trkpt>
      <trkpt lat="46.16686" lon="3.04422">
        <ele>403.89</ele>
        <time>2012-03-04T10:17:47Z</time>
      </trkpt>
      <trkpt lat="46.16696" lon="3.04396">
        <ele>404.37</ele>
        <time>2012-03-04T10:18:02Z</time>
      </trkpt>
      <trkpt lat="46.16705" lon="3.04373">
        <ele>405.33</ele>
        <time>2012-03-04T10:18:21Z</time>
      </trkpt>
      <trkpt lat="46.16716" lon="3.04348">
        <ele>405.81</ele>
        <time>2012-03-04T10:18:39Z</time>
      </trkpt>
      <trkpt lat="46.16726" lon="3.04315">
        <ele>405.33</ele>
        <time>2012-03-04T10:18:55Z</time>
      </trkpt>
      <trkpt lat="46.16727" lon="3.04284">
        <ele>405.81</ele>
        <time>2012-03-04T10:19:07Z</time>
      </trkpt>
      <trkpt lat="46.16727" lon="3.0426">
        <ele>405.33</ele>
        <time>2012-03-04T10:19:21Z</time>
      </trkpt>
      <trkpt lat="46.1673" lon="3.0424">
        <ele>405.33</ele>
        <time>2012-03-04T10:19:33Z</time>
      </trkpt>
      <trkpt lat="46.16737" lon="3.04207">
        <ele>405.33</ele>
        <time>2012-03-04T10:19:49Z</time>
      </trkpt>
      <trkpt lat="46.16744" lon="3.04178">
        <ele>404.85</ele>
        <time>2012-03-04T10:20:01Z</time>
      </trkpt>
      <trkpt lat="46.16746" lon="3.04155">
        <ele>404.85</ele>
        <time>2012-03-04T10:20:13Z</time>
      </trkpt>
      <trkpt lat="46.16746" lon="3.04126">
        <ele>405.33</ele>
        <time>2012-03-04T10:20:29Z</time>
      </trkpt>
      <trkpt lat="46.16746" lon="3.04108">
        <ele>405.81</ele>
        <time>2012-03-04T10:20:39Z</time>
      </trkpt>
      <trkpt lat="46.16748" lon="3.0409">
        <ele>405.81</ele>
        <time>2012-03-04T10:20:50Z</time>
      </trkpt>
      <trkpt lat="46.16749" lon="3.04073">
        <ele>406.77</ele>
        <time>2012-03-04T10:21:00Z</time>
      </trkpt>
      <trkpt lat="46.16751" lon="3.04055">
        <ele>406.77</ele>
        <time>2012-03-04T10:21:15Z</time>
      </trkpt>
      <trkpt lat="46.16757" lon="3.04024">
        <ele>407.74</ele>
        <time>2012-03-04T10:21:32Z</time>
      </trkpt>
      <trkpt lat="46.16766" lon="3.04001">
        <ele>408.22</ele>
        <time>2012-03-04T10:21:44Z</time>
      </trkpt>
      <trkpt lat="46.1678" lon="3.03981">
        <ele>408.7</ele>
        <time>2012-03-04T10:21:56Z</time>
      </trkpt>
      <trkpt lat="46.16795" lon="3.03965">
        <ele>409.18</ele>
        <time>2012-03-04T10:22:13Z</time>
      </trkpt>
      <trkpt lat="46.1681" lon="3.03955">
        <ele>409.18</ele>
        <time>2012-03-04T10:22:30Z</time>
      </trkpt>
      <trkpt lat="46.16828" lon="3.03942">
        <ele>409.66</ele>
        <time>2012-03-04T10:22:44Z</time>
      </trkpt>
      <trkpt lat="46.16848" lon="3.03936">
        <ele>410.14</ele>
        <time>2012-03-04T10:23:05Z</time>
      </trkpt>
      <trkpt lat="46.16864" lon="3.0392">
        <ele>410.62</ele>
        <time>2012-03-04T10:23:19Z</time>
      </trkpt>
      <trkpt lat="46.16879" lon="3.03907">
        <ele>410.62</ele>
        <time>2012-03-04T10:23:35Z</time>
      </trkpt>
      <trkpt lat="46.16893" lon="3.03883">
        <ele>410.62</ele>
        <time>2012-03-04T10:23:47Z</time>
      </trkpt>
      <trkpt lat="46.1691" lon="3.0384">
        <ele>410.62</ele>
        <time>2012-03-04T10:24:04Z</time>
      </trkpt>
      <trkpt lat="46.16919" lon="3.03805">
        <ele>411.1</ele>
        <time>2012-03-04T10:24:16Z</time>
      </trkpt>
      <trkpt lat="46.16926" lon="3.03779">
        <ele>412.06</ele>
        <time>2012-03-04T10:24:29Z</time>
      </trkpt>
      <trkpt lat="46.16933" lon="3.0376">
        <ele>412.06</ele>
        <time>2012-03-04T10:24:38Z</time>
      </trkpt>
      <trkpt lat="46.16936" lon="3.03733">
        <ele>412.54</ele>
        <time>2012-03-04T10:24:50Z</time>
      </trkpt>
      <trkpt lat="46.1694" lon="3.03713">
        <ele>412.54</ele>
        <time>2012-03-04T10:25:00Z</time>
      </trkpt>
      <trkpt lat="46.1694" lon="3.03698">
        <ele>413.02</ele>
        <time>2012-03-04T10:25:08Z</time>
      </trkpt>
      <trkpt lat="46.16938" lon="3.03674">
        <ele>413.02</ele>
        <time>2012-03-04T10:25:18Z</time>
      </trkpt>
      <trkpt lat="46.16941" lon="3.03652">
        <ele>413.98</ele>
        <time>2012-03-04T10:25:31Z</time>
      </trkpt>
      <trkpt lat="46.16948" lon="3.03632">
        <ele>414.95</ele>
        <time>2012-03-04T10:25:42Z</time>
      </trkpt>
      <trkpt lat="46.16948" lon="3.03614">
        <ele>415.43</ele>
        <time>2012-03-04T10:25:52Z</time>
      </trkpt>
      <trkpt lat="46.16954" lon="3.03592">
        <ele>415.91</ele>
        <time>2012-03-04T10:26:03Z</time>
      </trkpt>
      <trkpt lat="46.16958" lon="3.03575">
        <ele>415.91</ele>
        <time>2012-03-04T10:26:11Z</time>
      </trkpt>
      <trkpt lat="46.16956" lon="3.03555">
        <ele>416.39</ele>
        <time>2012-03-04T10:26:22Z</time>
      </trkpt>
      <trkpt lat="46.16958" lon="3.03531">
        <ele>417.35</ele>
        <time>2012-03-04T10:26:33Z</time>
      </trkpt>
      <trkpt lat="46.16962" lon="3.03514">
        <ele>417.83</ele>
        <time>2012-03-04T10:26:44Z</time>
      </trkpt>
      <trkpt lat="46.16973" lon="3.03495">
        <ele>417.83</ele>
        <time>2012-03-04T10:26:58Z</time>
      </trkpt>
      <trkpt lat="46.16977" lon="3.03477">
        <ele>418.31</ele>
        <time>2012-03-04T10:27:10Z</time>
      </trkpt>
      <trkpt lat="46.16981" lon="3.03451">
        <ele>418.79</ele>
        <time>2012-03-04T10:27:25Z</time>
      </trkpt>
      <trkpt lat="46.16986" lon="3.03425">
        <ele>419.27</ele>
        <time>2012-03-04T10:27:38Z</time>
      </trkpt>
      <trkpt lat="46.1699" lon="3.03398">
        <ele>419.75</ele>
        <time>2012-03-04T10:27:51Z</time>
      </trkpt>
      <trkpt lat="46.16996" lon="3.03378">
        <ele>420.23</ele>
        <time>2012-03-04T10:28:07Z</time>
      </trkpt>
      <trkpt lat="46.17005" lon="3.03357">
        <ele>420.71</ele>
        <time>2012-03-04T10:28:22Z</time>
      </trkpt>
      <trkpt lat="46.1702" lon="3.03326">
        <ele>421.19</ele>
        <time>2012-03-04T10:28:37Z</time>
      </trkpt>
      <trkpt lat="46.17033" lon="3.0331">
        <ele>420.71</ele>
        <time>2012-03-04T10:29:14Z</time>
      </trkpt>
      <trkpt lat="46.17036" lon="3.03292">
        <ele>421.68</ele>
        <time>2012-03-04T10:29:28Z</time>
      </trkpt>
      <trkpt lat="46.17039" lon="3.03249">
        <ele>422.16</ele>
        <time>2012-03-04T10:29:42Z</time>
      </trkpt>
      <trkpt lat="46.17041" lon="3.03228">
        <ele>423.12</ele>
        <time>2012-03-04T10:29:56Z</time>
      </trkpt>
      <trkpt lat="46.1705" lon="3.032">
        <ele>423.12</ele>
        <time>2012-03-04T10:30:11Z</time>
      </trkpt>
      <trkpt lat="46.17053" lon="3.03176">
        <ele>422.16</ele>
        <time>2012-03-04T10:30:31Z</time>
      </trkpt>
      <trkpt lat="46.17056" lon="3.03149">
        <ele>420.71</ele>
        <time>2012-03-04T10:30:43Z</time>
      </trkpt>
      <trkpt lat="46.17058" lon="3.03122">
        <ele>419.75</ele>
        <time>2012-03-04T10:30:57Z</time>
      </trkpt>
      <trkpt lat="46.17063" lon="3.03104">
        <ele>419.75</ele>
        <time>2012-03-04T10:31:08Z</time>
      </trkpt>
      <trkpt lat="46.17067" lon="3.03085">
        <ele>420.23</ele>
        <time>2012-03-04T10:31:20Z</time>
      </trkpt>
      <trkpt lat="46.17075" lon="3.03066">
        <ele>420.71</ele>
        <time>2012-03-04T10:31:33Z</time>
      </trkpt>
      <trkpt lat="46.17083" lon="3.03043">
        <ele>421.19</ele>
        <time>2012-03-04T10:31:49Z</time>
      </trkpt>
      <trkpt lat="46.17094" lon="3.03015">
        <ele>421.68</ele>
        <time>2012-03-04T10:32:06Z</time>
      </trkpt>
      <trkpt lat="46.17106" lon="3.0299">
        <ele>422.16</ele>
        <time>2012-03-04T10:32:32Z</time>
      </trkpt>
      <trkpt lat="46.17112" lon="3.02948">
        <ele>422.16</ele>
        <time>2012-03-04T10:32:48Z</time>
      </trkpt>
      <trkpt lat="46.17121" lon="3.02914">
        <ele>424.08</ele>
        <time>2012-03-04T10:33:08Z</time>
      </trkpt>
      <trkpt lat="46.17126" lon="3.02896">
        <ele>424.08</ele>
        <time>2012-03-04T10:33:19Z</time>
      </trkpt>
      <trkpt lat="46.17129" lon="3.02877">
        <ele>424.56</ele>
        <time>2012-03-04T10:33:32Z</time>
      </trkpt>
      <trkpt lat="46.17129" lon="3.02857">
        <ele>425.04</ele>
        <time>2012-03-04T10:33:47Z</time>
      </trkpt>
      <trkpt lat="46.17131" lon="3.02834">
        <ele>426.48</ele>
        <time>2012-03-04T10:34:03Z</time>
      </trkpt>
      <trkpt lat="46.17135" lon="3.02809">
        <ele>427.44</ele>
        <time>2012-03-04T10:34:18Z</time>
      </trkpt>
      <trkpt lat="46.17132" lon="3.02782">
        <ele>426.48</ele>
        <time>2012-03-04T10:34:30Z</time>
      </trkpt>
      <trkpt lat="46.17119" lon="3.02756">
        <ele>426.96</ele>
        <time>2012-03-04T10:34:41Z</time>
      </trkpt>
      <trkpt lat="46.1712" lon="3.0272">
        <ele>427.44</ele>
        <time>2012-03-04T10:35:15Z</time>
      </trkpt>
      <trkpt lat="46.1712" lon="3.02704">
        <ele>427.44</ele>
        <time>2012-03-04T10:35:37Z</time>
      </trkpt>
      <trkpt lat="46.17121" lon="3.02682">
        <ele>427.92</ele>
        <time>2012-03-04T10:35:46Z</time>
      </trkpt>
      <trkpt lat="46.1712" lon="3.02658">
        <ele>428.4</ele>
        <time>2012-03-04T10:35:59Z</time>
      </trkpt>
      <trkpt lat="46.17126" lon="3.02645">
        <ele>429.37</ele>
        <time>2012-03-04T10:36:12Z</time>
      </trkpt>
      <trkpt lat="46.17131" lon="3.02626">
        <ele>430.33</ele>
        <time>2012-03-04T10:36:25Z</time>
      </trkpt>
      <trkpt lat="46.17138" lon="3.02603">
        <ele>429.85</ele>
        <time>2012-03-04T10:36:34Z</time>
      </trkpt>
      <trkpt lat="46.17145" lon="3.0258">
        <ele>430.33</ele>
        <time>2012-03-04T10:36:49Z</time>
      </trkpt>
      <trkpt lat="46.17151" lon="3.0256">
        <ele>430.81</ele>
        <time>2012-03-04T10:37:02Z</time>
      </trkpt>
      <trkpt lat="46.1716" lon="3.02519">
        <ele>430.81</ele>
        <time>2012-03-04T10:37:14Z</time>
      </trkpt>
      <trkpt lat="46.17163" lon="3.02505">
        <ele>431.29</ele>
        <time>2012-03-04T10:37:21Z</time>
      </trkpt>
      <trkpt lat="46.17169" lon="3.0249">
        <ele>431.77</ele>
        <time>2012-03-04T10:37:33Z</time>
      </trkpt>
      <trkpt lat="46.17173" lon="3.02479">
        <ele>432.73</ele>
        <time>2012-03-04T10:37:47Z</time>
      </trkpt>
      <trkpt lat="46.17182" lon="3.02468">
        <ele>433.21</ele>
        <time>2012-03-04T10:37:56Z</time>
      </trkpt>
      <trkpt lat="46.1719" lon="3.0245">
        <ele>435.13</ele>
        <time>2012-03-04T10:38:11Z</time>
      </trkpt>
      <trkpt lat="46.17197" lon="3.02429">
        <ele>435.13</ele>
        <time>2012-03-04T10:38:26Z</time>
      </trkpt>
      <trkpt lat="46.172" lon="3.02409">
        <ele>435.13</ele>
        <time>2012-03-04T10:38:41Z</time>
      </trkpt>
      <trkpt lat="46.17213" lon="3.02366">
        <ele>435.61</ele>
        <time>2012-03-04T10:38:52Z</time>
      </trkpt>
      <trkpt lat="46.17235" lon="3.02342">
        <ele>436.1</ele>
        <time>2012-03-04T10:39:17Z</time>
      </trkpt>
      <trkpt lat="46.1725" lon="3.0233">
        <ele>436.1</ele>
        <time>2012-03-04T10:39:44Z</time>
      </trkpt>
      <trkpt lat="46.17254" lon="3.02325">
        <ele>435.61</ele>
        <time>2012-03-04T10:40:24Z</time>
      </trkpt>
      <trkpt lat="46.17264" lon="3.02314">
        <ele>437.06</ele>
        <time>2012-03-04T10:40:40Z</time>
      </trkpt>
      <trkpt lat="46.17274" lon="3.02304">
        <ele>437.54</ele>
        <time>2012-03-04T10:40:52Z</time>
      </trkpt>
      <trkpt lat="46.17287" lon="3.02286">
        <ele>439.94</ele>
        <time>2012-03-04T10:41:06Z</time>
      </trkpt>
      <trkpt lat="46.17296" lon="3.0227">
        <ele>440.42</ele>
        <time>2012-03-04T10:41:15Z</time>
      </trkpt>
      <trkpt lat="46.17308" lon="3.02254">
        <ele>439.46</ele>
        <time>2012-03-04T10:41:46Z</time>
      </trkpt>
      <trkpt lat="46.1731" lon="3.02239">
        <ele>438.98</ele>
        <time>2012-03-04T10:42:06Z</time>
      </trkpt>
      <trkpt lat="46.17315" lon="3.02219">
        <ele>439.94</ele>
        <time>2012-03-04T10:42:34Z</time>
      </trkpt>
      <trkpt lat="46.17326" lon="3.02193">
        <ele>440.9</ele>
        <time>2012-03-04T10:43:01Z</time>
      </trkpt>
      <trkpt lat="46.17327" lon="3.02172">
        <ele>440.9</ele>
        <time>2012-03-04T10:43:14Z</time>
      </trkpt>
      <trkpt lat="46.17335" lon="3.02147">
        <ele>441.38</ele>
        <time>2012-03-04T10:43:22Z</time>
      </trkpt>
      <trkpt lat="46.17337" lon="3.02129">
        <ele>441.86</ele>
        <time>2012-03-04T10:43:31Z</time>
      </trkpt>
      <trkpt lat="46.17337" lon="3.02112">
        <ele>442.82</ele>
        <time>2012-03-04T10:43:42Z</time>
      </trkpt>
      <trkpt lat="46.17337" lon="3.02094">
        <ele>444.27</ele>
        <time>2012-03-04T10:43:55Z</time>
      </trkpt>
      <trkpt lat="46.17341" lon="3.02072">
        <ele>444.27</ele>
        <time>2012-03-04T10:44:08Z</time>
      </trkpt>
      <trkpt lat="46.17344" lon="3.02055">
        <ele>446.67</ele>
        <time>2012-03-04T10:44:27Z</time>
      </trkpt>
      <trkpt lat="46.17349" lon="3.0202">
        <ele>448.59</ele>
        <time>2012-03-04T10:45:10Z</time>
      </trkpt>
      <trkpt lat="46.17362" lon="3.02006">
        <ele>446.19</ele>
        <time>2012-03-04T10:45:28Z</time>
      </trkpt>
      <trkpt lat="46.1738" lon="3.01998">
        <ele>446.19</ele>
        <time>2012-03-04T10:46:11Z</time>
      </trkpt>
      <trkpt lat="46.17395" lon="3.01977">
        <ele>447.15</ele>
        <time>2012-03-04T10:46:27Z</time>
      </trkpt>
      <trkpt lat="46.17411" lon="3.01962">
        <ele>447.15</ele>
        <time>2012-03-04T10:46:38Z</time>
      </trkpt>
      <trkpt lat="46.1743" lon="3.01935">
        <ele>449.55</ele>
        <time>2012-03-04T10:46:54Z</time>
      </trkpt>
      <trkpt lat="46.17432" lon="3.0192">
        <ele>448.59</ele>
        <time>2012-03-04T10:47:14Z</time>
      </trkpt>
      <trkpt lat="46.1744" lon="3.01903">
        <ele>450.52</ele>
        <time>2012-03-04T10:47:30Z</time>
      </trkpt>
      <trkpt lat="46.17459" lon="3.01883">
        <ele>455.8</ele>
        <time>2012-03-04T10:47:55Z</time>
      </trkpt>
      <trkpt lat="46.1748" lon="3.01876">
        <ele>461.09</ele>
        <time>2012-03-04T10:48:21Z</time>
      </trkpt>
      <trkpt lat="46.17503" lon="3.01869">
        <ele>466.38</ele>
        <time>2012-03-04T10:48:47Z</time>
      </trkpt>
      <trkpt lat="46.17525" lon="3.01864">
        <ele>473.11</ele>
        <time>2012-03-04T10:49:25Z</time>
      </trkpt>
      <trkpt lat="46.17544" lon="3.01854">
        <ele>478.39</ele>
        <time>2012-03-04T10:49:59Z</time>
      </trkpt>
      <trkpt lat="46.1756" lon="3.01831">
        <ele>482.72</ele>
        <time>2012-03-04T10:50:22Z</time>
      </trkpt>
      <trkpt lat="46.17582" lon="3.01811">
        <ele>486.56</ele>
        <time>2012-03-04T10:50:43Z</time>
      </trkpt>
      <trkpt lat="46.176" lon="3.01794">
        <ele>491.37</ele>
        <time>2012-03-04T10:51:04Z</time>
      </trkpt>
      <trkpt lat="46.17616" lon="3.01788">
        <ele>495.22</ele>
        <time>2012-03-04T10:51:23Z</time>
      </trkpt>
      <trkpt lat="46.17631" lon="3.01777">
        <ele>498.58</ele>
        <time>2012-03-04T10:51:46Z</time>
      </trkpt>
      <trkpt lat="46.17657" lon="3.01772">
        <ele>501.46</ele>
        <time>2012-03-04T10:52:09Z</time>
      </trkpt>
      <trkpt lat="46.17677" lon="3.01778">
        <ele>504.83</ele>
        <time>2012-03-04T10:52:39Z</time>
      </trkpt>
      <trkpt lat="46.17697" lon="3.01777">
        <ele>505.79</ele>
        <time>2012-03-04T10:53:07Z</time>
      </trkpt>
      <trkpt lat="46.17704" lon="3.01781">
        <ele>505.31</ele>
        <time>2012-03-04T10:54:00Z</time>
      </trkpt>
      <trkpt lat="46.17716" lon="3.01784">
        <ele>507.71</ele>
        <time>2012-03-04T10:54:27Z</time>
      </trkpt>
      <trkpt lat="46.1775" lon="3.01784">
        <ele>509.64</ele>
        <time>2012-03-04T10:54:56Z</time>
      </trkpt>
      <trkpt lat="46.17768" lon="3.01768">
        <ele>509.64</ele>
        <time>2012-03-04T10:55:13Z</time>
      </trkpt>
      <trkpt lat="46.17785" lon="3.01751">
        <ele>510.6</ele>
        <time>2012-03-04T10:55:30Z</time>
      </trkpt>
      <trkpt lat="46.17816" lon="3.01725">
        <ele>512.52</ele>
        <time>2012-03-04T10:55:50Z</time>
      </trkpt>
      <trkpt lat="46.17831" lon="3.01701">
        <ele>514.44</ele>
        <time>2012-03-04T10:56:09Z</time>
      </trkpt>
      <trkpt lat="46.17848" lon="3.01675">
        <ele>515.88</ele>
        <time>2012-03-04T10:56:30Z</time>
      </trkpt>
      <trkpt lat="46.17865" lon="3.01647">
        <ele>517.33</ele>
        <time>2012-03-04T10:56:49Z</time>
      </trkpt>
      <trkpt lat="46.1788" lon="3.0163">
        <ele>517.81</ele>
        <time>2012-03-04T10:57:08Z</time>
      </trkpt>
      <trkpt lat="46.17885" lon="3.01602">
        <ele>517.81</ele>
        <time>2012-03-04T10:57:21Z</time>
      </trkpt>
      <trkpt lat="46.17896" lon="3.01575">
        <ele>518.29</ele>
        <time>2012-03-04T10:57:38Z</time>
      </trkpt>
      <trkpt lat="46.17907" lon="3.01558">
        <ele>518.29</ele>
        <time>2012-03-04T10:57:51Z</time>
      </trkpt>
      <trkpt lat="46.17918" lon="3.01532">
        <ele>519.73</ele>
        <time>2012-03-04T10:58:08Z</time>
      </trkpt>
      <trkpt lat="46.17928" lon="3.01503">
        <ele>521.17</ele>
        <time>2012-03-04T10:58:31Z</time>
      </trkpt>
      <trkpt lat="46.17935" lon="3.01467">
        <ele>521.65</ele>
        <time>2012-03-04T10:58:51Z</time>
      </trkpt>
      <trkpt lat="46.17936" lon="3.01435">
        <ele>522.61</ele>
        <time>2012-03-04T10:59:11Z</time>
      </trkpt>
      <trkpt lat="46.17942" lon="3.01403">
        <ele>523.09</ele>
        <time>2012-03-04T10:59:30Z</time>
      </trkpt>
      <trkpt lat="46.17948" lon="3.01367">
        <ele>523.58</ele>
        <time>2012-03-04T10:59:50Z</time>
      </trkpt>
      <trkpt lat="46.17961" lon="3.01356">
        <ele>524.54</ele>
        <time>2012-03-04T11:00:23Z</time>
      </trkpt>
      <trkpt lat="46.17982" lon="3.01365">
        <ele>527.42</ele>
        <time>2012-03-04T11:00:56Z</time>
      </trkpt>
      <trkpt lat="46.18011" lon="3.01375">
        <ele>527.9</ele>
        <time>2012-03-04T11:01:16Z</time>
      </trkpt>
      <trkpt lat="46.18045" lon="3.01396">
        <ele>530.79</ele>
        <time>2012-03-04T11:01:39Z</time>
      </trkpt>
      <trkpt lat="46.1807" lon="3.01406">
        <ele>531.75</ele>
        <time>2012-03-04T11:01:58Z</time>
      </trkpt>
      <trkpt lat="46.18098" lon="3.01425">
        <ele>533.19</ele>
        <time>2012-03-04T11:02:28Z</time>
      </trkpt>
      <trkpt lat="46.18124" lon="3.01439">
        <ele>534.15</ele>
        <time>2012-03-04T11:02:45Z</time>
      </trkpt>
      <trkpt lat="46.18154" lon="3.01454">
        <ele>535.59</ele>
        <time>2012-03-04T11:03:13Z</time>
      </trkpt>
      <trkpt lat="46.18189" lon="3.01472">
        <ele>537.99</ele>
        <time>2012-03-04T11:03:45Z</time>
      </trkpt>
      <trkpt lat="46.18217" lon="3.01487">
        <ele>540.4</ele>
        <time>2012-03-04T11:04:11Z</time>
      </trkpt>
      <trkpt lat="46.18254" lon="3.01504">
        <ele>541.36</ele>
        <time>2012-03-04T11:04:30Z</time>
      </trkpt>
      <trkpt lat="46.18279" lon="3.01518">
        <ele>542.8</ele>
        <time>2012-03-04T11:04:57Z</time>
      </trkpt>
      <trkpt lat="46.18295" lon="3.01525">
        <ele>543.76</ele>
        <time>2012-03-04T11:05:10Z</time>
      </trkpt>
      <trkpt lat="46.18323" lon="3.01537">
        <ele>544.24</ele>
        <time>2012-03-04T11:05:29Z</time>
      </trkpt>
      <trkpt lat="46.18345" lon="3.01548">
        <ele>544.24</ele>
        <time>2012-03-04T11:05:40Z</time>
      </trkpt>
      <trkpt lat="46.18358" lon="3.01557">
        <ele>545.2</ele>
        <time>2012-03-04T11:05:53Z</time>
      </trkpt>
      <trkpt lat="46.18386" lon="3.01571">
        <ele>544.72</ele>
        <time>2012-03-04T11:06:11Z</time>
      </trkpt>
      <trkpt lat="46.1841" lon="3.01582">
        <ele>544.72</ele>
        <time>2012-03-04T11:06:31Z</time>
      </trkpt>
      <trkpt lat="46.18434" lon="3.01594">
        <ele>544.24</ele>
        <time>2012-03-04T11:06:51Z</time>
      </trkpt>
      <trkpt lat="46.18453" lon="3.01603">
        <ele>542.8</ele>
        <time>2012-03-04T11:07:12Z</time>
      </trkpt>
      <trkpt lat="46.1847" lon="3.01613">
        <ele>542.32</ele>
        <time>2012-03-04T11:07:28Z</time>
      </trkpt>
      <trkpt lat="46.18503" lon="3.01636">
        <ele>540.88</ele>
        <time>2012-03-04T11:07:47Z</time>
      </trkpt>
      <trkpt lat="46.18513" lon="3.01651">
        <ele>539.92</ele>
        <time>2012-03-04T11:07:59Z</time>
      </trkpt>
      <trkpt lat="46.18527" lon="3.01664">
        <ele>538.48</ele>
        <time>2012-03-04T11:08:10Z</time>
      </trkpt>
      <trkpt lat="46.18536" lon="3.01678">
        <ele>537.99</ele>
        <time>2012-03-04T11:08:19Z</time>
      </trkpt>
      <trkpt lat="46.18543" lon="3.01694">
        <ele>537.03</ele>
        <time>2012-03-04T11:08:31Z</time>
      </trkpt>
      <trkpt lat="46.18549" lon="3.01713">
        <ele>536.07</ele>
        <time>2012-03-04T11:08:48Z</time>
      </trkpt>
      <trkpt lat="46.1856" lon="3.01724">
        <ele>534.63</ele>
        <time>2012-03-04T11:09:04Z</time>
      </trkpt>
      <trkpt lat="46.18588" lon="3.01718">
        <ele>532.71</ele>
        <time>2012-03-04T11:09:21Z</time>
      </trkpt>
      <trkpt lat="46.18608" lon="3.01726">
        <ele>529.34</ele>
        <time>2012-03-04T11:09:43Z</time>
      </trkpt>
      <trkpt lat="46.18612" lon="3.01741">
        <ele>528.86</ele>
        <time>2012-03-04T11:09:53Z</time>
      </trkpt>
      <trkpt lat="46.18618" lon="3.01757">
        <ele>528.38</ele>
        <time>2012-03-04T11:10:01Z</time>
      </trkpt>
      <trkpt lat="46.1863" lon="3.01773">
        <ele>528.86</ele>
        <time>2012-03-04T11:10:13Z</time>
      </trkpt>
      <trkpt lat="46.18636" lon="3.01792">
        <ele>528.86</ele>
        <time>2012-03-04T11:10:28Z</time>
      </trkpt>
      <trkpt lat="46.18636" lon="3.01829">
        <ele>530.3</ele>
        <time>2012-03-04T11:10:41Z</time>
      </trkpt>
      <trkpt lat="46.18641" lon="3.01852">
        <ele>531.75</ele>
        <time>2012-03-04T11:11:02Z</time>
      </trkpt>
      <trkpt lat="46.1864" lon="3.01869">
        <ele>533.19</ele>
        <time>2012-03-04T11:11:27Z</time>
      </trkpt>
      <trkpt lat="46.18642" lon="3.01888">
        <ele>535.59</ele>
        <time>2012-03-04T11:13:57Z</time>
      </trkpt>
      <trkpt lat="46.1864" lon="3.01893">
        <ele>537.03</ele>
        <time>2012-03-04T11:16:34Z</time>
      </trkpt>
      <trkpt lat="46.18643" lon="3.01891">
        <ele>537.99</ele>
        <time>2012-03-04T11:19:02Z</time>
      </trkpt>
      <trkpt lat="46.18644" lon="3.01895">
        <ele>539.44</ele>
        <time>2012-03-04T11:20:17Z</time>
      </trkpt>
      <trkpt lat="46.18645" lon="3.01894">
        <ele>539.92</ele>
        <time>2012-03-04T11:21:00Z</time>
      </trkpt>
      <trkpt lat="46.1865" lon="3.01888">
        <ele>539.92</ele>
        <time>2012-03-04T11:22:10Z</time>
      </trkpt>
      <trkpt lat="46.18655" lon="3.01891">
        <ele>540.88</ele>
        <time>2012-03-04T11:24:07Z</time>
      </trkpt>
      <trkpt lat="46.18652" lon="3.01887">
        <ele>540.88</ele>
        <time>2012-03-04T11:25:02Z</time>
      </trkpt>
      <trkpt lat="46.18652" lon="3.01887">
        <ele>541.36</ele>
        <time>2012-03-04T11:25:34Z</time>
      </trkpt>
      <trkpt lat="46.18664" lon="3.01893">
        <ele>541.84</ele>
        <time>2012-03-04T11:26:53Z</time>
      </trkpt>
      <trkpt lat="46.18667" lon="3.01889">
        <ele>542.32</ele>
        <time>2012-03-04T11:27:28Z</time>
      </trkpt>
      <trkpt lat="46.18675" lon="3.01884">
        <ele>542.32</ele>
        <time>2012-03-04T11:27:36Z</time>
      </trkpt>
      <trkpt lat="46.18663" lon="3.01891">
        <ele>542.8</ele>
        <time>2012-03-04T11:28:38Z</time>
      </trkpt>
      <trkpt lat="46.18666" lon="3.01903">
        <ele>543.28</ele>
        <time>2012-03-04T11:29:19Z</time>
      </trkpt>
      <trkpt lat="46.18659" lon="3.01898">
        <ele>543.76</ele>
        <time>2012-03-04T11:30:17Z</time>
      </trkpt>
      <trkpt lat="46.18655" lon="3.01887">
        <ele>544.24</ele>
        <time>2012-03-04T11:30:43Z</time>
      </trkpt>
      <trkpt lat="46.18666" lon="3.01888">
        <ele>544.24</ele>
        <time>2012-03-04T11:30:53Z</time>
      </trkpt>
      <trkpt lat="46.18676" lon="3.01892">
        <ele>544.24</ele>
        <time>2012-03-04T11:31:03Z</time>
      </trkpt>
      <trkpt lat="46.18688" lon="3.019">
        <ele>544.72</ele>
        <time>2012-03-04T11:31:19Z</time>
      </trkpt>
      <trkpt lat="46.18683" lon="3.01899">
        <ele>545.2</ele>
        <time>2012-03-04T11:31:52Z</time>
      </trkpt>
      <trkpt lat="46.18661" lon="3.0189">
        <ele>545.69</ele>
        <time>2012-03-04T11:33:41Z</time>
      </trkpt>
      <trkpt lat="46.18656" lon="3.01884">
        <ele>546.17</ele>
        <time>2012-03-04T11:34:55Z</time>
      </trkpt>
      <trkpt lat="46.18647" lon="3.01881">
        <ele>546.17</ele>
        <time>2012-03-04T11:35:06Z</time>
      </trkpt>
      <trkpt lat="46.18665" lon="3.0189">
        <ele>546.65</ele>
        <time>2012-03-04T11:36:03Z</time>
      </trkpt>
      <trkpt lat="46.18673" lon="3.01885">
        <ele>546.65</ele>
        <time>2012-03-04T11:36:21Z</time>
      </trkpt>
      <trkpt lat="46.18683" lon="3.01877">
        <ele>547.13</ele>
        <time>2012-03-04T11:36:35Z</time>
      </trkpt>
      <trkpt lat="46.18683" lon="3.01888">
        <ele>547.13</ele>
        <time>2012-03-04T11:36:50Z</time>
      </trkpt>
      <trkpt lat="46.18668" lon="3.01894">
        <ele>547.13</ele>
        <time>2012-03-04T11:37:17Z</time>
      </trkpt>
      <trkpt lat="46.18647" lon="3.01884">
        <ele>551.45</ele>
        <time>2012-03-04T11:43:51Z</time>
      </trkpt>
      <trkpt lat="46.18647" lon="3.01884">
        <ele>552.9</ele>
        <time>2012-03-04T11:45:35Z</time>
      </trkpt>
      <trkpt lat="46.18643" lon="3.01889">
        <ele>554.82</ele>
        <time>2012-03-04T11:48:10Z</time>
      </trkpt>
      <trkpt lat="46.18646" lon="3.01892">
        <ele>555.78</ele>
        <time>2012-03-04T11:51:08Z</time>
      </trkpt>
      <trkpt lat="46.18646" lon="3.01893">
        <ele>556.26</ele>
        <time>2012-03-04T11:56:06Z</time>
      </trkpt>
      <trkpt lat="46.18647" lon="3.01895">
        <ele>556.74</ele>
        <time>2012-03-04T11:57:42Z</time>
      </trkpt>
      <trkpt lat="46.18651" lon="3.01905">
        <ele>557.7</ele>
        <time>2012-03-04T11:59:24Z</time>
      </trkpt>
      <trkpt lat="46.18651" lon="3.01898">
        <ele>558.18</ele>
        <time>2012-03-04T12:01:51Z</time>
      </trkpt>
      <trkpt lat="46.18647" lon="3.019">
        <ele>560.11</ele>
        <time>2012-03-04T12:07:04Z</time>
      </trkpt>
      <trkpt lat="46.18644" lon="3.01892">
        <ele>561.07</ele>
        <time>2012-03-04T12:10:23Z</time>
      </trkpt>
      <trkpt lat="46.18657" lon="3.01908">
        <ele>561.55</ele>
        <time>2012-03-04T12:11:21Z</time>
      </trkpt>
      <trkpt lat="46.18673" lon="3.01898">
        <ele>562.51</ele>
        <time>2012-03-04T12:11:38Z</time>
      </trkpt>
      <trkpt lat="46.18677" lon="3.01877">
        <ele>562.99</ele>
        <time>2012-03-04T12:11:54Z</time>
      </trkpt>
      <trkpt lat="46.18684" lon="3.01868">
        <ele>562.99</ele>
        <time>2012-03-04T12:12:06Z</time>
      </trkpt>
      <trkpt lat="46.18689" lon="3.0185">
        <ele>563.47</ele>
        <time>2012-03-04T12:12:27Z</time>
      </trkpt>
      <trkpt lat="46.18694" lon="3.01832">
        <ele>563.47</ele>
        <time>2012-03-04T12:12:39Z</time>
      </trkpt>
      <trkpt lat="46.18698" lon="3.01817">
        <ele>563.95</ele>
        <time>2012-03-04T12:12:52Z</time>
      </trkpt>
      <trkpt lat="46.18704" lon="3.01802">
        <ele>564.91</ele>
        <time>2012-03-04T12:13:06Z</time>
      </trkpt>
      <trkpt lat="46.18702" lon="3.01781">
        <ele>565.39</ele>
        <time>2012-03-04T12:13:21Z</time>
      </trkpt>
      <trkpt lat="46.18714" lon="3.01756">
        <ele>565.87</ele>
        <time>2012-03-04T12:13:39Z</time>
      </trkpt>
      <trkpt lat="46.18716" lon="3.0174">
        <ele>569.72</ele>
        <time>2012-03-04T12:13:55Z</time>
      </trkpt>
      <trkpt lat="46.18726" lon="3.01723">
        <ele>566.35</ele>
        <time>2012-03-04T12:14:09Z</time>
      </trkpt>
      <trkpt lat="46.18723" lon="3.01704">
        <ele>566.83</ele>
        <time>2012-03-04T12:14:28Z</time>
      </trkpt>
      <trkpt lat="46.18731" lon="3.0168">
        <ele>565.39</ele>
        <time>2012-03-04T12:14:54Z</time>
      </trkpt>
      <trkpt lat="46.18734" lon="3.01665">
        <ele>564.91</ele>
        <time>2012-03-04T12:15:09Z</time>
      </trkpt>
      <trkpt lat="46.1874" lon="3.0164">
        <ele>565.87</ele>
        <time>2012-03-04T12:15:25Z</time>
      </trkpt>
      <trkpt lat="46.18745" lon="3.01624">
        <ele>566.35</ele>
        <time>2012-03-04T12:15:36Z</time>
      </trkpt>
      <trkpt lat="46.18746" lon="3.01595">
        <ele>566.83</ele>
        <time>2012-03-04T12:15:52Z</time>
      </trkpt>
      <trkpt lat="46.18738" lon="3.0156">
        <ele>566.83</ele>
        <time>2012-03-04T12:16:14Z</time>
      </trkpt>
      <trkpt lat="46.18738" lon="3.01521">
        <ele>567.8</ele>
        <time>2012-03-04T12:16:40Z</time>
      </trkpt>
      <trkpt lat="46.18735" lon="3.01481">
        <ele>569.72</ele>
        <time>2012-03-04T12:17:05Z</time>
      </trkpt>
      <trkpt lat="46.18732" lon="3.01454">
        <ele>570.68</ele>
        <time>2012-03-04T12:17:20Z</time>
      </trkpt>
      <trkpt lat="46.1873" lon="3.0143">
        <ele>571.64</ele>
        <time>2012-03-04T12:17:35Z</time>
      </trkpt>
      <trkpt lat="46.1873" lon="3.01408">
        <ele>573.08</ele>
        <time>2012-03-04T12:17:54Z</time>
      </trkpt>
      <trkpt lat="46.18721" lon="3.01381">
        <ele>574.04</ele>
        <time>2012-03-04T12:18:10Z</time>
      </trkpt>
      <trkpt lat="46.18716" lon="3.01362">
        <ele>575.01</ele>
        <time>2012-03-04T12:18:24Z</time>
      </trkpt>
      <trkpt lat="46.18711" lon="3.01342">
        <ele>576.45</ele>
        <time>2012-03-04T12:18:41Z</time>
      </trkpt>
      <trkpt lat="46.18706" lon="3.01317">
        <ele>576.93</ele>
        <time>2012-03-04T12:19:03Z</time>
      </trkpt>
      <trkpt lat="46.18708" lon="3.01274">
        <ele>577.89</ele>
        <time>2012-03-04T12:19:30Z</time>
      </trkpt>
      <trkpt lat="46.18707" lon="3.01236">
        <ele>577.89</ele>
        <time>2012-03-04T12:19:57Z</time>
      </trkpt>
      <trkpt lat="46.18716" lon="3.012">
        <ele>578.85</ele>
        <time>2012-03-04T12:20:24Z</time>
      </trkpt>
      <trkpt lat="46.18711" lon="3.01181">
        <ele>579.81</ele>
        <time>2012-03-04T12:20:39Z</time>
      </trkpt>
      <trkpt lat="46.18719" lon="3.01151">
        <ele>579.81</ele>
        <time>2012-03-04T12:20:57Z</time>
      </trkpt>
      <trkpt lat="46.18719" lon="3.01119">
        <ele>580.29</ele>
        <time>2012-03-04T12:21:20Z</time>
      </trkpt>
      <trkpt lat="46.18719" lon="3.01091">
        <ele>581.25</ele>
        <time>2012-03-04T12:21:40Z</time>
      </trkpt>
      <trkpt lat="46.18724" lon="3.01072">
        <ele>581.73</ele>
        <time>2012-03-04T12:21:57Z</time>
      </trkpt>
      <trkpt lat="46.18732" lon="3.01022">
        <ele>581.73</ele>
        <time>2012-03-04T12:22:27Z</time>
      </trkpt>
      <trkpt lat="46.18731" lon="3.00994">
        <ele>582.22</ele>
        <time>2012-03-04T12:22:45Z</time>
      </trkpt>
      <trkpt lat="46.18732" lon="3.00959">
        <ele>582.22</ele>
        <time>2012-03-04T12:23:06Z</time>
      </trkpt>
      <trkpt lat="46.18733" lon="3.00932">
        <ele>582.22</ele>
        <time>2012-03-04T12:23:25Z</time>
      </trkpt>
      <trkpt lat="46.18735" lon="3.00914">
        <ele>582.7</ele>
        <time>2012-03-04T12:23:51Z</time>
      </trkpt>
      <trkpt lat="46.18734" lon="3.00854">
        <ele>582.22</ele>
        <time>2012-03-04T12:24:15Z</time>
      </trkpt>
      <trkpt lat="46.18736" lon="3.00831">
        <ele>581.73</ele>
        <time>2012-03-04T12:24:32Z</time>
      </trkpt>
      <trkpt lat="46.18742" lon="3.00802">
        <ele>581.73</ele>
        <time>2012-03-04T12:25:05Z</time>
      </trkpt>
      <trkpt lat="46.18752" lon="3.00784">
        <ele>582.22</ele>
        <time>2012-03-04T12:25:19Z</time>
      </trkpt>
      <trkpt lat="46.18754" lon="3.0076">
        <ele>581.73</ele>
        <time>2012-03-04T12:25:33Z</time>
      </trkpt>
      <trkpt lat="46.18763" lon="3.00732">
        <ele>582.22</ele>
        <time>2012-03-04T12:25:53Z</time>
      </trkpt>
      <trkpt lat="46.18773" lon="3.00706">
        <ele>581.73</ele>
        <time>2012-03-04T12:26:11Z</time>
      </trkpt>
      <trkpt lat="46.18779" lon="3.00681">
        <ele>581.25</ele>
        <time>2012-03-04T12:26:31Z</time>
      </trkpt>
      <trkpt lat="46.18781" lon="3.00659">
        <ele>580.29</ele>
        <time>2012-03-04T12:26:46Z</time>
      </trkpt>
      <trkpt lat="46.18792" lon="3.00641">
        <ele>579.81</ele>
        <time>2012-03-04T12:27:02Z</time>
      </trkpt>
      <trkpt lat="46.18802" lon="3.00625">
        <ele>579.33</ele>
        <time>2012-03-04T12:27:15Z</time>
      </trkpt>
      <trkpt lat="46.1881" lon="3.00605">
        <ele>577.89</ele>
        <time>2012-03-04T12:27:35Z</time>
      </trkpt>
      <trkpt lat="46.18825" lon="3.00601">
        <ele>576.93</ele>
        <time>2012-03-04T12:27:51Z</time>
      </trkpt>
      <trkpt lat="46.18837" lon="3.00607">
        <ele>577.89</ele>
        <time>2012-03-04T12:28:03Z</time>
      </trkpt>
      <trkpt lat="46.18856" lon="3.00612">
        <ele>579.81</ele>
        <time>2012-03-04T12:28:20Z</time>
      </trkpt>
      <trkpt lat="46.18869" lon="3.0062">
        <ele>581.25</ele>
        <time>2012-03-04T12:28:35Z</time>
      </trkpt>
      <trkpt lat="46.1888" lon="3.00627">
        <ele>582.7</ele>
        <time>2012-03-04T12:28:47Z</time>
      </trkpt>
      <trkpt lat="46.18892" lon="3.00632">
        <ele>583.66</ele>
        <time>2012-03-04T12:28:59Z</time>
      </trkpt>
      <trkpt lat="46.18906" lon="3.00638">
        <ele>584.62</ele>
        <time>2012-03-04T12:29:14Z</time>
      </trkpt>
      <trkpt lat="46.18918" lon="3.00641">
        <ele>585.58</ele>
        <time>2012-03-04T12:29:26Z</time>
      </trkpt>
      <trkpt lat="46.18929" lon="3.00645">
        <ele>586.54</ele>
        <time>2012-03-04T12:29:37Z</time>
      </trkpt>
      <trkpt lat="46.18943" lon="3.00654">
        <ele>587.98</ele>
        <time>2012-03-04T12:29:54Z</time>
      </trkpt>
      <trkpt lat="46.18965" lon="3.00665">
        <ele>588.95</ele>
        <time>2012-03-04T12:30:11Z</time>
      </trkpt>
      <trkpt lat="46.18981" lon="3.00673">
        <ele>590.39</ele>
        <time>2012-03-04T12:30:27Z</time>
      </trkpt>
      <trkpt lat="46.18998" lon="3.00679">
        <ele>591.35</ele>
        <time>2012-03-04T12:30:46Z</time>
      </trkpt>
      <trkpt lat="46.19021" lon="3.00693">
        <ele>592.31</ele>
        <time>2012-03-04T12:31:09Z</time>
      </trkpt>
      <trkpt lat="46.19042" lon="3.00702">
        <ele>593.75</ele>
        <time>2012-03-04T12:31:35Z</time>
      </trkpt>
      <trkpt lat="46.19071" lon="3.00715">
        <ele>594.23</ele>
        <time>2012-03-04T12:31:58Z</time>
      </trkpt>
      <trkpt lat="46.19083" lon="3.00728">
        <ele>594.71</ele>
        <time>2012-03-04T12:32:13Z</time>
      </trkpt>
      <trkpt lat="46.19093" lon="3.0074">
        <ele>593.27</ele>
        <time>2012-03-04T12:32:28Z</time>
      </trkpt>
      <trkpt lat="46.19098" lon="3.0076">
        <ele>592.79</ele>
        <time>2012-03-04T12:32:51Z</time>
      </trkpt>
      <trkpt lat="46.19105" lon="3.00779">
        <ele>591.83</ele>
        <time>2012-03-04T12:33:16Z</time>
      </trkpt>
      <trkpt lat="46.19114" lon="3.00769">
        <ele>592.31</ele>
        <time>2012-03-04T12:33:31Z</time>
      </trkpt>
      <trkpt lat="46.1912" lon="3.00753">
        <ele>593.27</ele>
        <time>2012-03-04T12:33:49Z</time>
      </trkpt>
      <trkpt lat="46.19145" lon="3.0075">
        <ele>592.79</ele>
        <time>2012-03-04T12:34:05Z</time>
      </trkpt>
      <trkpt lat="46.19162" lon="3.0076">
        <ele>591.83</ele>
        <time>2012-03-04T12:34:21Z</time>
      </trkpt>
      <trkpt lat="46.1918" lon="3.0077">
        <ele>590.87</ele>
        <time>2012-03-04T12:34:45Z</time>
      </trkpt>
      <trkpt lat="46.19204" lon="3.00781">
        <ele>590.87</ele>
        <time>2012-03-04T12:35:06Z</time>
      </trkpt>
      <trkpt lat="46.19222" lon="3.0079">
        <ele>588.95</ele>
        <time>2012-03-04T12:35:30Z</time>
      </trkpt>
      <trkpt lat="46.19233" lon="3.00794">
        <ele>587.5</ele>
        <time>2012-03-04T12:35:39Z</time>
      </trkpt>
      <trkpt lat="46.19247" lon="3.00797">
        <ele>586.54</ele>
        <time>2012-03-04T12:35:45Z</time>
      </trkpt>
      <trkpt lat="46.19262" lon="3.00804">
        <ele>586.06</ele>
        <time>2012-03-04T12:36:07Z</time>
      </trkpt>
      <trkpt lat="46.19282" lon="3.00813">
        <ele>586.54</ele>
        <time>2012-03-04T12:36:28Z</time>
      </trkpt>
      <trkpt lat="46.19302" lon="3.00824">
        <ele>587.02</ele>
        <time>2012-03-04T12:36:43Z</time>
      </trkpt>
      <trkpt lat="46.19322" lon="3.00833">
        <ele>587.5</ele>
        <time>2012-03-04T12:37:06Z</time>
      </trkpt>
      <trkpt lat="46.19347" lon="3.00847">
        <ele>587.5</ele>
        <time>2012-03-04T12:37:28Z</time>
      </trkpt>
      <trkpt lat="46.19365" lon="3.00864">
        <ele>588.46</ele>
        <time>2012-03-04T12:38:03Z</time>
      </trkpt>
      <trkpt lat="46.1939" lon="3.00875">
        <ele>587.98</ele>
        <time>2012-03-04T12:38:21Z</time>
      </trkpt>
      <trkpt lat="46.19401" lon="3.00881">
        <ele>587.5</ele>
        <time>2012-03-04T12:38:29Z</time>
      </trkpt>
      <trkpt lat="46.19424" lon="3.00887">
        <ele>587.98</ele>
        <time>2012-03-04T12:38:41Z</time>
      </trkpt>
      <trkpt lat="46.19454" lon="3.00898">
        <ele>587.98</ele>
        <time>2012-03-04T12:39:01Z</time>
      </trkpt>
      <trkpt lat="46.19465" lon="3.0091">
        <ele>587.02</ele>
        <time>2012-03-04T12:39:25Z</time>
      </trkpt>
      <trkpt lat="46.19484" lon="3.00922">
        <ele>586.06</ele>
        <time>2012-03-04T12:39:45Z</time>
      </trkpt>
      <trkpt lat="46.19511" lon="3.00929">
        <ele>586.06</ele>
        <time>2012-03-04T12:39:57Z</time>
      </trkpt>
      <trkpt lat="46.19524" lon="3.00944">
        <ele>585.58</ele>
        <time>2012-03-04T12:40:22Z</time>
      </trkpt>
      <trkpt lat="46.19552" lon="3.00959">
        <ele>583.66</ele>
        <time>2012-03-04T12:40:50Z</time>
      </trkpt>
      <trkpt lat="46.19591" lon="3.00971">
        <ele>581.73</ele>
        <time>2012-03-04T12:41:16Z</time>
      </trkpt>
      <trkpt lat="46.1961" lon="3.00981">
        <ele>580.77</ele>
        <time>2012-03-04T12:41:37Z</time>
      </trkpt>
      <trkpt lat="46.19627" lon="3.00994">
        <ele>579.81</ele>
        <time>2012-03-04T12:41:57Z</time>
      </trkpt>
      <trkpt lat="46.1964" lon="3.00999">
        <ele>579.33</ele>
        <time>2012-03-04T12:42:09Z</time>
      </trkpt>
      <trkpt lat="46.19661" lon="3.01008">
        <ele>578.85</ele>
        <time>2012-03-04T12:42:21Z</time>
      </trkpt>
      <trkpt lat="46.19675" lon="3.0102">
        <ele>578.37</ele>
        <time>2012-03-04T12:43:00Z</time>
      </trkpt>
      <trkpt lat="46.19671" lon="3.0104">
        <ele>579.81</ele>
        <time>2012-03-04T12:44:03Z</time>
      </trkpt>
      <trkpt lat="46.19678" lon="3.01058">
        <ele>580.29</ele>
        <time>2012-03-04T12:44:26Z</time>
      </trkpt>
      <trkpt lat="46.19678" lon="3.01102">
        <ele>580.77</ele>
        <time>2012-03-04T12:45:09Z</time>
      </trkpt>
      <trkpt lat="46.1969" lon="3.0113">
        <ele>579.33</ele>
        <time>2012-03-04T12:45:24Z</time>
      </trkpt>
      <trkpt lat="46.19693" lon="3.01163">
        <ele>577.89</ele>
        <time>2012-03-04T12:45:39Z</time>
      </trkpt>
      <trkpt lat="46.19702" lon="3.01184">
        <ele>576.45</ele>
        <time>2012-03-04T12:45:57Z</time>
      </trkpt>
      <trkpt lat="46.19709" lon="3.01201">
        <ele>575.01</ele>
        <time>2012-03-04T12:46:17Z</time>
      </trkpt>
      <trkpt lat="46.19719" lon="3.0123">
        <ele>574.04</ele>
        <time>2012-03-04T12:46:37Z</time>
      </trkpt>
      <trkpt lat="46.19728" lon="3.01257">
        <ele>571.64</ele>
        <time>2012-03-04T12:47:02Z</time>
      </trkpt>
      <trkpt lat="46.19734" lon="3.01303">
        <ele>570.68</ele>
        <time>2012-03-04T12:47:21Z</time>
      </trkpt>
      <trkpt lat="46.19744" lon="3.01337">
        <ele>568.28</ele>
        <time>2012-03-04T12:47:43Z</time>
      </trkpt>
      <trkpt lat="46.1975" lon="3.01363">
        <ele>566.83</ele>
        <time>2012-03-04T12:47:58Z</time>
      </trkpt>
      <trkpt lat="46.1976" lon="3.01395">
        <ele>565.39</ele>
        <time>2012-03-04T12:48:16Z</time>
      </trkpt>
      <trkpt lat="46.19759" lon="3.01438">
        <ele>563.47</ele>
        <time>2012-03-04T12:48:34Z</time>
      </trkpt>
      <trkpt lat="46.19766" lon="3.01459">
        <ele>561.07</ele>
        <time>2012-03-04T12:48:52Z</time>
      </trkpt>
      <trkpt lat="46.19774" lon="3.01479">
        <ele>558.66</ele>
        <time>2012-03-04T12:49:13Z</time>
      </trkpt>
      <trkpt lat="46.19778" lon="3.01517">
        <ele>556.26</ele>
        <time>2012-03-04T12:49:31Z</time>
      </trkpt>
      <trkpt lat="46.19784" lon="3.01547">
        <ele>554.82</ele>
        <time>2012-03-04T12:49:47Z</time>
      </trkpt>
      <trkpt lat="46.19791" lon="3.01577">
        <ele>552.9</ele>
        <time>2012-03-04T12:50:06Z</time>
      </trkpt>
      <trkpt lat="46.19793" lon="3.01602">
        <ele>550.97</ele>
        <time>2012-03-04T12:50:19Z</time>
      </trkpt>
      <trkpt lat="46.19799" lon="3.01615">
        <ele>550.49</ele>
        <time>2012-03-04T12:50:33Z</time>
      </trkpt>
      <trkpt lat="46.19798" lon="3.0165">
        <ele>546.65</ele>
        <time>2012-03-04T12:51:05Z</time>
      </trkpt>
      <trkpt lat="46.19805" lon="3.01676">
        <ele>545.2</ele>
        <time>2012-03-04T12:51:21Z</time>
      </trkpt>
      <trkpt lat="46.19808" lon="3.017">
        <ele>543.76</ele>
        <time>2012-03-04T12:51:36Z</time>
      </trkpt>
      <trkpt lat="46.19811" lon="3.01719">
        <ele>542.32</ele>
        <time>2012-03-04T12:51:45Z</time>
      </trkpt>
      <trkpt lat="46.19815" lon="3.01754">
        <ele>541.36</ele>
        <time>2012-03-04T12:51:56Z</time>
      </trkpt>
      <trkpt lat="46.19819" lon="3.01777">
        <ele>539.92</ele>
        <time>2012-03-04T12:52:06Z</time>
      </trkpt>
      <trkpt lat="46.19822" lon="3.01796">
        <ele>538.48</ele>
        <time>2012-03-04T12:52:18Z</time>
      </trkpt>
      <trkpt lat="46.19824" lon="3.01828">
        <ele>535.59</ele>
        <time>2012-03-04T12:52:36Z</time>
      </trkpt>
      <trkpt lat="46.19833" lon="3.01858">
        <ele>530.79</ele>
        <time>2012-03-04T12:53:09Z</time>
      </trkpt>
      <trkpt lat="46.1985" lon="3.01873">
        <ele>531.75</ele>
        <time>2012-03-04T12:53:29Z</time>
      </trkpt>
      <trkpt lat="46.19879" lon="3.01881">
        <ele>532.23</ele>
        <time>2012-03-04T12:53:53Z</time>
      </trkpt>
      <trkpt lat="46.19906" lon="3.01872">
        <ele>531.75</ele>
        <time>2012-03-04T12:54:18Z</time>
      </trkpt>
      <trkpt lat="46.19918" lon="3.01855">
        <ele>530.79</ele>
        <time>2012-03-04T12:54:37Z</time>
      </trkpt>
      <trkpt lat="46.19924" lon="3.01837">
        <ele>530.3</ele>
        <time>2012-03-04T12:54:52Z</time>
      </trkpt>
      <trkpt lat="46.19938" lon="3.01818">
        <ele>529.82</ele>
        <time>2012-03-04T12:55:04Z</time>
      </trkpt>
      <trkpt lat="46.19956" lon="3.018">
        <ele>529.34</ele>
        <time>2012-03-04T12:55:14Z</time>
      </trkpt>
      <trkpt lat="46.1996" lon="3.01783">
        <ele>529.34</ele>
        <time>2012-03-04T12:55:28Z</time>
      </trkpt>
      <trkpt lat="46.1997" lon="3.01781">
        <ele>528.86</ele>
        <time>2012-03-04T12:55:43Z</time>
      </trkpt>
      <trkpt lat="46.19977" lon="3.01794">
        <ele>529.82</ele>
        <time>2012-03-04T12:56:33Z</time>
      </trkpt>
      <trkpt lat="46.19988" lon="3.01806">
        <ele>530.79</ele>
        <time>2012-03-04T12:56:44Z</time>
      </trkpt>
      <trkpt lat="46.20003" lon="3.01823">
        <ele>532.23</ele>
        <time>2012-03-04T12:56:54Z</time>
      </trkpt>
      <trkpt lat="46.20018" lon="3.01835">
        <ele>533.19</ele>
        <time>2012-03-04T12:57:05Z</time>
      </trkpt>
      <trkpt lat="46.20039" lon="3.01852">
        <ele>534.15</ele>
        <time>2012-03-04T12:57:21Z</time>
      </trkpt>
      <trkpt lat="46.20056" lon="3.01867">
        <ele>535.11</ele>
        <time>2012-03-04T12:57:37Z</time>
      </trkpt>
      <trkpt lat="46.20066" lon="3.01873">
        <ele>535.59</ele>
        <time>2012-03-04T12:57:48Z</time>
      </trkpt>
      <trkpt lat="46.20079" lon="3.0188">
        <ele>535.59</ele>
        <time>2012-03-04T12:58:01Z</time>
      </trkpt>
      <trkpt lat="46.20088" lon="3.01891">
        <ele>536.07</ele>
        <time>2012-03-04T12:58:09Z</time>
      </trkpt>
      <trkpt lat="46.20092" lon="3.01906">
        <ele>536.55</ele>
        <time>2012-03-04T12:58:18Z</time>
      </trkpt>
      <trkpt lat="46.20098" lon="3.01922">
        <ele>537.51</ele>
        <time>2012-03-04T12:58:27Z</time>
      </trkpt>
      <trkpt lat="46.20104" lon="3.0194">
        <ele>538.48</ele>
        <time>2012-03-04T12:58:35Z</time>
      </trkpt>
      <trkpt lat="46.20109" lon="3.01958">
        <ele>538.48</ele>
        <time>2012-03-04T12:58:44Z</time>
      </trkpt>
      <trkpt lat="46.20114" lon="3.0197">
        <ele>538.48</ele>
        <time>2012-03-04T12:58:52Z</time>
      </trkpt>
      <trkpt lat="46.20112" lon="3.01986">
        <ele>537.99</ele>
        <time>2012-03-04T12:59:09Z</time>
      </trkpt>
      <trkpt lat="46.20119" lon="3.01995">
        <ele>538.48</ele>
        <time>2012-03-04T12:59:33Z</time>
      </trkpt>
      <trkpt lat="46.20121" lon="3.01997">
        <ele>538.48</ele>
        <time>2012-03-04T13:00:20Z</time>
      </trkpt>
      <trkpt lat="46.20121" lon="3.01991">
        <ele>537.99</ele>
        <time>2012-03-04T13:00:39Z</time>
      </trkpt>
      <trkpt lat="46.20118" lon="3.01995">
        <ele>537.51</ele>
        <time>2012-03-04T13:00:58Z</time>
      </trkpt>
      <trkpt lat="46.20115" lon="3.01998">
        <ele>537.51</ele>
        <time>2012-03-04T13:01:19Z</time>
      </trkpt>
      <trkpt lat="46.20106" lon="3.01997">
        <ele>537.51</ele>
        <time>2012-03-04T13:01:35Z</time>
      </trkpt>
      <trkpt lat="46.20097" lon="3.01996">
        <ele>537.99</ele>
        <time>2012-03-04T13:01:50Z</time>
      </trkpt>
      <trkpt lat="46.20123" lon="3.01993">
        <ele>537.99</ele>
        <time>2012-03-04T13:04:15Z</time>
      </trkpt>
      <trkpt lat="46.20116" lon="3.01992">
        <ele>538.96</ele>
        <time>2012-03-04T13:05:59Z</time>
      </trkpt>
      <trkpt lat="46.20112" lon="3.01997">
        <ele>538.96</ele>
        <time>2012-03-04T13:06:56Z</time>
      </trkpt>
      <trkpt lat="46.20113" lon="3.02001">
        <ele>539.44</ele>
        <time>2012-03-04T13:08:21Z</time>
      </trkpt>
      <trkpt lat="46.2012" lon="3.02007">
        <ele>539.92</ele>
        <time>2012-03-04T13:09:50Z</time>
      </trkpt>
      <trkpt lat="46.20118" lon="3.01999">
        <ele>540.88</ele>
        <time>2012-03-04T13:11:16Z</time>
      </trkpt>
      <trkpt lat="46.2011" lon="3.01994">
        <ele>541.84</ele>
        <time>2012-03-04T13:12:23Z</time>
      </trkpt>
      <trkpt lat="46.20112" lon="3.01987">
        <ele>542.32</ele>
        <time>2012-03-04T13:13:51Z</time>
      </trkpt>
      <trkpt lat="46.20121" lon="3.01988">
        <ele>543.28</ele>
        <time>2012-03-04T13:14:01Z</time>
      </trkpt>
      <trkpt lat="46.20126" lon="3.02003">
        <ele>543.76</ele>
        <time>2012-03-04T13:14:08Z</time>
      </trkpt>
      <trkpt lat="46.20129" lon="3.02018">
        <ele>543.76</ele>
        <time>2012-03-04T13:14:14Z</time>
      </trkpt>
      <trkpt lat="46.20131" lon="3.02031">
        <ele>543.76</ele>
        <time>2012-03-04T13:14:19Z</time>
      </trkpt>
      <trkpt lat="46.20136" lon="3.02042">
        <ele>543.76</ele>
        <time>2012-03-04T13:14:25Z</time>
      </trkpt>
      <trkpt lat="46.20141" lon="3.0205">
        <ele>543.76</ele>
        <time>2012-03-04T13:14:30Z</time>
      </trkpt>
      <trkpt lat="46.20144" lon="3.02061">
        <ele>543.76</ele>
        <time>2012-03-04T13:14:36Z</time>
      </trkpt>
      <trkpt lat="46.20144" lon="3.02075">
        <ele>543.28</ele>
        <time>2012-03-04T13:14:42Z</time>
      </trkpt>
      <trkpt lat="46.20148" lon="3.02087">
        <ele>542.8</ele>
        <time>2012-03-04T13:14:48Z</time>
      </trkpt>
      <trkpt lat="46.20158" lon="3.02093">
        <ele>543.28</ele>
        <time>2012-03-04T13:14:55Z</time>
      </trkpt>
      <trkpt lat="46.2017" lon="3.02093">
        <ele>543.76</ele>
        <time>2012-03-04T13:15:02Z</time>
      </trkpt>
      <trkpt lat="46.2018" lon="3.02089">
        <ele>544.24</ele>
        <time>2012-03-04T13:15:08Z</time>
      </trkpt>
      <trkpt lat="46.2019" lon="3.02093">
        <ele>544.24</ele>
        <time>2012-03-04T13:15:15Z</time>
      </trkpt>
      <trkpt lat="46.20201" lon="3.02102">
        <ele>543.76</ele>
        <time>2012-03-04T13:15:23Z</time>
      </trkpt>
      <trkpt lat="46.20211" lon="3.02115">
        <ele>543.76</ele>
        <time>2012-03-04T13:15:30Z</time>
      </trkpt>
      <trkpt lat="46.20216" lon="3.0213">
        <ele>543.28</ele>
        <time>2012-03-04T13:15:36Z</time>
      </trkpt>
      <trkpt lat="46.20223" lon="3.02142">
        <ele>542.32</ele>
        <time>2012-03-04T13:15:43Z</time>
      </trkpt>
      <trkpt lat="46.20233" lon="3.02149">
        <ele>542.32</ele>
        <time>2012-03-04T13:15:51Z</time>
      </trkpt>
      <trkpt lat="46.20244" lon="3.0215">
        <ele>541.84</ele>
        <time>2012-03-04T13:15:58Z</time>
      </trkpt>
      <trkpt lat="46.20257" lon="3.02151">
        <ele>540.4</ele>
        <time>2012-03-04T13:16:06Z</time>
      </trkpt>
      <trkpt lat="46.2027" lon="3.02152">
        <ele>539.44</ele>
        <time>2012-03-04T13:16:15Z</time>
      </trkpt>
      <trkpt lat="46.20282" lon="3.0216">
        <ele>538.96</ele>
        <time>2012-03-04T13:16:24Z</time>
      </trkpt>
      <trkpt lat="46.20284" lon="3.02177">
        <ele>539.44</ele>
        <time>2012-03-04T13:16:33Z</time>
      </trkpt>
      <trkpt lat="46.20282" lon="3.02194">
        <ele>539.92</ele>
        <time>2012-03-04T13:16:40Z</time>
      </trkpt>
      <trkpt lat="46.20281" lon="3.0221">
        <ele>539.92</ele>
        <time>2012-03-04T13:16:46Z</time>
      </trkpt>
      <trkpt lat="46.20281" lon="3.02226">
        <ele>540.4</ele>
        <time>2012-03-04T13:16:52Z</time>
      </trkpt>
      <trkpt lat="46.20282" lon="3.02241">
        <ele>540.4</ele>
        <time>2012-03-04T13:16:59Z</time>
      </trkpt>
      <trkpt lat="46.20284" lon="3.02255">
        <ele>540.4</ele>
        <time>2012-03-04T13:17:06Z</time>
      </trkpt>
      <trkpt lat="46.20285" lon="3.0227">
        <ele>539.92</ele>
        <time>2012-03-04T13:17:14Z</time>
      </trkpt>
      <trkpt lat="46.20289" lon="3.02281">
        <ele>540.4</ele>
        <time>2012-03-04T13:17:21Z</time>
      </trkpt>
      <trkpt lat="46.20293" lon="3.02292">
        <ele>539.92</ele>
        <time>2012-03-04T13:17:28Z</time>
      </trkpt>
      <trkpt lat="46.20295" lon="3.02304">
        <ele>539.44</ele>
        <time>2012-03-04T13:17:35Z</time>
      </trkpt>
      <trkpt lat="46.20298" lon="3.02317">
        <ele>539.44</ele>
        <time>2012-03-04T13:17:41Z</time>
      </trkpt>
      <trkpt lat="46.203" lon="3.02332">
        <ele>538.96</ele>
        <time>2012-03-04T13:17:47Z</time>
      </trkpt>
      <trkpt lat="46.20301" lon="3.0235">
        <ele>538.96</ele>
        <time>2012-03-04T13:17:54Z</time>
      </trkpt>
      <trkpt lat="46.20305" lon="3.02362">
        <ele>538.48</ele>
        <time>2012-03-04T13:18:01Z</time>
      </trkpt>
      <trkpt lat="46.20308" lon="3.02376">
        <ele>537.51</ele>
        <time>2012-03-04T13:18:11Z</time>
      </trkpt>
      <trkpt lat="46.20307" lon="3.02394">
        <ele>537.03</ele>
        <time>2012-03-04T13:18:20Z</time>
      </trkpt>
      <trkpt lat="46.20304" lon="3.02415">
        <ele>536.55</ele>
        <time>2012-03-04T13:18:28Z</time>
      </trkpt>
      <trkpt lat="46.20298" lon="3.02439">
        <ele>536.55</ele>
        <time>2012-03-04T13:18:35Z</time>
      </trkpt>
      <trkpt lat="46.20295" lon="3.02459">
        <ele>536.55</ele>
        <time>2012-03-04T13:18:41Z</time>
      </trkpt>
      <trkpt lat="46.20293" lon="3.02475">
        <ele>536.07</ele>
        <time>2012-03-04T13:18:47Z</time>
      </trkpt>
      <trkpt lat="46.20292" lon="3.02492">
        <ele>536.07</ele>
        <time>2012-03-04T13:18:53Z</time>
      </trkpt>
      <trkpt lat="46.20292" lon="3.02506">
        <ele>535.59</ele>
        <time>2012-03-04T13:18:59Z</time>
      </trkpt>
      <trkpt lat="46.20293" lon="3.02518">
        <ele>535.11</ele>
        <time>2012-03-04T13:19:05Z</time>
      </trkpt>
      <trkpt lat="46.20293" lon="3.02531">
        <ele>534.63</ele>
        <time>2012-03-04T13:19:11Z</time>
      </trkpt>
      <trkpt lat="46.20291" lon="3.02546">
        <ele>534.63</ele>
        <time>2012-03-04T13:19:17Z</time>
      </trkpt>
      <trkpt lat="46.20288" lon="3.02559">
        <ele>534.15</ele>
        <time>2012-03-04T13:19:23Z</time>
      </trkpt>
      <trkpt lat="46.20284" lon="3.02577">
        <ele>533.19</ele>
        <time>2012-03-04T13:19:32Z</time>
      </trkpt>
      <trkpt lat="46.20281" lon="3.02598">
        <ele>533.19</ele>
        <time>2012-03-04T13:19:42Z</time>
      </trkpt>
      <trkpt lat="46.20279" lon="3.02617">
        <ele>532.23</ele>
        <time>2012-03-04T13:19:51Z</time>
      </trkpt>
      <trkpt lat="46.20277" lon="3.02636">
        <ele>531.75</ele>
        <time>2012-03-04T13:20:00Z</time>
      </trkpt>
      <trkpt lat="46.20277" lon="3.02651">
        <ele>531.75</ele>
        <time>2012-03-04T13:20:09Z</time>
      </trkpt>
      <trkpt lat="46.20277" lon="3.02669">
        <ele>530.79</ele>
        <time>2012-03-04T13:20:20Z</time>
      </trkpt>
      <trkpt lat="46.20273" lon="3.02687">
        <ele>529.82</ele>
        <time>2012-03-04T13:20:29Z</time>
      </trkpt>
      <trkpt lat="46.20269" lon="3.02709">
        <ele>529.34</ele>
        <time>2012-03-04T13:20:39Z</time>
      </trkpt>
      <trkpt lat="46.20256" lon="3.02728">
        <ele>529.34</ele>
        <time>2012-03-04T13:20:51Z</time>
      </trkpt>
      <trkpt lat="46.20244" lon="3.02739">
        <ele>528.86</ele>
        <time>2012-03-04T13:21:01Z</time>
      </trkpt>
      <trkpt lat="46.20228" lon="3.02749">
        <ele>528.38</ele>
        <time>2012-03-04T13:21:13Z</time>
      </trkpt>
      <trkpt lat="46.2021" lon="3.02758">
        <ele>527.42</ele>
        <time>2012-03-04T13:21:25Z</time>
      </trkpt>
      <trkpt lat="46.20195" lon="3.02773">
        <ele>526.46</ele>
        <time>2012-03-04T13:21:39Z</time>
      </trkpt>
      <trkpt lat="46.20176" lon="3.02788">
        <ele>525.5</ele>
        <time>2012-03-04T13:21:56Z</time>
      </trkpt>
      <trkpt lat="46.20164" lon="3.02805">
        <ele>524.06</ele>
        <time>2012-03-04T13:22:10Z</time>
      </trkpt>
      <trkpt lat="46.2015" lon="3.0283">
        <ele>522.61</ele>
        <time>2012-03-04T13:22:28Z</time>
      </trkpt>
      <trkpt lat="46.20137" lon="3.02847">
        <ele>522.13</ele>
        <time>2012-03-04T13:22:39Z</time>
      </trkpt>
      <trkpt lat="46.20127" lon="3.02859">
        <ele>522.13</ele>
        <time>2012-03-04T13:22:50Z</time>
      </trkpt>
      <trkpt lat="46.20117" lon="3.0287">
        <ele>522.13</ele>
        <time>2012-03-04T13:23:00Z</time>
      </trkpt>
      <trkpt lat="46.2011" lon="3.02885">
        <ele>519.25</ele>
        <time>2012-03-04T13:23:13Z</time>
      </trkpt>
      <trkpt lat="46.20106" lon="3.02906">
        <ele>518.29</ele>
        <time>2012-03-04T13:23:24Z</time>
      </trkpt>
      <trkpt lat="46.20102" lon="3.02927">
        <ele>517.33</ele>
        <time>2012-03-04T13:23:34Z</time>
      </trkpt>
      <trkpt lat="46.201" lon="3.02944">
        <ele>516.37</ele>
        <time>2012-03-04T13:23:45Z</time>
      </trkpt>
      <trkpt lat="46.20102" lon="3.02975">
        <ele>514.92</ele>
        <time>2012-03-04T13:23:57Z</time>
      </trkpt>
      <trkpt lat="46.20098" lon="3.03009">
        <ele>511.56</ele>
        <time>2012-03-04T13:24:12Z</time>
      </trkpt>
      <trkpt lat="46.20088" lon="3.03027">
        <ele>509.64</ele>
        <time>2012-03-04T13:24:26Z</time>
      </trkpt>
      <trkpt lat="46.20079" lon="3.03034">
        <ele>509.64</ele>
        <time>2012-03-04T13:25:06Z</time>
      </trkpt>
      <trkpt lat="46.20065" lon="3.03027">
        <ele>510.12</ele>
        <time>2012-03-04T13:25:16Z</time>
      </trkpt>
      <trkpt lat="46.20053" lon="3.03016">
        <ele>510.6</ele>
        <time>2012-03-04T13:25:25Z</time>
      </trkpt>
      <trkpt lat="46.20036" lon="3.03009">
        <ele>510.12</ele>
        <time>2012-03-04T13:25:35Z</time>
      </trkpt>
      <trkpt lat="46.20009" lon="3.03008">
        <ele>509.64</ele>
        <time>2012-03-04T13:25:52Z</time>
      </trkpt>
      <trkpt lat="46.1999" lon="3.03013">
        <ele>508.67</ele>
        <time>2012-03-04T13:26:05Z</time>
      </trkpt>
      <trkpt lat="46.19972" lon="3.03017">
        <ele>508.19</ele>
        <time>2012-03-04T13:26:14Z</time>
      </trkpt>
      <trkpt lat="46.19958" lon="3.03022">
        <ele>507.71</ele>
        <time>2012-03-04T13:26:24Z</time>
      </trkpt>
      <trkpt lat="46.19944" lon="3.03023">
        <ele>506.75</ele>
        <time>2012-03-04T13:26:33Z</time>
      </trkpt>
      <trkpt lat="46.19927" lon="3.03032">
        <ele>506.27</ele>
        <time>2012-03-04T13:26:43Z</time>
      </trkpt>
      <trkpt lat="46.19915" lon="3.03036">
        <ele>504.83</ele>
        <time>2012-03-04T13:26:51Z</time>
      </trkpt>
      <trkpt lat="46.199" lon="3.03028">
        <ele>502.91</ele>
        <time>2012-03-04T13:27:05Z</time>
      </trkpt>
      <trkpt lat="46.19884" lon="3.03023">
        <ele>502.43</ele>
        <time>2012-03-04T13:27:15Z</time>
      </trkpt>
      <trkpt lat="46.19871" lon="3.0301">
        <ele>501.95</ele>
        <time>2012-03-04T13:27:23Z</time>
      </trkpt>
      <trkpt lat="46.19859" lon="3.02992">
        <ele>500.5</ele>
        <time>2012-03-04T13:27:34Z</time>
      </trkpt>
      <trkpt lat="46.19848" lon="3.02969">
        <ele>499.54</ele>
        <time>2012-03-04T13:27:52Z</time>
      </trkpt>
      <trkpt lat="46.19836" lon="3.02952">
        <ele>497.62</ele>
        <time>2012-03-04T13:28:04Z</time>
      </trkpt>
      <trkpt lat="46.19823" lon="3.02932">
        <ele>496.66</ele>
        <time>2012-03-04T13:28:14Z</time>
      </trkpt>
      <trkpt lat="46.19814" lon="3.0292">
        <ele>495.7</ele>
        <time>2012-03-04T13:28:25Z</time>
      </trkpt>
      <trkpt lat="46.19804" lon="3.02897">
        <ele>495.22</ele>
        <time>2012-03-04T13:28:41Z</time>
      </trkpt>
      <trkpt lat="46.19795" lon="3.02867">
        <ele>494.26</ele>
        <time>2012-03-04T13:28:55Z</time>
      </trkpt>
      <trkpt lat="46.19789" lon="3.02841">
        <ele>493.29</ele>
        <time>2012-03-04T13:29:07Z</time>
      </trkpt>
      <trkpt lat="46.19784" lon="3.02821">
        <ele>492.33</ele>
        <time>2012-03-04T13:29:16Z</time>
      </trkpt>
      <trkpt lat="46.19779" lon="3.02801">
        <ele>491.37</ele>
        <time>2012-03-04T13:29:27Z</time>
      </trkpt>
      <trkpt lat="46.19779" lon="3.0278">
        <ele>490.41</ele>
        <time>2012-03-04T13:29:38Z</time>
      </trkpt>
      <trkpt lat="46.19772" lon="3.02761">
        <ele>489.45</ele>
        <time>2012-03-04T13:29:48Z</time>
      </trkpt>
      <trkpt lat="46.19763" lon="3.02743">
        <ele>488.97</ele>
        <time>2012-03-04T13:29:58Z</time>
      </trkpt>
      <trkpt lat="46.19756" lon="3.02729">
        <ele>488.97</ele>
        <time>2012-03-04T13:30:06Z</time>
      </trkpt>
      <trkpt lat="46.19748" lon="3.02718">
        <ele>488.49</ele>
        <time>2012-03-04T13:30:13Z</time>
      </trkpt>
      <trkpt lat="46.19738" lon="3.02709">
        <ele>488.01</ele>
        <time>2012-03-04T13:30:20Z</time>
      </trkpt>
      <trkpt lat="46.19726" lon="3.02714">
        <ele>488.01</ele>
        <time>2012-03-04T13:30:29Z</time>
      </trkpt>
      <trkpt lat="46.19718" lon="3.02727">
        <ele>488.49</ele>
        <time>2012-03-04T13:30:36Z</time>
      </trkpt>
      <trkpt lat="46.19711" lon="3.02738">
        <ele>488.49</ele>
        <time>2012-03-04T13:30:41Z</time>
      </trkpt>
      <trkpt lat="46.19704" lon="3.02749">
        <ele>488.97</ele>
        <time>2012-03-04T13:30:47Z</time>
      </trkpt>
      <trkpt lat="46.19698" lon="3.02759">
        <ele>489.45</ele>
        <time>2012-03-04T13:30:54Z</time>
      </trkpt>
      <trkpt lat="46.1969" lon="3.02773">
        <ele>489.93</ele>
        <time>2012-03-04T13:31:06Z</time>
      </trkpt>
      <trkpt lat="46.19683" lon="3.02787">
        <ele>489.93</ele>
        <time>2012-03-04T13:31:14Z</time>
      </trkpt>
      <trkpt lat="46.19676" lon="3.02802">
        <ele>490.41</ele>
        <time>2012-03-04T13:31:24Z</time>
      </trkpt>
      <trkpt lat="46.19669" lon="3.02824">
        <ele>490.41</ele>
        <time>2012-03-04T13:31:33Z</time>
      </trkpt>
      <trkpt lat="46.19668" lon="3.02839">
        <ele>490.41</ele>
        <time>2012-03-04T13:31:39Z</time>
      </trkpt>
      <trkpt lat="46.19668" lon="3.02854">
        <ele>490.41</ele>
        <time>2012-03-04T13:31:46Z</time>
      </trkpt>
      <trkpt lat="46.19675" lon="3.0287">
        <ele>490.89</ele>
        <time>2012-03-04T13:31:58Z</time>
      </trkpt>
      <trkpt lat="46.19683" lon="3.02884">
        <ele>490.41</ele>
        <time>2012-03-04T13:32:08Z</time>
      </trkpt>
      <trkpt lat="46.1968" lon="3.02903">
        <ele>490.41</ele>
        <time>2012-03-04T13:32:16Z</time>
      </trkpt>
      <trkpt lat="46.19664" lon="3.02929">
        <ele>490.89</ele>
        <time>2012-03-04T13:32:25Z</time>
      </trkpt>
      <trkpt lat="46.19652" lon="3.02934">
        <ele>490.89</ele>
        <time>2012-03-04T13:32:33Z</time>
      </trkpt>
      <trkpt lat="46.1964" lon="3.02935">
        <ele>490.89</ele>
        <time>2012-03-04T13:32:40Z</time>
      </trkpt>
      <trkpt lat="46.19629" lon="3.02934">
        <ele>490.41</ele>
        <time>2012-03-04T13:32:46Z</time>
      </trkpt>
      <trkpt lat="46.19618" lon="3.02927">
        <ele>489.45</ele>
        <time>2012-03-04T13:32:56Z</time>
      </trkpt>
      <trkpt lat="46.19603" lon="3.02923">
        <ele>489.45</ele>
        <time>2012-03-04T13:33:06Z</time>
      </trkpt>
      <trkpt lat="46.1959" lon="3.02923">
        <ele>488.97</ele>
        <time>2012-03-04T13:33:16Z</time>
      </trkpt>
      <trkpt lat="46.19581" lon="3.02934">
        <ele>488.49</ele>
        <time>2012-03-04T13:33:29Z</time>
      </trkpt>
      <trkpt lat="46.19591" lon="3.02946">
        <ele>488.97</ele>
        <time>2012-03-04T13:33:38Z</time>
      </trkpt>
      <trkpt lat="46.19601" lon="3.02958">
        <ele>489.45</ele>
        <time>2012-03-04T13:33:46Z</time>
      </trkpt>
      <trkpt lat="46.1961" lon="3.02968">
        <ele>489.93</ele>
        <time>2012-03-04T13:33:55Z</time>
      </trkpt>
      <trkpt lat="46.19622" lon="3.02971">
        <ele>490.41</ele>
        <time>2012-03-04T13:34:02Z</time>
      </trkpt>
      <trkpt lat="46.1963" lon="3.0298">
        <ele>490.41</ele>
        <time>2012-03-04T13:34:08Z</time>
      </trkpt>
      <trkpt lat="46.19636" lon="3.02989">
        <ele>491.37</ele>
        <time>2012-03-04T13:34:15Z</time>
      </trkpt>
      <trkpt lat="46.19638" lon="3.03006">
        <ele>491.85</ele>
        <time>2012-03-04T13:34:23Z</time>
      </trkpt>
      <trkpt lat="46.19644" lon="3.03018">
        <ele>492.33</ele>
        <time>2012-03-04T13:34:30Z</time>
      </trkpt>
      <trkpt lat="46.19641" lon="3.0304">
        <ele>493.77</ele>
        <time>2012-03-04T13:34:41Z</time>
      </trkpt>
      <trkpt lat="46.19639" lon="3.03064">
        <ele>493.77</ele>
        <time>2012-03-04T13:34:50Z</time>
      </trkpt>
      <trkpt lat="46.19632" lon="3.03089">
        <ele>494.74</ele>
        <time>2012-03-04T13:35:05Z</time>
      </trkpt>
      <trkpt lat="46.19619" lon="3.03112">
        <ele>495.22</ele>
        <time>2012-03-04T13:35:13Z</time>
      </trkpt>
      <trkpt lat="46.19608" lon="3.03139">
        <ele>495.7</ele>
        <time>2012-03-04T13:35:20Z</time>
      </trkpt>
      <trkpt lat="46.19599" lon="3.03149">
        <ele>496.18</ele>
        <time>2012-03-04T13:35:28Z</time>
      </trkpt>
      <trkpt lat="46.19592" lon="3.03164">
        <ele>495.7</ele>
        <time>2012-03-04T13:35:39Z</time>
      </trkpt>
      <trkpt lat="46.19585" lon="3.03179">
        <ele>496.18</ele>
        <time>2012-03-04T13:35:49Z</time>
      </trkpt>
      <trkpt lat="46.19574" lon="3.03195">
        <ele>495.7</ele>
        <time>2012-03-04T13:36:00Z</time>
      </trkpt>
      <trkpt lat="46.19564" lon="3.03214">
        <ele>495.22</ele>
        <time>2012-03-04T13:36:12Z</time>
      </trkpt>
      <trkpt lat="46.19557" lon="3.03228">
        <ele>494.74</ele>
        <time>2012-03-04T13:36:20Z</time>
      </trkpt>
      <trkpt lat="46.19547" lon="3.03244">
        <ele>493.29</ele>
        <time>2012-03-04T13:36:32Z</time>
      </trkpt>
      <trkpt lat="46.19534" lon="3.03261">
        <ele>492.81</ele>
        <time>2012-03-04T13:36:44Z</time>
      </trkpt>
      <trkpt lat="46.19518" lon="3.03266">
        <ele>491.85</ele>
        <time>2012-03-04T13:36:54Z</time>
      </trkpt>
      <trkpt lat="46.19504" lon="3.03258">
        <ele>492.33</ele>
        <time>2012-03-04T13:37:06Z</time>
      </trkpt>
      <trkpt lat="46.19495" lon="3.03242">
        <ele>492.33</ele>
        <time>2012-03-04T13:37:16Z</time>
      </trkpt>
      <trkpt lat="46.19483" lon="3.03225">
        <ele>491.85</ele>
        <time>2012-03-04T13:37:29Z</time>
      </trkpt>
      <trkpt lat="46.19471" lon="3.03223">
        <ele>491.37</ele>
        <time>2012-03-04T13:37:36Z</time>
      </trkpt>
      <trkpt lat="46.19458" lon="3.03238">
        <ele>490.89</ele>
        <time>2012-03-04T13:37:49Z</time>
      </trkpt>
      <trkpt lat="46.19448" lon="3.03247">
        <ele>489.93</ele>
        <time>2012-03-04T13:37:59Z</time>
      </trkpt>
      <trkpt lat="46.19435" lon="3.03246">
        <ele>488.49</ele>
        <time>2012-03-04T13:38:07Z</time>
      </trkpt>
      <trkpt lat="46.19423" lon="3.03241">
        <ele>487.53</ele>
        <time>2012-03-04T13:38:17Z</time>
      </trkpt>
      <trkpt lat="46.1941" lon="3.03233">
        <ele>487.53</ele>
        <time>2012-03-04T13:38:27Z</time>
      </trkpt>
      <trkpt lat="46.19395" lon="3.03234">
        <ele>487.05</ele>
        <time>2012-03-04T13:38:37Z</time>
      </trkpt>
      <trkpt lat="46.19388" lon="3.03244">
        <ele>486.56</ele>
        <time>2012-03-04T13:38:45Z</time>
      </trkpt>
      <trkpt lat="46.19384" lon="3.03257">
        <ele>487.05</ele>
        <time>2012-03-04T13:38:51Z</time>
      </trkpt>
      <trkpt lat="46.19394" lon="3.03266">
        <ele>487.05</ele>
        <time>2012-03-04T13:39:00Z</time>
      </trkpt>
      <trkpt lat="46.19402" lon="3.03278">
        <ele>486.08</ele>
        <time>2012-03-04T13:39:07Z</time>
      </trkpt>
      <trkpt lat="46.19407" lon="3.0331">
        <ele>487.05</ele>
        <time>2012-03-04T13:39:19Z</time>
      </trkpt>
      <trkpt lat="46.19421" lon="3.03325">
        <ele>486.56</ele>
        <time>2012-03-04T13:39:33Z</time>
      </trkpt>
      <trkpt lat="46.19431" lon="3.03331">
        <ele>486.56</ele>
        <time>2012-03-04T13:39:38Z</time>
      </trkpt>
      <trkpt lat="46.19438" lon="3.03344">
        <ele>486.56</ele>
        <time>2012-03-04T13:39:47Z</time>
      </trkpt>
      <trkpt lat="46.19447" lon="3.03356">
        <ele>487.05</ele>
        <time>2012-03-04T13:39:56Z</time>
      </trkpt>
      <trkpt lat="46.19456" lon="3.03367">
        <ele>487.05</ele>
        <time>2012-03-04T13:40:02Z</time>
      </trkpt>
      <trkpt lat="46.19462" lon="3.0338">
        <ele>488.49</ele>
        <time>2012-03-04T13:40:11Z</time>
      </trkpt>
      <trkpt lat="46.1947" lon="3.03394">
        <ele>488.97</ele>
        <time>2012-03-04T13:40:19Z</time>
      </trkpt>
      <trkpt lat="46.19478" lon="3.03406">
        <ele>488.97</ele>
        <time>2012-03-04T13:40:25Z</time>
      </trkpt>
      <trkpt lat="46.19485" lon="3.03419">
        <ele>489.93</ele>
        <time>2012-03-04T13:40:34Z</time>
      </trkpt>
      <trkpt lat="46.19494" lon="3.03428">
        <ele>490.41</ele>
        <time>2012-03-04T13:40:42Z</time>
      </trkpt>
      <trkpt lat="46.19503" lon="3.03437">
        <ele>490.89</ele>
        <time>2012-03-04T13:40:48Z</time>
      </trkpt>
      <trkpt lat="46.19509" lon="3.03448">
        <ele>491.37</ele>
        <time>2012-03-04T13:40:55Z</time>
      </trkpt>
      <trkpt lat="46.19515" lon="3.03459">
        <ele>491.37</ele>
        <time>2012-03-04T13:41:03Z</time>
      </trkpt>
      <trkpt lat="46.19523" lon="3.0347">
        <ele>491.85</ele>
        <time>2012-03-04T13:41:11Z</time>
      </trkpt>
      <trkpt lat="46.19529" lon="3.03485">
        <ele>492.81</ele>
        <time>2012-03-04T13:41:19Z</time>
      </trkpt>
      <trkpt lat="46.19539" lon="3.03488">
        <ele>493.29</ele>
        <time>2012-03-04T13:41:26Z</time>
      </trkpt>
      <trkpt lat="46.19543" lon="3.03508">
        <ele>494.26</ele>
        <time>2012-03-04T13:41:37Z</time>
      </trkpt>
      <trkpt lat="46.19544" lon="3.03521">
        <ele>494.74</ele>
        <time>2012-03-04T13:41:46Z</time>
      </trkpt>
      <trkpt lat="46.19543" lon="3.03534">
        <ele>495.7</ele>
        <time>2012-03-04T13:41:56Z</time>
      </trkpt>
      <trkpt lat="46.19537" lon="3.03548">
        <ele>496.18</ele>
        <time>2012-03-04T13:42:05Z</time>
      </trkpt>
      <trkpt lat="46.19529" lon="3.0357">
        <ele>497.14</ele>
        <time>2012-03-04T13:42:16Z</time>
      </trkpt>
      <trkpt lat="46.19523" lon="3.03581">
        <ele>497.14</ele>
        <time>2012-03-04T13:42:23Z</time>
      </trkpt>
      <trkpt lat="46.19515" lon="3.03594">
        <ele>497.14</ele>
        <time>2012-03-04T13:42:32Z</time>
      </trkpt>
      <trkpt lat="46.19508" lon="3.03609">
        <ele>497.14</ele>
        <time>2012-03-04T13:42:40Z</time>
      </trkpt>
      <trkpt lat="46.19503" lon="3.03619">
        <ele>497.14</ele>
        <time>2012-03-04T13:42:46Z</time>
      </trkpt>
      <trkpt lat="46.19496" lon="3.03631">
        <ele>496.66</ele>
        <time>2012-03-04T13:42:56Z</time>
      </trkpt>
      <trkpt lat="46.19489" lon="3.0365">
        <ele>496.18</ele>
        <time>2012-03-04T13:43:06Z</time>
      </trkpt>
      <trkpt lat="46.19484" lon="3.03668">
        <ele>495.22</ele>
        <time>2012-03-04T13:43:15Z</time>
      </trkpt>
      <trkpt lat="46.19477" lon="3.03686">
        <ele>494.74</ele>
        <time>2012-03-04T13:43:24Z</time>
      </trkpt>
      <trkpt lat="46.19476" lon="3.03704">
        <ele>493.77</ele>
        <time>2012-03-04T13:43:32Z</time>
      </trkpt>
      <trkpt lat="46.19472" lon="3.03726">
        <ele>493.77</ele>
        <time>2012-03-04T13:43:42Z</time>
      </trkpt>
      <trkpt lat="46.19473" lon="3.03747">
        <ele>493.77</ele>
        <time>2012-03-04T13:43:53Z</time>
      </trkpt>
      <trkpt lat="46.19475" lon="3.03763">
        <ele>493.77</ele>
        <time>2012-03-04T13:44:01Z</time>
      </trkpt>
      <trkpt lat="46.19479" lon="3.03781">
        <ele>494.26</ele>
        <time>2012-03-04T13:44:08Z</time>
      </trkpt>
      <trkpt lat="46.19482" lon="3.03796">
        <ele>494.26</ele>
        <time>2012-03-04T13:44:15Z</time>
      </trkpt>
      <trkpt lat="46.19481" lon="3.03811">
        <ele>494.74</ele>
        <time>2012-03-04T13:44:21Z</time>
      </trkpt>
      <trkpt lat="46.1948" lon="3.03826">
        <ele>494.74</ele>
        <time>2012-03-04T13:44:26Z</time>
      </trkpt>
      <trkpt lat="46.19476" lon="3.03845">
        <ele>495.22</ele>
        <time>2012-03-04T13:44:34Z</time>
      </trkpt>
      <trkpt lat="46.19469" lon="3.03861">
        <ele>495.7</ele>
        <time>2012-03-04T13:44:42Z</time>
      </trkpt>
      <trkpt lat="46.19464" lon="3.0388">
        <ele>496.18</ele>
        <time>2012-03-04T13:44:52Z</time>
      </trkpt>
      <trkpt lat="46.1946" lon="3.03898">
        <ele>496.18</ele>
        <time>2012-03-04T13:45:01Z</time>
      </trkpt>
      <trkpt lat="46.19457" lon="3.0392">
        <ele>495.7</ele>
        <time>2012-03-04T13:45:13Z</time>
      </trkpt>
      <trkpt lat="46.19449" lon="3.03941">
        <ele>495.7</ele>
        <time>2012-03-04T13:45:26Z</time>
      </trkpt>
      <trkpt lat="46.19436" lon="3.03961">
        <ele>495.7</ele>
        <time>2012-03-04T13:45:38Z</time>
      </trkpt>
      <trkpt lat="46.19422" lon="3.03973">
        <ele>495.7</ele>
        <time>2012-03-04T13:45:49Z</time>
      </trkpt>
      <trkpt lat="46.19412" lon="3.03983">
        <ele>496.18</ele>
        <time>2012-03-04T13:46:10Z</time>
      </trkpt>
      <trkpt lat="46.19408" lon="3.03992">
        <ele>497.14</ele>
        <time>2012-03-04T13:49:59Z</time>
      </trkpt>
      <trkpt lat="46.19409" lon="3.03992">
        <ele>498.1</ele>
        <time>2012-03-04T13:54:30Z</time>
      </trkpt>
      <trkpt lat="46.19403" lon="3.04007">
        <ele>498.58</ele>
        <time>2012-03-04T13:54:38Z</time>
      </trkpt>
      <trkpt lat="46.19395" lon="3.04017">
        <ele>497.62</ele>
        <time>2012-03-04T13:54:46Z</time>
      </trkpt>
      <trkpt lat="46.19384" lon="3.0402">
        <ele>497.62</ele>
        <time>2012-03-04T13:54:57Z</time>
      </trkpt>
      <trkpt lat="46.19372" lon="3.04022">
        <ele>497.62</ele>
        <time>2012-03-04T13:55:06Z</time>
      </trkpt>
      <trkpt lat="46.1936" lon="3.04021">
        <ele>497.62</ele>
        <time>2012-03-04T13:55:14Z</time>
      </trkpt>
      <trkpt lat="46.19351" lon="3.04021">
        <ele>497.14</ele>
        <time>2012-03-04T13:55:20Z</time>
      </trkpt>
      <trkpt lat="46.19343" lon="3.04023">
        <ele>497.14</ele>
        <time>2012-03-04T13:55:28Z</time>
      </trkpt>
      <trkpt lat="46.19334" lon="3.04024">
        <ele>496.66</ele>
        <time>2012-03-04T13:55:34Z</time>
      </trkpt>
      <trkpt lat="46.19325" lon="3.04027">
        <ele>496.66</ele>
        <time>2012-03-04T13:55:41Z</time>
      </trkpt>
      <trkpt lat="46.19316" lon="3.0403">
        <ele>496.18</ele>
        <time>2012-03-04T13:55:50Z</time>
      </trkpt>
      <trkpt lat="46.19306" lon="3.04032">
        <ele>496.18</ele>
        <time>2012-03-04T13:55:56Z</time>
      </trkpt>
      <trkpt lat="46.19294" lon="3.04033">
        <ele>495.22</ele>
        <time>2012-03-04T13:56:06Z</time>
      </trkpt>
      <trkpt lat="46.19284" lon="3.04032">
        <ele>494.74</ele>
        <time>2012-03-04T13:56:12Z</time>
      </trkpt>
      <trkpt lat="46.19275" lon="3.04033">
        <ele>494.26</ele>
        <time>2012-03-04T13:56:18Z</time>
      </trkpt>
      <trkpt lat="46.19266" lon="3.04035">
        <ele>494.74</ele>
        <time>2012-03-04T13:56:24Z</time>
      </trkpt>
      <trkpt lat="46.19258" lon="3.04035">
        <ele>495.22</ele>
        <time>2012-03-04T13:56:31Z</time>
      </trkpt>
      <trkpt lat="46.1925" lon="3.04032">
        <ele>495.7</ele>
        <time>2012-03-04T13:56:37Z</time>
      </trkpt>
      <trkpt lat="46.1924" lon="3.04032">
        <ele>496.66</ele>
        <time>2012-03-04T13:56:45Z</time>
      </trkpt>
      <trkpt lat="46.19231" lon="3.04028">
        <ele>497.14</ele>
        <time>2012-03-04T13:56:53Z</time>
      </trkpt>
      <trkpt lat="46.19221" lon="3.04026">
        <ele>498.1</ele>
        <time>2012-03-04T13:57:01Z</time>
      </trkpt>
      <trkpt lat="46.19212" lon="3.04024">
        <ele>498.58</ele>
        <time>2012-03-04T13:57:07Z</time>
      </trkpt>
      <trkpt lat="46.19202" lon="3.04025">
        <ele>499.54</ele>
        <time>2012-03-04T13:57:15Z</time>
      </trkpt>
      <trkpt lat="46.19193" lon="3.04023">
        <ele>500.5</ele>
        <time>2012-03-04T13:57:23Z</time>
      </trkpt>
      <trkpt lat="46.19183" lon="3.04023">
        <ele>500.98</ele>
        <time>2012-03-04T13:57:31Z</time>
      </trkpt>
      <trkpt lat="46.19173" lon="3.04021">
        <ele>501.46</ele>
        <time>2012-03-04T13:57:38Z</time>
      </trkpt>
      <trkpt lat="46.19165" lon="3.04017">
        <ele>501.95</ele>
        <time>2012-03-04T13:57:45Z</time>
      </trkpt>
      <trkpt lat="46.19154" lon="3.04013">
        <ele>502.43</ele>
        <time>2012-03-04T13:57:56Z</time>
      </trkpt>
      <trkpt lat="46.19143" lon="3.04013">
        <ele>502.91</ele>
        <time>2012-03-04T13:58:05Z</time>
      </trkpt>
      <trkpt lat="46.19132" lon="3.04017">
        <ele>502.91</ele>
        <time>2012-03-04T13:58:15Z</time>
      </trkpt>
      <trkpt lat="46.19128" lon="3.04033">
        <ele>502.43</ele>
        <time>2012-03-04T13:58:24Z</time>
      </trkpt>
      <trkpt lat="46.19132" lon="3.04049">
        <ele>501.95</ele>
        <time>2012-03-04T13:58:33Z</time>
      </trkpt>
      <trkpt lat="46.19139" lon="3.0406">
        <ele>501.46</ele>
        <time>2012-03-04T13:58:41Z</time>
      </trkpt>
      <trkpt lat="46.1914" lon="3.04074">
        <ele>500.5</ele>
        <time>2012-03-04T13:58:48Z</time>
      </trkpt>
      <trkpt lat="46.19145" lon="3.04087">
        <ele>500.02</ele>
        <time>2012-03-04T13:58:57Z</time>
      </trkpt>
      <trkpt lat="46.19147" lon="3.04102">
        <ele>499.06</ele>
        <time>2012-03-04T13:59:06Z</time>
      </trkpt>
      <trkpt lat="46.19144" lon="3.04122">
        <ele>498.58</ele>
        <time>2012-03-04T13:59:16Z</time>
      </trkpt>
      <trkpt lat="46.19142" lon="3.04143">
        <ele>497.62</ele>
        <time>2012-03-04T13:59:27Z</time>
      </trkpt>
      <trkpt lat="46.19136" lon="3.04168">
        <ele>497.14</ele>
        <time>2012-03-04T13:59:37Z</time>
      </trkpt>
      <trkpt lat="46.19135" lon="3.04188">
        <ele>496.66</ele>
        <time>2012-03-04T13:59:50Z</time>
      </trkpt>
      <trkpt lat="46.19133" lon="3.04207">
        <ele>495.22</ele>
        <time>2012-03-04T13:59:58Z</time>
      </trkpt>
      <trkpt lat="46.19134" lon="3.04223">
        <ele>494.74</ele>
        <time>2012-03-04T14:00:06Z</time>
      </trkpt>
      <trkpt lat="46.19132" lon="3.04239">
        <ele>493.77</ele>
        <time>2012-03-04T14:00:14Z</time>
      </trkpt>
      <trkpt lat="46.19134" lon="3.04252">
        <ele>493.77</ele>
        <time>2012-03-04T14:00:21Z</time>
      </trkpt>
      <trkpt lat="46.19138" lon="3.04265">
        <ele>492.81</ele>
        <time>2012-03-04T14:00:31Z</time>
      </trkpt>
      <trkpt lat="46.19134" lon="3.04284">
        <ele>491.85</ele>
        <time>2012-03-04T14:00:41Z</time>
      </trkpt>
      <trkpt lat="46.1913" lon="3.04304">
        <ele>489.93</ele>
        <time>2012-03-04T14:00:54Z</time>
      </trkpt>
      <trkpt lat="46.19126" lon="3.04322">
        <ele>488.49</ele>
        <time>2012-03-04T14:01:03Z</time>
      </trkpt>
      <trkpt lat="46.19125" lon="3.04339">
        <ele>486.56</ele>
        <time>2012-03-04T14:01:12Z</time>
      </trkpt>
      <trkpt lat="46.19131" lon="3.04355">
        <ele>485.6</ele>
        <time>2012-03-04T14:01:22Z</time>
      </trkpt>
      <trkpt lat="46.19139" lon="3.04367">
        <ele>483.2</ele>
        <time>2012-03-04T14:01:35Z</time>
      </trkpt>
      <trkpt lat="46.19159" lon="3.04384">
        <ele>480.8</ele>
        <time>2012-03-04T14:01:53Z</time>
      </trkpt>
      <trkpt lat="46.19172" lon="3.04403">
        <ele>479.84</ele>
        <time>2012-03-04T14:02:06Z</time>
      </trkpt>
      <trkpt lat="46.19175" lon="3.04422">
        <ele>478.39</ele>
        <time>2012-03-04T14:02:17Z</time>
      </trkpt>
      <trkpt lat="46.19179" lon="3.0444">
        <ele>476.47</ele>
        <time>2012-03-04T14:02:37Z</time>
      </trkpt>
      <trkpt lat="46.19182" lon="3.04451">
        <ele>476.47</ele>
        <time>2012-03-04T14:02:50Z</time>
      </trkpt>
      <trkpt lat="46.19177" lon="3.0447">
        <ele>475.99</ele>
        <time>2012-03-04T14:03:00Z</time>
      </trkpt>
      <trkpt lat="46.19172" lon="3.04491">
        <ele>475.51</ele>
        <time>2012-03-04T14:03:11Z</time>
      </trkpt>
      <trkpt lat="46.19174" lon="3.04507">
        <ele>474.55</ele>
        <time>2012-03-04T14:03:23Z</time>
      </trkpt>
      <trkpt lat="46.19174" lon="3.04529">
        <ele>474.07</ele>
        <time>2012-03-04T14:03:35Z</time>
      </trkpt>
      <trkpt lat="46.19171" lon="3.04549">
        <ele>473.11</ele>
        <time>2012-03-04T14:03:49Z</time>
      </trkpt>
      <trkpt lat="46.1917" lon="3.04568">
        <ele>472.63</ele>
        <time>2012-03-04T14:03:58Z</time>
      </trkpt>
      <trkpt lat="46.19169" lon="3.04593">
        <ele>471.66</ele>
        <time>2012-03-04T14:04:12Z</time>
      </trkpt>
      <trkpt lat="46.19168" lon="3.0462">
        <ele>471.66</ele>
        <time>2012-03-04T14:04:23Z</time>
      </trkpt>
      <trkpt lat="46.19172" lon="3.04636">
        <ele>471.18</ele>
        <time>2012-03-04T14:04:35Z</time>
      </trkpt>
      <trkpt lat="46.19169" lon="3.0466">
        <ele>471.18</ele>
        <time>2012-03-04T14:04:45Z</time>
      </trkpt>
      <trkpt lat="46.19156" lon="3.04702">
        <ele>470.7</ele>
        <time>2012-03-04T14:04:55Z</time>
      </trkpt>
      <trkpt lat="46.19148" lon="3.04735">
        <ele>470.7</ele>
        <time>2012-03-04T14:05:06Z</time>
      </trkpt>
      <trkpt lat="46.19149" lon="3.04751">
        <ele>469.26</ele>
        <time>2012-03-04T14:05:15Z</time>
      </trkpt>
      <trkpt lat="46.1915" lon="3.04767">
        <ele>468.78</ele>
        <time>2012-03-04T14:05:22Z</time>
      </trkpt>
      <trkpt lat="46.19148" lon="3.04789">
        <ele>468.3</ele>
        <time>2012-03-04T14:05:33Z</time>
      </trkpt>
      <trkpt lat="46.1915" lon="3.04808">
        <ele>467.82</ele>
        <time>2012-03-04T14:05:42Z</time>
      </trkpt>
      <trkpt lat="46.1915" lon="3.04825">
        <ele>467.34</ele>
        <time>2012-03-04T14:05:51Z</time>
      </trkpt>
      <trkpt lat="46.19151" lon="3.04843">
        <ele>467.34</ele>
        <time>2012-03-04T14:05:59Z</time>
      </trkpt>
      <trkpt lat="46.19153" lon="3.04861">
        <ele>466.86</ele>
        <time>2012-03-04T14:06:10Z</time>
      </trkpt>
      <trkpt lat="46.19158" lon="3.04873">
        <ele>466.86</ele>
        <time>2012-03-04T14:06:17Z</time>
      </trkpt>
      <trkpt lat="46.19159" lon="3.04889">
        <ele>466.38</ele>
        <time>2012-03-04T14:06:26Z</time>
      </trkpt>
      <trkpt lat="46.1916" lon="3.04902">
        <ele>465.9</ele>
        <time>2012-03-04T14:06:34Z</time>
      </trkpt>
      <trkpt lat="46.19163" lon="3.04916">
        <ele>465.42</ele>
        <time>2012-03-04T14:06:41Z</time>
      </trkpt>
      <trkpt lat="46.19165" lon="3.04929">
        <ele>465.42</ele>
        <time>2012-03-04T14:06:48Z</time>
      </trkpt>
      <trkpt lat="46.19163" lon="3.04944">
        <ele>464.93</ele>
        <time>2012-03-04T14:06:56Z</time>
      </trkpt>
      <trkpt lat="46.19163" lon="3.04958">
        <ele>464.45</ele>
        <time>2012-03-04T14:07:03Z</time>
      </trkpt>
      <trkpt lat="46.19162" lon="3.04979">
        <ele>463.97</ele>
        <time>2012-03-04T14:07:13Z</time>
      </trkpt>
      <trkpt lat="46.19167" lon="3.04992">
        <ele>463.97</ele>
        <time>2012-03-04T14:07:22Z</time>
      </trkpt>
      <trkpt lat="46.19167" lon="3.05013">
        <ele>463.01</ele>
        <time>2012-03-04T14:07:34Z</time>
      </trkpt>
      <trkpt lat="46.19159" lon="3.05032">
        <ele>463.01</ele>
        <time>2012-03-04T14:07:42Z</time>
      </trkpt>
      <trkpt lat="46.19159" lon="3.05049">
        <ele>462.53</ele>
        <time>2012-03-04T14:07:52Z</time>
      </trkpt>
      <trkpt lat="46.19154" lon="3.05068">
        <ele>462.05</ele>
        <time>2012-03-04T14:08:02Z</time>
      </trkpt>
      <trkpt lat="46.19153" lon="3.05088">
        <ele>461.57</ele>
        <time>2012-03-04T14:08:12Z</time>
      </trkpt>
      <trkpt lat="46.19155" lon="3.05103">
        <ele>461.57</ele>
        <time>2012-03-04T14:08:21Z</time>
      </trkpt>
      <trkpt lat="46.19154" lon="3.05121">
        <ele>461.09</ele>
        <time>2012-03-04T14:08:31Z</time>
      </trkpt>
      <trkpt lat="46.19153" lon="3.05136">
        <ele>460.61</ele>
        <time>2012-03-04T14:08:39Z</time>
      </trkpt>
      <trkpt lat="46.19152" lon="3.05153">
        <ele>460.13</ele>
        <time>2012-03-04T14:08:48Z</time>
      </trkpt>
      <trkpt lat="46.1915" lon="3.05164">
        <ele>459.65</ele>
        <time>2012-03-04T14:08:54Z</time>
      </trkpt>
      <trkpt lat="46.19149" lon="3.05178">
        <ele>459.65</ele>
        <time>2012-03-04T14:09:01Z</time>
      </trkpt>
      <trkpt lat="46.19145" lon="3.05195">
        <ele>458.69</ele>
        <time>2012-03-04T14:09:08Z</time>
      </trkpt>
      <trkpt lat="46.19142" lon="3.05209">
        <ele>458.21</ele>
        <time>2012-03-04T14:09:15Z</time>
      </trkpt>
      <trkpt lat="46.19141" lon="3.05226">
        <ele>457.72</ele>
        <time>2012-03-04T14:09:25Z</time>
      </trkpt>
      <trkpt lat="46.19142" lon="3.05239">
        <ele>457.24</ele>
        <time>2012-03-04T14:09:34Z</time>
      </trkpt>
      <trkpt lat="46.19144" lon="3.05253">
        <ele>456.76</ele>
        <time>2012-03-04T14:09:43Z</time>
      </trkpt>
      <trkpt lat="46.19142" lon="3.05274">
        <ele>455.8</ele>
        <time>2012-03-04T14:09:54Z</time>
      </trkpt>
      <trkpt lat="46.19138" lon="3.05289">
        <ele>455.8</ele>
        <time>2012-03-04T14:10:01Z</time>
      </trkpt>
      <trkpt lat="46.19135" lon="3.05306">
        <ele>455.32</ele>
        <time>2012-03-04T14:10:09Z</time>
      </trkpt>
      <trkpt lat="46.19136" lon="3.05319">
        <ele>454.84</ele>
        <time>2012-03-04T14:10:15Z</time>
      </trkpt>
      <trkpt lat="46.1913" lon="3.05333">
        <ele>454.84</ele>
        <time>2012-03-04T14:10:23Z</time>
      </trkpt>
      <trkpt lat="46.1913" lon="3.05347">
        <ele>454.36</ele>
        <time>2012-03-04T14:10:29Z</time>
      </trkpt>
      <trkpt lat="46.19128" lon="3.0536">
        <ele>454.36</ele>
        <time>2012-03-04T14:10:36Z</time>
      </trkpt>
      <trkpt lat="46.19125" lon="3.05375">
        <ele>453.4</ele>
        <time>2012-03-04T14:10:44Z</time>
      </trkpt>
      <trkpt lat="46.19122" lon="3.05389">
        <ele>452.92</ele>
        <time>2012-03-04T14:10:51Z</time>
      </trkpt>
      <trkpt lat="46.19121" lon="3.05404">
        <ele>452.44</ele>
        <time>2012-03-04T14:11:00Z</time>
      </trkpt>
      <trkpt lat="46.1912" lon="3.0542">
        <ele>451.48</ele>
        <time>2012-03-04T14:11:10Z</time>
      </trkpt>
      <trkpt lat="46.19119" lon="3.05436">
        <ele>450.52</ele>
        <time>2012-03-04T14:11:18Z</time>
      </trkpt>
      <trkpt lat="46.19117" lon="3.0545">
        <ele>450.03</ele>
        <time>2012-03-04T14:11:26Z</time>
      </trkpt>
      <trkpt lat="46.19118" lon="3.05466">
        <ele>449.07</ele>
        <time>2012-03-04T14:11:34Z</time>
      </trkpt>
      <trkpt lat="46.19115" lon="3.05484">
        <ele>448.59</ele>
        <time>2012-03-04T14:11:44Z</time>
      </trkpt>
      <trkpt lat="46.19115" lon="3.05499">
        <ele>448.11</ele>
        <time>2012-03-04T14:11:51Z</time>
      </trkpt>
      <trkpt lat="46.19111" lon="3.05512">
        <ele>447.15</ele>
        <time>2012-03-04T14:11:59Z</time>
      </trkpt>
      <trkpt lat="46.19111" lon="3.05528">
        <ele>446.19</ele>
        <time>2012-03-04T14:12:07Z</time>
      </trkpt>
      <trkpt lat="46.19107" lon="3.05545">
        <ele>445.23</ele>
        <time>2012-03-04T14:12:16Z</time>
      </trkpt>
      <trkpt lat="46.19107" lon="3.05562">
        <ele>444.27</ele>
        <time>2012-03-04T14:12:25Z</time>
      </trkpt>
      <trkpt lat="46.19104" lon="3.0558">
        <ele>442.34</ele>
        <time>2012-03-04T14:12:36Z</time>
      </trkpt>
      <trkpt lat="46.19105" lon="3.05601">
        <ele>441.38</ele>
        <time>2012-03-04T14:12:48Z</time>
      </trkpt>
      <trkpt lat="46.191" lon="3.05623">
        <ele>440.42</ele>
        <time>2012-03-04T14:12:59Z</time>
      </trkpt>
      <trkpt lat="46.19092" lon="3.05651">
        <ele>439.46</ele>
        <time>2012-03-04T14:13:12Z</time>
      </trkpt>
      <trkpt lat="46.19091" lon="3.05666">
        <ele>438.98</ele>
        <time>2012-03-04T14:13:20Z</time>
      </trkpt>
      <trkpt lat="46.19084" lon="3.05682">
        <ele>438.02</ele>
        <time>2012-03-04T14:13:29Z</time>
      </trkpt>
      <trkpt lat="46.19077" lon="3.05702">
        <ele>435.61</ele>
        <time>2012-03-04T14:13:42Z</time>
      </trkpt>
      <trkpt lat="46.19075" lon="3.05721">
        <ele>433.69</ele>
        <time>2012-03-04T14:13:57Z</time>
      </trkpt>
      <trkpt lat="46.19074" lon="3.05752">
        <ele>430.33</ele>
        <time>2012-03-04T14:14:17Z</time>
      </trkpt>
      <trkpt lat="46.19078" lon="3.05772">
        <ele>427.44</ele>
        <time>2012-03-04T14:14:34Z</time>
      </trkpt>
      <trkpt lat="46.1908" lon="3.05792">
        <ele>424.56</ele>
        <time>2012-03-04T14:14:47Z</time>
      </trkpt>
      <trkpt lat="46.19085" lon="3.058">
        <ele>423.12</ele>
        <time>2012-03-04T14:14:58Z</time>
      </trkpt>
      <trkpt lat="46.19081" lon="3.05831">
        <ele>421.68</ele>
        <time>2012-03-04T14:15:08Z</time>
      </trkpt>
      <trkpt lat="46.19085" lon="3.05845">
        <ele>419.27</ele>
        <time>2012-03-04T14:15:18Z</time>
      </trkpt>
      <trkpt lat="46.19088" lon="3.05865">
        <ele>419.27</ele>
        <time>2012-03-04T14:15:26Z</time>
      </trkpt>
      <trkpt lat="46.19094" lon="3.05881">
        <ele>418.31</ele>
        <time>2012-03-04T14:15:35Z</time>
      </trkpt>
      <trkpt lat="46.19098" lon="3.05899">
        <ele>417.83</ele>
        <time>2012-03-04T14:15:45Z</time>
      </trkpt>
      <trkpt lat="46.19101" lon="3.05916">
        <ele>416.39</ele>
        <time>2012-03-04T14:15:53Z</time>
      </trkpt>
      <trkpt lat="46.19107" lon="3.05922">
        <ele>415.91</ele>
        <time>2012-03-04T14:16:00Z</time>
      </trkpt>
      <trkpt lat="46.1911" lon="3.05939">
        <ele>414.95</ele>
        <time>2012-03-04T14:16:09Z</time>
      </trkpt>
      <trkpt lat="46.19112" lon="3.05956">
        <ele>414.47</ele>
        <time>2012-03-04T14:16:19Z</time>
      </trkpt>
      <trkpt lat="46.19116" lon="3.05971">
        <ele>413.98</ele>
        <time>2012-03-04T14:16:27Z</time>
      </trkpt>
      <trkpt lat="46.19119" lon="3.05988">
        <ele>413.02</ele>
        <time>2012-03-04T14:16:35Z</time>
      </trkpt>
      <trkpt lat="46.19126" lon="3.06001">
        <ele>412.06</ele>
        <time>2012-03-04T14:16:43Z</time>
      </trkpt>
      <trkpt lat="46.19131" lon="3.06015">
        <ele>411.58</ele>
        <time>2012-03-04T14:16:52Z</time>
      </trkpt>
      <trkpt lat="46.19136" lon="3.06031">
        <ele>411.1</ele>
        <time>2012-03-04T14:17:00Z</time>
      </trkpt>
      <trkpt lat="46.19139" lon="3.06045">
        <ele>410.62</ele>
        <time>2012-03-04T14:17:08Z</time>
      </trkpt>
      <trkpt lat="46.19145" lon="3.06058">
        <ele>410.14</ele>
        <time>2012-03-04T14:17:17Z</time>
      </trkpt>
      <trkpt lat="46.19149" lon="3.06073">
        <ele>410.14</ele>
        <time>2012-03-04T14:17:26Z</time>
      </trkpt>
      <trkpt lat="46.19154" lon="3.06087">
        <ele>409.66</ele>
        <time>2012-03-04T14:17:35Z</time>
      </trkpt>
      <trkpt lat="46.19161" lon="3.06097">
        <ele>409.18</ele>
        <time>2012-03-04T14:17:43Z</time>
      </trkpt>
      <trkpt lat="46.19166" lon="3.06106">
        <ele>409.18</ele>
        <time>2012-03-04T14:18:04Z</time>
      </trkpt>
      <trkpt lat="46.19174" lon="3.06112">
        <ele>411.1</ele>
        <time>2012-03-04T14:18:17Z</time>
      </trkpt>
      <trkpt lat="46.19181" lon="3.06122">
        <ele>413.5</ele>
        <time>2012-03-04T14:18:28Z</time>
      </trkpt>
      <trkpt lat="46.19194" lon="3.06115">
        <ele>415.91</ele>
        <time>2012-03-04T14:18:41Z</time>
      </trkpt>
      <trkpt lat="46.19204" lon="3.06106">
        <ele>417.83</ele>
        <time>2012-03-04T14:18:51Z</time>
      </trkpt>
      <trkpt lat="46.19213" lon="3.06098">
        <ele>420.23</ele>
        <time>2012-03-04T14:19:01Z</time>
      </trkpt>
      <trkpt lat="46.1922" lon="3.06091">
        <ele>421.68</ele>
        <time>2012-03-04T14:19:13Z</time>
      </trkpt>
      <trkpt lat="46.19229" lon="3.06084">
        <ele>423.12</ele>
        <time>2012-03-04T14:19:23Z</time>
      </trkpt>
      <trkpt lat="46.19237" lon="3.06076">
        <ele>424.56</ele>
        <time>2012-03-04T14:19:33Z</time>
      </trkpt>
      <trkpt lat="46.19245" lon="3.0607">
        <ele>426</ele>
        <time>2012-03-04T14:19:42Z</time>
      </trkpt>
      <trkpt lat="46.19253" lon="3.06062">
        <ele>426.96</ele>
        <time>2012-03-04T14:19:51Z</time>
      </trkpt>
      <trkpt lat="46.19262" lon="3.06059">
        <ele>428.89</ele>
        <time>2012-03-04T14:20:03Z</time>
      </trkpt>
      <trkpt lat="46.19271" lon="3.06051">
        <ele>429.85</ele>
        <time>2012-03-04T14:20:12Z</time>
      </trkpt>
      <trkpt lat="46.1928" lon="3.06044">
        <ele>430.81</ele>
        <time>2012-03-04T14:20:21Z</time>
      </trkpt>
      <trkpt lat="46.19288" lon="3.06038">
        <ele>431.29</ele>
        <time>2012-03-04T14:20:38Z</time>
      </trkpt>
      <trkpt lat="46.19299" lon="3.06029">
        <ele>432.73</ele>
        <time>2012-03-04T14:20:48Z</time>
      </trkpt>
      <trkpt lat="46.19308" lon="3.06021">
        <ele>433.69</ele>
        <time>2012-03-04T14:20:57Z</time>
      </trkpt>
      <trkpt lat="46.19321" lon="3.06016">
        <ele>433.69</ele>
        <time>2012-03-04T14:21:09Z</time>
      </trkpt>
      <trkpt lat="46.19331" lon="3.06022">
        <ele>433.69</ele>
        <time>2012-03-04T14:21:18Z</time>
      </trkpt>
      <trkpt lat="46.19339" lon="3.0603">
        <ele>432.73</ele>
        <time>2012-03-04T14:21:28Z</time>
      </trkpt>
      <trkpt lat="46.19349" lon="3.06036">
        <ele>431.77</ele>
        <time>2012-03-04T14:21:36Z</time>
      </trkpt>
      <trkpt lat="46.19355" lon="3.06049">
        <ele>430.81</ele>
        <time>2012-03-04T14:21:45Z</time>
      </trkpt>
      <trkpt lat="46.19362" lon="3.06063">
        <ele>430.33</ele>
        <time>2012-03-04T14:21:56Z</time>
      </trkpt>
      <trkpt lat="46.19373" lon="3.06069">
        <ele>429.85</ele>
        <time>2012-03-04T14:22:05Z</time>
      </trkpt>
      <trkpt lat="46.19383" lon="3.0607">
        <ele>428.4</ele>
        <time>2012-03-04T14:22:13Z</time>
      </trkpt>
      <trkpt lat="46.19394" lon="3.06069">
        <ele>427.44</ele>
        <time>2012-03-04T14:22:20Z</time>
      </trkpt>
      <trkpt lat="46.19404" lon="3.06069">
        <ele>426.96</ele>
        <time>2012-03-04T14:22:27Z</time>
      </trkpt>
      <trkpt lat="46.19414" lon="3.06071">
        <ele>426.48</ele>
        <time>2012-03-04T14:22:35Z</time>
      </trkpt>
      <trkpt lat="46.19421" lon="3.06081">
        <ele>425.52</ele>
        <time>2012-03-04T14:22:44Z</time>
      </trkpt>
      <trkpt lat="46.19428" lon="3.06092">
        <ele>424.08</ele>
        <time>2012-03-04T14:22:51Z</time>
      </trkpt>
      <trkpt lat="46.19429" lon="3.06106">
        <ele>423.12</ele>
        <time>2012-03-04T14:22:59Z</time>
      </trkpt>
      <trkpt lat="46.19434" lon="3.06119">
        <ele>422.16</ele>
        <time>2012-03-04T14:23:07Z</time>
      </trkpt>
      <trkpt lat="46.19435" lon="3.06132">
        <ele>421.19</ele>
        <time>2012-03-04T14:23:14Z</time>
      </trkpt>
      <trkpt lat="46.19438" lon="3.06143">
        <ele>419.75</ele>
        <time>2012-03-04T14:23:22Z</time>
      </trkpt>
      <trkpt lat="46.19443" lon="3.06156">
        <ele>417.83</ele>
        <time>2012-03-04T14:23:31Z</time>
      </trkpt>
      <trkpt lat="46.19449" lon="3.06168">
        <ele>416.39</ele>
        <time>2012-03-04T14:23:39Z</time>
      </trkpt>
      <trkpt lat="46.19453" lon="3.06182">
        <ele>414.95</ele>
        <time>2012-03-04T14:23:48Z</time>
      </trkpt>
      <trkpt lat="46.19456" lon="3.06196">
        <ele>413.5</ele>
        <time>2012-03-04T14:23:57Z</time>
      </trkpt>
      <trkpt lat="46.1946" lon="3.0621">
        <ele>413.02</ele>
        <time>2012-03-04T14:24:04Z</time>
      </trkpt>
      <trkpt lat="46.19463" lon="3.06223">
        <ele>411.58</ele>
        <time>2012-03-04T14:24:13Z</time>
      </trkpt>
      <trkpt lat="46.19467" lon="3.06236">
        <ele>410.14</ele>
        <time>2012-03-04T14:24:20Z</time>
      </trkpt>
      <trkpt lat="46.19472" lon="3.0625">
        <ele>409.18</ele>
        <time>2012-03-04T14:24:29Z</time>
      </trkpt>
      <trkpt lat="46.19475" lon="3.06265">
        <ele>408.22</ele>
        <time>2012-03-04T14:24:37Z</time>
      </trkpt>
      <trkpt lat="46.19479" lon="3.06279">
        <ele>407.26</ele>
        <time>2012-03-04T14:24:44Z</time>
      </trkpt>
      <trkpt lat="46.19483" lon="3.06293">
        <ele>406.77</ele>
        <time>2012-03-04T14:24:51Z</time>
      </trkpt>
      <trkpt lat="46.19486" lon="3.06308">
        <ele>405.81</ele>
        <time>2012-03-04T14:24:59Z</time>
      </trkpt>
      <trkpt lat="46.19488" lon="3.06322">
        <ele>405.81</ele>
        <time>2012-03-04T14:25:05Z</time>
      </trkpt>
      <trkpt lat="46.19487" lon="3.06336">
        <ele>404.37</ele>
        <time>2012-03-04T14:25:09Z</time>
      </trkpt>
      <trkpt lat="46.19489" lon="3.06348">
        <ele>404.37</ele>
        <time>2012-03-04T14:25:14Z</time>
      </trkpt>
      <trkpt lat="46.19494" lon="3.06358">
        <ele>403.89</ele>
        <time>2012-03-04T14:25:20Z</time>
      </trkpt>
      <trkpt lat="46.19497" lon="3.06365">
        <ele>402.93</ele>
        <time>2012-03-04T14:25:28Z</time>
      </trkpt>
      <trkpt lat="46.19502" lon="3.06377">
        <ele>402.93</ele>
        <time>2012-03-04T14:25:35Z</time>
      </trkpt>
      <trkpt lat="46.19507" lon="3.06387">
        <ele>401.97</ele>
        <time>2012-03-04T14:25:43Z</time>
      </trkpt>
      <trkpt lat="46.1951" lon="3.064">
        <ele>401.01</ele>
        <time>2012-03-04T14:25:50Z</time>
      </trkpt>
      <trkpt lat="46.19511" lon="3.06412">
        <ele>400.53</ele>
        <time>2012-03-04T14:25:57Z</time>
      </trkpt>
      <trkpt lat="46.19507" lon="3.06425">
        <ele>399.08</ele>
        <time>2012-03-04T14:26:04Z</time>
      </trkpt>
      <trkpt lat="46.19506" lon="3.06437">
        <ele>398.6</ele>
        <time>2012-03-04T14:26:10Z</time>
      </trkpt>
      <trkpt lat="46.19504" lon="3.0645">
        <ele>397.16</ele>
        <time>2012-03-04T14:26:18Z</time>
      </trkpt>
      <trkpt lat="46.19503" lon="3.06464">
        <ele>396.2</ele>
        <time>2012-03-04T14:26:25Z</time>
      </trkpt>
      <trkpt lat="46.19503" lon="3.06475">
        <ele>395.72</ele>
        <time>2012-03-04T14:26:32Z</time>
      </trkpt>
      <trkpt lat="46.19502" lon="3.06489">
        <ele>394.76</ele>
        <time>2012-03-04T14:26:39Z</time>
      </trkpt>
      <trkpt lat="46.19502" lon="3.06501">
        <ele>393.8</ele>
        <time>2012-03-04T14:26:45Z</time>
      </trkpt>
      <trkpt lat="46.195" lon="3.06513">
        <ele>392.84</ele>
        <time>2012-03-04T14:26:53Z</time>
      </trkpt>
      <trkpt lat="46.19499" lon="3.06529">
        <ele>391.39</ele>
        <time>2012-03-04T14:27:04Z</time>
      </trkpt>
      <trkpt lat="46.19498" lon="3.06543">
        <ele>389.95</ele>
        <time>2012-03-04T14:27:12Z</time>
      </trkpt>
      <trkpt lat="46.19494" lon="3.06558">
        <ele>389.47</ele>
        <time>2012-03-04T14:27:22Z</time>
      </trkpt>
      <trkpt lat="46.19493" lon="3.06572">
        <ele>388.99</ele>
        <time>2012-03-04T14:27:29Z</time>
      </trkpt>
      <trkpt lat="46.19491" lon="3.06585">
        <ele>388.99</ele>
        <time>2012-03-04T14:27:37Z</time>
      </trkpt>
      <trkpt lat="46.1949" lon="3.06601">
        <ele>388.51</ele>
        <time>2012-03-04T14:27:46Z</time>
      </trkpt>
      <trkpt lat="46.19492" lon="3.06616">
        <ele>388.99</ele>
        <time>2012-03-04T14:27:53Z</time>
      </trkpt>
      <trkpt lat="46.1949" lon="3.0663">
        <ele>386.59</ele>
        <time>2012-03-04T14:28:04Z</time>
      </trkpt>
      <trkpt lat="46.19491" lon="3.06644">
        <ele>385.15</ele>
        <time>2012-03-04T14:28:11Z</time>
      </trkpt>
      <trkpt lat="46.19494" lon="3.0666">
        <ele>384.18</ele>
        <time>2012-03-04T14:28:19Z</time>
      </trkpt>
      <trkpt lat="46.19498" lon="3.06676">
        <ele>383.22</ele>
        <time>2012-03-04T14:28:29Z</time>
      </trkpt>
      <trkpt lat="46.19501" lon="3.06691">
        <ele>381.78</ele>
        <time>2012-03-04T14:28:37Z</time>
      </trkpt>
      <trkpt lat="46.19503" lon="3.06706">
        <ele>380.34</ele>
        <time>2012-03-04T14:28:45Z</time>
      </trkpt>
      <trkpt lat="46.19507" lon="3.06719">
        <ele>379.86</ele>
        <time>2012-03-04T14:28:51Z</time>
      </trkpt>
      <trkpt lat="46.19512" lon="3.06732">
        <ele>378.9</ele>
        <time>2012-03-04T14:28:57Z</time>
      </trkpt>
      <trkpt lat="46.19515" lon="3.06744">
        <ele>378.42</ele>
        <time>2012-03-04T14:29:06Z</time>
      </trkpt>
      <trkpt lat="46.19519" lon="3.06756">
        <ele>377.94</ele>
        <time>2012-03-04T14:29:12Z</time>
      </trkpt>
      <trkpt lat="46.19526" lon="3.06766">
        <ele>377.94</ele>
        <time>2012-03-04T14:29:18Z</time>
      </trkpt>
      <trkpt lat="46.19532" lon="3.06775">
        <ele>377.45</ele>
        <time>2012-03-04T14:29:26Z</time>
      </trkpt>
      <trkpt lat="46.19536" lon="3.06789">
        <ele>376.97</ele>
        <time>2012-03-04T14:29:33Z</time>
      </trkpt>
      <trkpt lat="46.19541" lon="3.068">
        <ele>376.97</ele>
        <time>2012-03-04T14:29:39Z</time>
      </trkpt>
      <trkpt lat="46.19548" lon="3.0681">
        <ele>376.97</ele>
        <time>2012-03-04T14:29:45Z</time>
      </trkpt>
      <trkpt lat="46.19551" lon="3.06825">
        <ele>376.49</ele>
        <time>2012-03-04T14:29:54Z</time>
      </trkpt>
      <trkpt lat="46.19562" lon="3.0683">
        <ele>376.97</ele>
        <time>2012-03-04T14:30:01Z</time>
      </trkpt>
      <trkpt lat="46.19572" lon="3.06831">
        <ele>376.97</ele>
        <time>2012-03-04T14:30:07Z</time>
      </trkpt>
      <trkpt lat="46.19582" lon="3.0683">
        <ele>376.97</ele>
        <time>2012-03-04T14:30:15Z</time>
      </trkpt>
      <trkpt lat="46.19592" lon="3.06828">
        <ele>376.49</ele>
        <time>2012-03-04T14:30:22Z</time>
      </trkpt>
      <trkpt lat="46.19604" lon="3.06828">
        <ele>376.49</ele>
        <time>2012-03-04T14:30:33Z</time>
      </trkpt>
      <trkpt lat="46.19617" lon="3.06825">
        <ele>375.53</ele>
        <time>2012-03-04T14:30:43Z</time>
      </trkpt>
      <trkpt lat="46.19628" lon="3.06821">
        <ele>375.05</ele>
        <time>2012-03-04T14:30:51Z</time>
      </trkpt>
      <trkpt lat="46.1964" lon="3.06818">
        <ele>374.09</ele>
        <time>2012-03-04T14:31:00Z</time>
      </trkpt>
      <trkpt lat="46.19651" lon="3.06814">
        <ele>372.65</ele>
        <time>2012-03-04T14:31:09Z</time>
      </trkpt>
      <trkpt lat="46.19663" lon="3.0681">
        <ele>372.65</ele>
        <time>2012-03-04T14:31:17Z</time>
      </trkpt>
      <trkpt lat="46.19674" lon="3.06804">
        <ele>372.65</ele>
        <time>2012-03-04T14:31:26Z</time>
      </trkpt>
      <trkpt lat="46.19688" lon="3.06794">
        <ele>372.65</ele>
        <time>2012-03-04T14:31:33Z</time>
      </trkpt>
      <trkpt lat="46.19697" lon="3.06789">
        <ele>372.65</ele>
        <time>2012-03-04T14:31:40Z</time>
      </trkpt>
      <trkpt lat="46.19707" lon="3.06789">
        <ele>372.65</ele>
        <time>2012-03-04T14:31:50Z</time>
      </trkpt>
      <trkpt lat="46.19717" lon="3.06788">
        <ele>373.13</ele>
        <time>2012-03-04T14:31:56Z</time>
      </trkpt>
      <trkpt lat="46.19726" lon="3.06785">
        <ele>373.13</ele>
        <time>2012-03-04T14:32:01Z</time>
      </trkpt>
      <trkpt lat="46.19735" lon="3.06788">
        <ele>374.09</ele>
        <time>2012-03-04T14:32:10Z</time>
      </trkpt>
      <trkpt lat="46.19744" lon="3.0679">
        <ele>374.57</ele>
        <time>2012-03-04T14:32:17Z</time>
      </trkpt>
      <trkpt lat="46.19753" lon="3.06795">
        <ele>375.05</ele>
        <time>2012-03-04T14:32:26Z</time>
      </trkpt>
      <trkpt lat="46.19762" lon="3.06797">
        <ele>376.01</ele>
        <time>2012-03-04T14:32:33Z</time>
      </trkpt>
      <trkpt lat="46.19771" lon="3.06802">
        <ele>376.49</ele>
        <time>2012-03-04T14:32:41Z</time>
      </trkpt>
      <trkpt lat="46.19782" lon="3.06804">
        <ele>377.45</ele>
        <time>2012-03-04T14:32:49Z</time>
      </trkpt>
      <trkpt lat="46.19791" lon="3.06807">
        <ele>378.42</ele>
        <time>2012-03-04T14:32:57Z</time>
      </trkpt>
      <trkpt lat="46.19802" lon="3.0681">
        <ele>378.9</ele>
        <time>2012-03-04T14:33:05Z</time>
      </trkpt>
      <trkpt lat="46.19812" lon="3.06815">
        <ele>379.86</ele>
        <time>2012-03-04T14:33:14Z</time>
      </trkpt>
      <trkpt lat="46.1982" lon="3.06816">
        <ele>380.34</ele>
        <time>2012-03-04T14:33:28Z</time>
      </trkpt>
      <trkpt lat="46.19832" lon="3.06818">
        <ele>381.78</ele>
        <time>2012-03-04T14:33:36Z</time>
      </trkpt>
      <trkpt lat="46.19844" lon="3.06817">
        <ele>381.78</ele>
        <time>2012-03-04T14:33:42Z</time>
      </trkpt>
      <trkpt lat="46.19855" lon="3.06819">
        <ele>382.26</ele>
        <time>2012-03-04T14:33:53Z</time>
      </trkpt>
      <trkpt lat="46.19867" lon="3.06817">
        <ele>383.22</ele>
        <time>2012-03-04T14:34:01Z</time>
      </trkpt>
      <trkpt lat="46.19876" lon="3.06817">
        <ele>383.22</ele>
        <time>2012-03-04T14:34:10Z</time>
      </trkpt>
      <trkpt lat="46.19879" lon="3.06829">
        <ele>382.74</ele>
        <time>2012-03-04T14:34:23Z</time>
      </trkpt>
      <trkpt lat="46.19876" lon="3.06842">
        <ele>382.26</ele>
        <time>2012-03-04T14:34:31Z</time>
      </trkpt>
      <trkpt lat="46.19876" lon="3.06855">
        <ele>381.3</ele>
        <time>2012-03-04T14:34:37Z</time>
      </trkpt>
      <trkpt lat="46.19876" lon="3.06868">
        <ele>381.3</ele>
        <time>2012-03-04T14:34:43Z</time>
      </trkpt>
      <trkpt lat="46.19874" lon="3.06881">
        <ele>380.34</ele>
        <time>2012-03-04T14:34:52Z</time>
      </trkpt>
      <trkpt lat="46.19872" lon="3.06895">
        <ele>380.34</ele>
        <time>2012-03-04T14:34:59Z</time>
      </trkpt>
      <trkpt lat="46.19872" lon="3.06909">
        <ele>379.86</ele>
        <time>2012-03-04T14:35:06Z</time>
      </trkpt>
      <trkpt lat="46.1987" lon="3.06923">
        <ele>378.9</ele>
        <time>2012-03-04T14:35:15Z</time>
      </trkpt>
      <trkpt lat="46.1987" lon="3.06937">
        <ele>378.9</ele>
        <time>2012-03-04T14:35:22Z</time>
      </trkpt>
      <trkpt lat="46.19864" lon="3.06942">
        <ele>378.42</ele>
        <time>2012-03-04T14:35:33Z</time>
      </trkpt>
      <trkpt lat="46.19852" lon="3.06939">
        <ele>377.94</ele>
        <time>2012-03-04T14:35:43Z</time>
      </trkpt>
      <trkpt lat="46.19841" lon="3.06939">
        <ele>377.45</ele>
        <time>2012-03-04T14:35:50Z</time>
      </trkpt>
      <trkpt lat="46.19832" lon="3.06942">
        <ele>376.97</ele>
        <time>2012-03-04T14:35:59Z</time>
      </trkpt>
      <trkpt lat="46.19828" lon="3.06957">
        <ele>376.01</ele>
        <time>2012-03-04T14:36:09Z</time>
      </trkpt>
      <trkpt lat="46.19826" lon="3.06971">
        <ele>375.05</ele>
        <time>2012-03-04T14:36:16Z</time>
      </trkpt>
      <trkpt lat="46.1982" lon="3.06982">
        <ele>374.57</ele>
        <time>2012-03-04T14:36:27Z</time>
      </trkpt>
      <trkpt lat="46.19809" lon="3.06987">
        <ele>372.65</ele>
        <time>2012-03-04T14:36:39Z</time>
      </trkpt>
      <trkpt lat="46.198" lon="3.06996">
        <ele>371.21</ele>
        <time>2012-03-04T14:36:49Z</time>
      </trkpt>
      <trkpt lat="46.1979" lon="3.07002">
        <ele>369.28</ele>
        <time>2012-03-04T14:37:00Z</time>
      </trkpt>
      <trkpt lat="46.19779" lon="3.07012">
        <ele>366.88</ele>
        <time>2012-03-04T14:37:12Z</time>
      </trkpt>
      <trkpt lat="46.19769" lon="3.07019">
        <ele>364</ele>
        <time>2012-03-04T14:37:31Z</time>
      </trkpt>
      <trkpt lat="46.19759" lon="3.07023">
        <ele>361.59</ele>
        <time>2012-03-04T14:37:43Z</time>
      </trkpt>
      <trkpt lat="46.1975" lon="3.07031">
        <ele>359.19</ele>
        <time>2012-03-04T14:37:57Z</time>
      </trkpt>
      <trkpt lat="46.1974" lon="3.07038">
        <ele>357.75</ele>
        <time>2012-03-04T14:38:12Z</time>
      </trkpt>
      <trkpt lat="46.19731" lon="3.07045">
        <ele>358.71</ele>
        <time>2012-03-04T14:38:34Z</time>
      </trkpt>
      <trkpt lat="46.19721" lon="3.07051">
        <ele>361.11</ele>
        <time>2012-03-04T14:38:54Z</time>
      </trkpt>
      <trkpt lat="46.1971" lon="3.07062">
        <ele>364</ele>
        <time>2012-03-04T14:39:15Z</time>
      </trkpt>
      <trkpt lat="46.19689" lon="3.07134">
        <ele>364.05859375</ele>
      </trkpt>
      <trkpt lat="46.19693" lon="3.07078">
        <ele>367.36</ele>
        <time>2012-03-04T14:39:40Z</time>
      </trkpt>
      <trkpt lat="46.19681" lon="3.07083">
        <ele>368.8</ele>
        <time>2012-03-04T14:39:54Z</time>
      </trkpt>
      <trkpt lat="46.19671" lon="3.07095">
        <ele>369.76</ele>
        <time>2012-03-04T14:40:08Z</time>
      </trkpt>
      <trkpt lat="46.19672" lon="3.0711">
        <ele>369.76</ele>
        <time>2012-03-04T14:40:24Z</time>
      </trkpt>
      <trkpt lat="46.19676" lon="3.07132">
        <ele>369.76</ele>
        <time>2012-03-04T14:40:38Z</time>
      </trkpt>
      <trkpt lat="46.1968" lon="3.07151">
        <ele>368.32</ele>
        <time>2012-03-04T14:40:51Z</time>
      </trkpt>
      <trkpt lat="46.19683" lon="3.07173">
        <ele>366.88</ele>
        <time>2012-03-04T14:41:06Z</time>
      </trkpt>
      <trkpt lat="46.19688" lon="3.07191">
        <ele>366.4</ele>
        <time>2012-03-04T14:41:20Z</time>
      </trkpt>
      <trkpt lat="46.19692" lon="3.07204">
        <ele>365.92</ele>
        <time>2012-03-04T14:41:31Z</time>
      </trkpt>
      <trkpt lat="46.19695" lon="3.07226">
        <ele>364.96</ele>
        <time>2012-03-04T14:41:45Z</time>
      </trkpt>
      <trkpt lat="46.197" lon="3.07242">
        <ele>364.48</ele>
        <time>2012-03-04T14:42:00Z</time>
      </trkpt>
      <trkpt lat="46.19705" lon="3.07265">
        <ele>364</ele>
        <time>2012-03-04T14:42:14Z</time>
      </trkpt>
      <trkpt lat="46.19705" lon="3.07288">
        <ele>364</ele>
        <time>2012-03-04T14:42:26Z</time>
      </trkpt>
      <trkpt lat="46.19706" lon="3.07306">
        <ele>363.52</ele>
        <time>2012-03-04T14:42:39Z</time>
      </trkpt>
      <trkpt lat="46.19708" lon="3.07325">
        <ele>363.52</ele>
        <time>2012-03-04T14:42:50Z</time>
      </trkpt>
      <trkpt lat="46.19709" lon="3.0734">
        <ele>363.04</ele>
        <time>2012-03-04T14:42:59Z</time>
      </trkpt>
      <trkpt lat="46.19706" lon="3.07356">
        <ele>362.55</ele>
        <time>2012-03-04T14:43:08Z</time>
      </trkpt>
      <trkpt lat="46.19705" lon="3.07372">
        <ele>361.59</ele>
        <time>2012-03-04T14:43:17Z</time>
      </trkpt>
      <trkpt lat="46.19706" lon="3.07386">
        <ele>361.11</ele>
        <time>2012-03-04T14:43:24Z</time>
      </trkpt>
      <trkpt lat="46.19709" lon="3.07403">
        <ele>359.67</ele>
        <time>2012-03-04T14:43:44Z</time>
      </trkpt>
      <trkpt lat="46.19713" lon="3.0742">
        <ele>358.71</ele>
        <time>2012-03-04T14:44:02Z</time>
      </trkpt>
      <trkpt lat="46.19703" lon="3.07436">
        <ele>357.75</ele>
        <time>2012-03-04T14:44:13Z</time>
      </trkpt>
      <trkpt lat="46.19695" lon="3.07446">
        <ele>356.79</ele>
        <time>2012-03-04T14:44:25Z</time>
      </trkpt>
      <trkpt lat="46.19694" lon="3.07446">
        <ele>356.79</ele>
        <time>2012-03-04T14:44:41Z</time>
      </trkpt>
      <trkpt lat="46.197" lon="3.07461">
        <ele>355.83</ele>
        <time>2012-03-04T14:44:50Z</time>
      </trkpt>
      <trkpt lat="46.19704" lon="3.07476">
        <ele>355.34</ele>
        <time>2012-03-04T14:45:00Z</time>
      </trkpt>
      <trkpt lat="46.19705" lon="3.07499">
        <ele>355.34</ele>
        <time>2012-03-04T14:45:10Z</time>
      </trkpt>
      <trkpt lat="46.19711" lon="3.07518">
        <ele>354.38</ele>
        <time>2012-03-04T14:45:20Z</time>
      </trkpt>
      <trkpt lat="46.19714" lon="3.07533">
        <ele>354.38</ele>
        <time>2012-03-04T14:45:29Z</time>
      </trkpt>
      <trkpt lat="46.1972" lon="3.07547">
        <ele>353.9</ele>
        <time>2012-03-04T14:45:37Z</time>
      </trkpt>
      <trkpt lat="46.19725" lon="3.07564">
        <ele>353.42</ele>
        <time>2012-03-04T14:45:48Z</time>
      </trkpt>
      <trkpt lat="46.19728" lon="3.07579">
        <ele>352.94</ele>
        <time>2012-03-04T14:45:54Z</time>
      </trkpt>
      <trkpt lat="46.19733" lon="3.07589">
        <ele>352.94</ele>
        <time>2012-03-04T14:46:01Z</time>
      </trkpt>
      <trkpt lat="46.19735" lon="3.07604">
        <ele>352.46</ele>
        <time>2012-03-04T14:46:08Z</time>
      </trkpt>
      <trkpt lat="46.19739" lon="3.07616">
        <ele>351.5</ele>
        <time>2012-03-04T14:46:15Z</time>
      </trkpt>
      <trkpt lat="46.19744" lon="3.07629">
        <ele>351.5</ele>
        <time>2012-03-04T14:46:24Z</time>
      </trkpt>
      <trkpt lat="46.19752" lon="3.0764">
        <ele>351.02</ele>
        <time>2012-03-04T14:46:31Z</time>
      </trkpt>
      <trkpt lat="46.1976" lon="3.07646">
        <ele>350.54</ele>
        <time>2012-03-04T14:46:39Z</time>
      </trkpt>
      <trkpt lat="46.19769" lon="3.07646">
        <ele>349.58</ele>
        <time>2012-03-04T14:46:45Z</time>
      </trkpt>
      <trkpt lat="46.19779" lon="3.07652">
        <ele>348.62</ele>
        <time>2012-03-04T14:46:54Z</time>
      </trkpt>
      <trkpt lat="46.19789" lon="3.07653">
        <ele>347.65</ele>
        <time>2012-03-04T14:47:01Z</time>
      </trkpt>
      <trkpt lat="46.19799" lon="3.0766">
        <ele>346.21</ele>
        <time>2012-03-04T14:47:10Z</time>
      </trkpt>
      <trkpt lat="46.19809" lon="3.07663">
        <ele>345.73</ele>
        <time>2012-03-04T14:47:17Z</time>
      </trkpt>
      <trkpt lat="46.19817" lon="3.07671">
        <ele>344.29</ele>
        <time>2012-03-04T14:47:27Z</time>
      </trkpt>
      <trkpt lat="46.19824" lon="3.07682">
        <ele>343.81</ele>
        <time>2012-03-04T14:47:34Z</time>
      </trkpt>
      <trkpt lat="46.19832" lon="3.0769">
        <ele>342.37</ele>
        <time>2012-03-04T14:47:44Z</time>
      </trkpt>
      <trkpt lat="46.19842" lon="3.07693">
        <ele>341.89</ele>
        <time>2012-03-04T14:47:51Z</time>
      </trkpt>
      <trkpt lat="46.19851" lon="3.07701">
        <ele>340.44</ele>
        <time>2012-03-04T14:48:01Z</time>
      </trkpt>
      <trkpt lat="46.1986" lon="3.07711">
        <ele>339.96</ele>
        <time>2012-03-04T14:48:10Z</time>
      </trkpt>
      <trkpt lat="46.19869" lon="3.07716">
        <ele>339.48</ele>
        <time>2012-03-04T14:48:19Z</time>
      </trkpt>
      <trkpt lat="46.19881" lon="3.07718">
        <ele>339</ele>
        <time>2012-03-04T14:48:27Z</time>
      </trkpt>
      <trkpt lat="46.1989" lon="3.07724">
        <ele>339</ele>
        <time>2012-03-04T14:48:35Z</time>
      </trkpt>
      <trkpt lat="46.19897" lon="3.07737">
        <ele>339.48</ele>
        <time>2012-03-04T14:48:44Z</time>
      </trkpt>
      <trkpt lat="46.19903" lon="3.07751">
        <ele>339.48</ele>
        <time>2012-03-04T14:48:51Z</time>
      </trkpt>
      <trkpt lat="46.19908" lon="3.07766">
        <ele>339</ele>
        <time>2012-03-04T14:49:00Z</time>
      </trkpt>
      <trkpt lat="46.19915" lon="3.07778">
        <ele>339.48</ele>
        <time>2012-03-04T14:49:11Z</time>
      </trkpt>
      <trkpt lat="46.19921" lon="3.07788">
        <ele>339.48</ele>
        <time>2012-03-04T14:49:23Z</time>
      </trkpt>
      <trkpt lat="46.19929" lon="3.07796">
        <ele>339.96</ele>
        <time>2012-03-04T14:50:00Z</time>
      </trkpt>
      <trkpt lat="46.19932" lon="3.07811">
        <ele>339.48</ele>
        <time>2012-03-04T14:50:38Z</time>
      </trkpt>
      <trkpt lat="46.1993" lon="3.0781">
        <ele>339.48</ele>
        <time>2012-03-04T14:50:57Z</time>
      </trkpt>
      <trkpt lat="46.19933" lon="3.07797">
        <ele>339.48</ele>
        <time>2012-03-04T14:51:19Z</time>
      </trkpt>
      <trkpt lat="46.19938" lon="3.07785">
        <ele>339.48</ele>
        <time>2012-03-04T14:51:28Z</time>
      </trkpt>
      <trkpt lat="46.19942" lon="3.07772">
        <ele>339.96</ele>
        <time>2012-03-04T14:51:39Z</time>
      </trkpt>
      <trkpt lat="46.19946" lon="3.07759">
        <ele>339.48</ele>
        <time>2012-03-04T14:51:50Z</time>
      </trkpt>
      <trkpt lat="46.19925" lon="3.07793">
        <ele>357.75</ele>
        <time>2012-03-04T14:57:06Z</time>
      </trkpt>
    </trkseg>
  </trk>
</gpx>